Darstellungsparameter: Aktuell verwendete Einstellungen:
Skalierung der Graphiken ... ?
xyx+y,   Skalierungsfaktor:      Skalierung: Modus: x, Faktor: 1
Darstellungszeitraum ... ?
Vom - - bis: - -   Zeitraum: 15.09.2010 - 15.10.2010
Min/Max/Avg-Anzeige ... ?
Zeige MMA aktuell
Zeige MMA Monat
Zeige MMA alles
Zeige --A aktuell
Zeige --A Monat
Zeige --A alles
Keine MMA-Anzeige
MMA:
Average (ber die Originaldaten)
MMA-Basis: 23.02.2003 - 30.09.2020
Quicknavigation für Darstellung... ?
Tage:      1T, 2T, 3T, 5T -1T -2T -3T -5T +1T +2T +3T +5T
Wochen: 1W, 2W, 3W -1W -2W -3W +1W +2W +3W
Monate: 1M, 3M, 6M -1M -3M -6M +1M +3M +6M
Jahre:    1J, 3J, 5J, 10J -1J -3J -5J -10J +1J +3J +5J +10J
Nutze für die Darstellung ... ?
Originaldaten oder Mittelwerte auf ...
Stundenbasis Tagesbasis Wochenbasis
Monatsbasis Jahresbasis      Datenbasis: Original-Daten
Darstellen als:
Statistik (Auto) Statistik J:M      Darstellung:
Zur Graphik,    zurück zur Übersicht aller Sensoren.
 
Tabellarische Datenbersicht: ?
 
Sensor: Nr:Datum:Temp:Abs-Feuchte:Windchill:Wind:
Aussen-T/F 1 15-09-2010 00:00:04 18 C 7.99 g/m*3 18 C 0 km/h
2 15-09-2010 00:12:04 18 C 7.83 g/m*3 18 C 0 km/h
3 15-09-2010 00:24:04 18 C 7.83 g/m*3 18 C 0 km/h
4 15-09-2010 00:36:04 18 C 7.83 g/m*3 18 C 0 km/h
5 15-09-2010 00:48:04 18.1 C 7.88 g/m*3 18.1 C 0 km/h
6 15-09-2010 01:00:04 18.1 C 7.73 g/m*3 18.1 C 0 km/h
7 15-09-2010 01:12:04 18.1 C 7.73 g/m*3 18.1 C 0 km/h
8 15-09-2010 01:24:04 18.2 C 7.62 g/m*3 18.2 C 0 km/h
9 15-09-2010 01:36:04 18.3 C 7.66 g/m*3 18.3 C 0 km/h
10 15-09-2010 01:48:04 18.2 C 7.62 g/m*3 18.2 C 0 km/h
11 15-09-2010 02:00:04 18.3 C 7.66 g/m*3 18.3 C 0 km/h
12 15-09-2010 02:12:04 18.4 C 7.55 g/m*3 18.4 C 0 km/h
13 15-09-2010 02:24:04 18.4 C 7.55 g/m*3 18.4 C 0 km/h
14 15-09-2010 02:36:05 18.3 C 7.66 g/m*3 18.3 C 0 km/h
15 15-09-2010 02:48:05 18.2 C 7.77 g/m*3 18.2 C 0 km/h
16 15-09-2010 03:00:05 18.2 C 7.93 g/m*3 18.2 C 0 km/h
17 15-09-2010 03:12:05 18.1 C 8.03 g/m*3 18.1 C 0 km/h
18 15-09-2010 03:24:05 18 C 8.29 g/m*3 18 C 0 km/h
19 15-09-2010 03:36:05 18 C 8.45 g/m*3 18 C 0 km/h
20 15-09-2010 03:48:05 18 C 8.45 g/m*3 18 C 0 km/h
21 15-09-2010 04:00:05 17.9 C 8.7 g/m*3 17.9 C 0 km/h
22 15-09-2010 04:12:05 17.9 C 9.01 g/m*3 17.9 C 0 km/h
23 15-09-2010 04:24:05 17.7 C 9.05 g/m*3 17.7 C 0 km/h
24 15-09-2010 04:36:05 17.6 C 9.3 g/m*3 17.6 C 0 km/h
25 15-09-2010 04:48:05 17.4 C 9.48 g/m*3 17.4 C 0 km/h
Sensor: Nr:Datum:Temp:Abs-Feuchte:Windchill:Wind:
Aussen-T/F 26 15-09-2010 05:00:05 17.4 C 9.48 g/m*3 17.4 C 0 km/h
27 15-09-2010 05:12:05 16.9 C 10.07 g/m*3 16.9 C 0 km/h
28 15-09-2010 05:24:05 14.4 C 9.27 g/m*3 14.4 C 0 km/h
29 15-09-2010 05:36:05 13.3 C 9.7 g/m*3 13.3 C 0 km/h
30 15-09-2010 05:48:05 13 C 9.87 g/m*3 13 C 0 km/h
31 15-09-2010 06:00:05 12.9 C 10.03 g/m*3 12.9 C 0 km/h
32 15-09-2010 06:12:05 12.8 C 10.08 g/m*3 12.8 C 0 km/h
33 15-09-2010 06:24:05 12.7 C 10.02 g/m*3 12.7 C 0 km/h
34 15-09-2010 06:36:05 12.7 C 10.13 g/m*3 12.7 C 0 km/h
35 15-09-2010 06:48:05 12.8 C 10.19 g/m*3 12.8 C 0 km/h
36 15-09-2010 07:00:06 12.8 C 10.3 g/m*3 12.8 C 0 km/h
37 15-09-2010 07:12:06 12.7 C 10.24 g/m*3 12.7 C 0 km/h
38 15-09-2010 07:24:06 12.7 C 10.24 g/m*3 12.7 C 0 km/h
39 15-09-2010 07:36:03 12.8 C 10.3 g/m*3 12.8 C 0 km/h
40 15-09-2010 07:48:02 12.7 C 10.35 g/m*3 12.7 C 0 km/h
41 15-09-2010 08:00:02 12.6 C 10.29 g/m*3 12.6 C 0 km/h
42 15-09-2010 08:12:02 12.7 C 10.35 g/m*3 12.7 C 0 km/h
43 15-09-2010 08:24:02 12.7 C 10.35 g/m*3 12.7 C 0 km/h
44 15-09-2010 08:36:01 12.8 C 10.42 g/m*3 12.8 C 0 km/h
45 15-09-2010 08:48:02 12.7 C 10.35 g/m*3 12.7 C 0 km/h
46 15-09-2010 09:00:02 12.5 C 10.22 g/m*3 12.5 C 0 km/h
47 15-09-2010 09:12:01 12.7 C 10.35 g/m*3 12.7 C 0 km/h
48 15-09-2010 09:24:01 12.7 C 10.24 g/m*3 12.7 C 0 km/h
49 15-09-2010 09:36:02 13.1 C 10.38 g/m*3 13.1 C 0 km/h
50 15-09-2010 09:48:02 13.6 C 10.59 g/m*3 13.6 C 0 km/h
Sensor: Nr:Datum:Temp:Abs-Feuchte:Windchill:Wind:
Aussen-T/F 51 15-09-2010 10:00:02 14 C 10.49 g/m*3 14 C 0 km/h
52 15-09-2010 10:12:02 14 C 10.01 g/m*3 14 C 0 km/h
53 15-09-2010 10:24:02 14.1 C 9.95 g/m*3 14.1 C 0 km/h
54 15-09-2010 10:36:02 14.1 C 9.71 g/m*3 14.1 C 0 km/h
55 15-09-2010 10:48:02 14.1 C 9.59 g/m*3 14.1 C 0 km/h
56 15-09-2010 11:00:02 14.2 C 9.52 g/m*3 14.2 C 0 km/h
57 15-09-2010 11:12:02 14.6 C 9.01 g/m*3 14.6 C 0 km/h
58 15-09-2010 11:24:02 15 C 8.72 g/m*3 15 C 0 km/h
59 15-09-2010 11:36:02 15.6 C 8.51 g/m*3 15.6 C 0 km/h
60 15-09-2010 11:48:01 15.7 C 8.43 g/m*3 15.7 C 0 km/h
61 15-09-2010 12:00:01 16.2 C 7.31 g/m*3 16.2 C 0 km/h
62 15-09-2010 12:12:01 16.4 C 7.4 g/m*3 16.4 C 0 km/h
63 15-09-2010 12:24:01 17.2 C 7.18 g/m*3 17.2 C 0 km/h
64 15-09-2010 12:36:01 16.6 C 7.06 g/m*3 16.6 C 0 km/h
65 15-09-2010 12:48:02 16.1 C 6.17 g/m*3 16.1 C 0 km/h
66 15-09-2010 13:00:02 16.1 C 6.44 g/m*3 16.1 C 0 km/h
67 15-09-2010 13:12:02 16.4 C 6.7 g/m*3 16.4 C 0 km/h
68 15-09-2010 13:24:02 17.4 C 6.52 g/m*3 17.4 C 0 km/h
69 15-09-2010 13:36:02 17.9 C 5.95 g/m*3 17.9 C 0 km/h
70 15-09-2010 13:48:02 18.4 C 5.82 g/m*3 18.4 C 0 km/h
71 15-09-2010 14:00:02 18.5 C 5.7 g/m*3 18.5 C 0 km/h
72 15-09-2010 14:12:02 18.1 C 5.87 g/m*3 18.1 C 0 km/h
73 15-09-2010 14:24:02 18.5 C 5.54 g/m*3 18.5 C 0 km/h
74 15-09-2010 14:36:02 18.3 C 5.47 g/m*3 18.3 C 0 km/h
75 15-09-2010 14:48:02 18.5 C 5.7 g/m*3 18.5 C 0 km/h
Sensor: Nr:Datum:Temp:Abs-Feuchte:Windchill:Wind:
Aussen-T/F 76 15-09-2010 15:00:03 19.5 C 5.87 g/m*3 19.5 C 0 km/h
77 15-09-2010 15:12:01 19.6 C 5.4 g/m*3 19.6 C 0 km/h
78 15-09-2010 15:24:01 19.3 C 5.64 g/m*3 19.3 C 0 km/h
79 15-09-2010 15:36:02 19.2 C 5.94 g/m*3 19.2 C 0 km/h
80 15-09-2010 15:48:02 20 C 5.88 g/m*3 20 C 0 km/h
81 15-09-2010 16:00:02 19.6 C 5.91 g/m*3 19.6 C 0 km/h
82 15-09-2010 16:12:02 19.6 C 5.91 g/m*3 19.6 C 0 km/h
83 15-09-2010 16:24:02 19.3 C 5.97 g/m*3 19.3 C 0 km/h
84 15-09-2010 16:36:02 19.6 C 6.08 g/m*3 19.6 C 0 km/h
85 15-09-2010 16:48:02 19.5 C 6.04 g/m*3 19.5 C 0 km/h
86 15-09-2010 17:00:02 20.4 C 5.84 g/m*3 20.4 C 0 km/h
87 15-09-2010 17:12:02 19 C 5.7 g/m*3 19 C 0 km/h
88 15-09-2010 17:24:02 19.4 C 6.01 g/m*3 19.4 C 0 km/h
89 15-09-2010 17:36:02 19.9 C 5.84 g/m*3 19.9 C 0 km/h
90 15-09-2010 17:48:02 19.7 C 5.6 g/m*3 19.7 C 0 km/h
91 15-09-2010 18:00:02 18.7 C 5.44 g/m*3 18.7 C 0 km/h
92 15-09-2010 18:12:02 18.2 C 5.28 g/m*3 18.2 C 0 km/h
93 15-09-2010 18:24:03 17.5 C 5.22 g/m*3 17.5 C 0 km/h
94 15-09-2010 18:36:02 17.7 C 5.28 g/m*3 17.7 C 0 km/h
95 15-09-2010 18:48:02 17.1 C 5.39 g/m*3 17.1 C 0 km/h
96 15-09-2010 19:00:02 16.9 C 5.61 g/m*3 16.9 C 0 km/h
97 15-09-2010 19:12:02 16.7 C 5.4 g/m*3 16.7 C 0 km/h
98 15-09-2010 19:24:02 16.6 C 5.65 g/m*3 16.6 C 0 km/h
99 15-09-2010 19:36:02 16.4 C 5.72 g/m*3 16.4 C 0 km/h
100 15-09-2010 19:48:02 16.4 C 5.86 g/m*3 16.4 C 0 km/h
Sensor: Nr:Datum:Temp:Abs-Feuchte:Windchill:Wind:
Aussen-T/F 101 15-09-2010 20:00:02 16.2 C 6.07 g/m*3 16.2 C 0 km/h
102 15-09-2010 20:12:02 16 C 6.27 g/m*3 16 C 0 km/h
103 15-09-2010 20:24:02 15.8 C 6.46 g/m*3 15.8 C 0 km/h
104 15-09-2010 20:36:01 15.7 C 6.15 g/m*3 15.7 C 0 km/h
105 15-09-2010 20:48:02 15.5 C 6.34 g/m*3 15.5 C 0 km/h
106 15-09-2010 21:00:03 15.4 C 6.31 g/m*3 15.4 C 0 km/h
107 15-09-2010 21:12:01 15.2 C 6.49 g/m*3 15.2 C 0 km/h
108 15-09-2010 21:24:01 15 C 6.41 g/m*3 15 C 0 km/h
109 15-09-2010 21:37:02 15.1 C 6.32 g/m*3 15.1 C 0 km/h
110 15-09-2010 21:49:02 15.2 C 6.36 g/m*3 15.2 C 0 km/h
111 15-09-2010 22:01:02 15.1 C 6.32 g/m*3 15.1 C 0 km/h
112 15-09-2010 22:13:02 15.1 C 6.06 g/m*3 15.1 C 0 km/h
113 15-09-2010 22:25:02 14.9 C 5.86 g/m*3 14.9 C 0 km/h
114 15-09-2010 22:37:02 14.8 C 5.83 g/m*3 14.8 C 0 km/h
115 15-09-2010 22:49:02 14.9 C 5.74 g/m*3 14.9 C 0 km/h
116 15-09-2010 23:01:02 15 C 5.51 g/m*3 15 C 0 km/h
117 15-09-2010 23:13:02 15 C 5.51 g/m*3 15 C 0 km/h
118 15-09-2010 23:25:02 14.9 C 5.74 g/m*3 14.9 C 0 km/h
119 15-09-2010 23:37:02 14.8 C 5.7 g/m*3 14.8 C 0 km/h
120 15-09-2010 23:49:02 14.6 C 5.76 g/m*3 14.6 C 0 km/h
121 16-09-2010 00:01:02 14.5 C 5.97 g/m*3 14.5 C 0 km/h
122 16-09-2010 00:13:02 14.4 C 5.93 g/m*3 14.4 C 0 km/h
123 16-09-2010 00:25:02 14.2 C 5.86 g/m*3 14.2 C 0 km/h
124 16-09-2010 00:37:02 13.8 C 5.96 g/m*3 13.8 C 0 km/h
125 16-09-2010 00:49:02 14 C 5.79 g/m*3 14 C 0 km/h
Sensor: Nr:Datum:Temp:Abs-Feuchte:Windchill:Wind:
Aussen-T/F 126 16-09-2010 01:01:02 14.1 C 5.58 g/m*3 14.1 C 0 km/h
127 16-09-2010 01:13:03 14.2 C 5.49 g/m*3 14.2 C 0 km/h
128 16-09-2010 01:25:03 14.1 C 5.34 g/m*3 14.1 C 0 km/h
129 16-09-2010 01:37:03 14.1 C 5.34 g/m*3 14.1 C 0 km/h
130 16-09-2010 01:49:03 14 C 5.31 g/m*3 14 C 0 km/h
131 16-09-2010 02:01:03 13.9 C 5.51 g/m*3 13.9 C 0 km/h
132 16-09-2010 02:13:03 14.1 C 5.58 g/m*3 14.1 C 0 km/h
133 16-09-2010 02:25:03 14 C 5.79 g/m*3 14 C 0 km/h
134 16-09-2010 02:37:03 13.7 C 5.92 g/m*3 13.7 C 0 km/h
135 16-09-2010 02:49:03 14 C 6.15 g/m*3 14 C 0 km/h
136 16-09-2010 03:01:03 13.9 C 6.35 g/m*3 13.9 C 0 km/h
137 16-09-2010 03:13:03 13.9 C 6.59 g/m*3 13.9 C 0 km/h
138 16-09-2010 03:25:03 13.9 C 6.71 g/m*3 13.9 C 0 km/h
139 16-09-2010 03:37:03 13.8 C 6.79 g/m*3 13.8 C 0 km/h
140 16-09-2010 03:49:03 13.7 C 7.1 g/m*3 13.7 C 0 km/h
141 16-09-2010 04:01:03 13.2 C 7.12 g/m*3 13.2 C 0 km/h
142 16-09-2010 04:13:03 13.6 C 6.94 g/m*3 13.6 C 0 km/h
143 16-09-2010 04:25:03 13.7 C 6.87 g/m*3 13.7 C 0 km/h
144 16-09-2010 04:37:03 13.7 C 6.99 g/m*3 13.7 C 0 km/h
145 16-09-2010 04:49:03 13.7 C 6.99 g/m*3 13.7 C 0 km/h
146 16-09-2010 05:01:03 13.7 C 6.99 g/m*3 13.7 C 0 km/h
147 16-09-2010 05:13:03 13.6 C 7.06 g/m*3 13.6 C 0 km/h
148 16-09-2010 05:25:04 13.2 C 7.35 g/m*3 13.2 C 0 km/h
149 16-09-2010 05:37:04 13.1 C 7.42 g/m*3 13.1 C 0 km/h
150 16-09-2010 05:49:04 13.2 C 7.46 g/m*3 13.2 C 0 km/h
Sensor: Nr:Datum:Temp:Abs-Feuchte:Windchill:Wind:
Aussen-T/F 151 16-09-2010 06:01:04 13.1 C 7.65 g/m*3 13.1 C 0 km/h
152 16-09-2010 06:13:04 12.6 C 7.97 g/m*3 12.6 C 0 km/h
153 16-09-2010 06:25:04 12.5 C 8.03 g/m*3 12.5 C 0 km/h
154 16-09-2010 06:37:04 12.1 C 8.26 g/m*3 12.1 C 0 km/h
155 16-09-2010 06:49:04 11.9 C 8.47 g/m*3 11.9 C 0 km/h
156 16-09-2010 07:01:04 11.9 C 8.47 g/m*3 11.9 C 0 km/h
157 16-09-2010 07:13:04 11.9 C 8.58 g/m*3 11.9 C 0 km/h
158 16-09-2010 07:25:04 11.9 C 8.79 g/m*3 11.9 C 0 km/h
159 16-09-2010 07:37:04 11.6 C 8.73 g/m*3 11.6 C 0 km/h
160 16-09-2010 07:49:04 11.6 C 8.83 g/m*3 11.6 C 0 km/h
161 16-09-2010 08:01:02 11.6 C 8.83 g/m*3 11.6 C 0 km/h
162 16-09-2010 08:13:02 11.7 C 8.79 g/m*3 11.7 C 0 km/h
163 16-09-2010 08:25:02 12 C 8.85 g/m*3 12 C 0 km/h
164 16-09-2010 08:37:02 12 C 8.85 g/m*3 12 C 0 km/h
165 16-09-2010 08:49:02 12 C 8.85 g/m*3 12 C 0 km/h
166 16-09-2010 09:01:02 12 C 8.95 g/m*3 12 C 0 km/h
167 16-09-2010 09:13:02 12.1 C 9.01 g/m*3 12.1 C 0 km/h
168 16-09-2010 09:25:01 12.6 C 9.29 g/m*3 12.6 C 0 km/h
169 16-09-2010 09:37:02 13 C 9.41 g/m*3 13 C 0 km/h
170 16-09-2010 09:49:02 13.5 C 9.59 g/m*3 13.5 C 0 km/h
171 16-09-2010 10:01:02 13.7 C 9.12 g/m*3 13.7 C 0 km/h
172 16-09-2010 10:13:02 14 C 8.68 g/m*3 14 C 0 km/h
173 16-09-2010 10:25:02 14 C 8.56 g/m*3 14 C 0 km/h
174 16-09-2010 10:37:02 14.3 C 8.35 g/m*3 14.3 C 0 km/h
175 16-09-2010 10:49:02 14.6 C 8.51 g/m*3 14.6 C 0 km/h
Sensor: Nr:Datum:Temp:Abs-Feuchte:Windchill:Wind:
Aussen-T/F 176 16-09-2010 11:01:02 15.2 C 8.18 g/m*3 15.2 C 0 km/h
177 16-09-2010 11:13:02 15 C 8.08 g/m*3 15 C 0 km/h
178 16-09-2010 11:25:02 15.2 C 8.44 g/m*3 15.2 C 0 km/h
179 16-09-2010 11:37:02 15.1 C 8.26 g/m*3 15.1 C 0 km/h
180 16-09-2010 11:49:01 15.8 C 8.21 g/m*3 15.8 C 0 km/h
181 16-09-2010 12:01:02 16.4 C 7.82 g/m*3 16.4 C 0 km/h
182 16-09-2010 12:13:02 16.7 C 7.82 g/m*3 16.7 C 0 km/h
183 16-09-2010 12:25:02 17.2 C 7.61 g/m*3 17.2 C 0 km/h
184 16-09-2010 12:37:02 17.1 C 7.42 g/m*3 17.1 C 0 km/h
185 16-09-2010 12:49:02 17.7 C 7.69 g/m*3 17.7 C 0 km/h
186 16-09-2010 13:01:01 17.7 C 7.09 g/m*3 17.7 C 0 km/h
187 16-09-2010 13:13:01 17.9 C 7.02 g/m*3 17.9 C 0 km/h
188 16-09-2010 13:25:02 17.4 C 6.97 g/m*3 17.4 C 0 km/h
189 16-09-2010 13:37:01 16.9 C 7.34 g/m*3 16.9 C 0 km/h
190 16-09-2010 13:49:01 16.7 C 7.39 g/m*3 16.7 C 0 km/h
191 16-09-2010 14:01:01 17 C 7.23 g/m*3 17 C 0 km/h
192 16-09-2010 14:13:01 16 C 7.36 g/m*3 16 C 0 km/h
193 16-09-2010 14:25:01 14 C 8.81 g/m*3 14 C 0 km/h
194 16-09-2010 14:37:02 14.2 C 9.52 g/m*3 14.2 C 0 km/h
195 16-09-2010 14:49:02 15.2 C 10.25 g/m*3 15.2 C 0 km/h
196 16-09-2010 15:01:02 15.9 C 10.29 g/m*3 15.9 C 0 km/h
197 16-09-2010 15:13:02 16.8 C 9.44 g/m*3 16.8 C 0 km/h
198 16-09-2010 15:25:01 17 C 8.97 g/m*3 17 C 0 km/h
199 16-09-2010 15:37:02 18.5 C 9.02 g/m*3 18.5 C 0 km/h
200 16-09-2010 15:49:02 17.9 C 7.79 g/m*3 17.9 C 0 km/h
Sensor: Nr:Datum:Temp:Abs-Feuchte:Windchill:Wind:
Aussen-T/F 201 16-09-2010 16:01:02 18.3 C 7.82 g/m*3 18.3 C 0 km/h
202 16-09-2010 16:13:03 17.4 C 7.56 g/m*3 17.4 C 0 km/h
203 16-09-2010 16:25:01 16.6 C 8.05 g/m*3 16.6 C 0 km/h
204 16-09-2010 16:37:02 15 C 8.85 g/m*3 15 C 0 km/h
205 16-09-2010 16:49:02 14.5 C 9.7 g/m*3 14.5 C 0 km/h
206 16-09-2010 17:01:02 14.5 C 9.83 g/m*3 14.5 C 0 km/h
207 16-09-2010 17:13:02 15.1 C 10.06 g/m*3 15.1 C 0 km/h
208 16-09-2010 17:25:02 15.5 C 9.65 g/m*3 15.5 C 0 km/h
209 16-09-2010 17:37:02 15.2 C 9.22 g/m*3 15.2 C 0 km/h
210 16-09-2010 17:49:02 16.2 C 8.69 g/m*3 16.2 C 0 km/h
211 16-09-2010 18:01:02 15.3 C 8.88 g/m*3 15.3 C 0 km/h
212 16-09-2010 18:13:02 15 C 8.72 g/m*3 15 C 0 km/h
213 16-09-2010 18:25:02 15 C 8.85 g/m*3 15 C 0 km/h
214 16-09-2010 18:37:01 14.8 C 8.99 g/m*3 14.8 C 0 km/h
215 16-09-2010 18:49:02 14.4 C 9.27 g/m*3 14.4 C 0 km/h
216 16-09-2010 19:01:01 13.8 C 9.41 g/m*3 13.8 C 0 km/h
217 16-09-2010 19:13:01 13.5 C 9.59 g/m*3 13.5 C 0 km/h
218 16-09-2010 19:25:02 13.4 C 9.76 g/m*3 13.4 C 0 km/h
219 16-09-2010 19:37:02 13.3 C 9.82 g/m*3 13.3 C 0 km/h
220 16-09-2010 19:49:02 13.1 C 9.81 g/m*3 13.1 C 0 km/h
221 16-09-2010 20:01:02 13 C 9.87 g/m*3 13 C 0 km/h
222 16-09-2010 20:13:02 13 C 9.98 g/m*3 13 C 0 km/h
223 16-09-2010 20:25:02 12.8 C 10.08 g/m*3 12.8 C 0 km/h
224 16-09-2010 20:37:02 12.7 C 10.02 g/m*3 12.7 C 0 km/h
225 16-09-2010 20:49:02 12.7 C 10.13 g/m*3 12.7 C 0 km/h
Sensor: Nr:Datum:Temp:Abs-Feuchte:Windchill:Wind:
Aussen-T/F 226 16-09-2010 21:01:02 12.6 C 10.07 g/m*3 12.6 C 0 km/h
227 16-09-2010 21:13:02 12.7 C 10.13 g/m*3 12.7 C 0 km/h
228 16-09-2010 21:25:01 12.7 C 10.13 g/m*3 12.7 C 0 km/h
229 16-09-2010 21:37:02 12.6 C 10.07 g/m*3 12.6 C 0 km/h
230 16-09-2010 21:49:02 12.5 C 10 g/m*3 12.5 C 0 km/h
231 16-09-2010 22:01:02 12.2 C 9.71 g/m*3 12.2 C 0 km/h
232 16-09-2010 22:13:02 12.2 C 9.6 g/m*3 12.2 C 0 km/h
233 16-09-2010 22:25:02 12.2 C 9.6 g/m*3 12.2 C 0 km/h
234 16-09-2010 22:38:02 12.2 C 9.5 g/m*3 12.2 C 0 km/h
235 16-09-2010 22:50:02 12.2 C 9.5 g/m*3 12.2 C 0 km/h
236 16-09-2010 23:02:02 12.2 C 9.5 g/m*3 12.2 C 0 km/h
237 16-09-2010 23:14:02 12.1 C 9.33 g/m*3 12.1 C 0 km/h
238 16-09-2010 23:26:02 12.1 C 9.22 g/m*3 12.1 C 0 km/h
239 16-09-2010 23:38:02 12.1 C 9.22 g/m*3 12.1 C 0 km/h
240 16-09-2010 23:50:02 12 C 9.17 g/m*3 12 C 0 km/h
241 17-09-2010 00:02:02 12.1 C 9.12 g/m*3 12.1 C 0 km/h
242 17-09-2010 00:14:02 12.1 C 9.22 g/m*3 12.1 C 0 km/h
243 17-09-2010 00:26:02 12.2 C 9.28 g/m*3 12.2 C 0 km/h
244 17-09-2010 00:38:02 12.2 C 9.28 g/m*3 12.2 C 0 km/h
245 17-09-2010 00:50:02 12.2 C 9.28 g/m*3 12.2 C 0 km/h
246 17-09-2010 01:02:02 12.1 C 9.22 g/m*3 12.1 C 0 km/h
247 17-09-2010 01:14:03 12.1 C 9.22 g/m*3 12.1 C 0 km/h
248 17-09-2010 01:26:03 12.1 C 9.33 g/m*3 12.1 C 0 km/h
249 17-09-2010 01:38:03 12 C 9.27 g/m*3 12 C 0 km/h
250 17-09-2010 01:50:03 12 C 9.27 g/m*3 12 C 0 km/h
Sensor: Nr:Datum:Temp:Abs-Feuchte:Windchill:Wind:
Aussen-T/F 251 17-09-2010 02:02:03 11.9 C 9.32 g/m*3 11.9 C 0 km/h
252 17-09-2010 02:14:03 11.9 C 9.32 g/m*3 11.9 C 0 km/h
253 17-09-2010 02:26:03 12 C 9.38 g/m*3 12 C 0 km/h
254 17-09-2010 02:38:03 12 C 9.27 g/m*3 12 C 0 km/h
255 17-09-2010 02:50:03 12 C 9.17 g/m*3 12 C 0 km/h
256 17-09-2010 03:02:03 12.1 C 9.01 g/m*3 12.1 C 0 km/h
257 17-09-2010 03:14:03 12.1 C 8.9 g/m*3 12.1 C 0 km/h
258 17-09-2010 03:26:03 12.1 C 8.9 g/m*3 12.1 C 0 km/h
259 17-09-2010 03:38:03 12 C 8.95 g/m*3 12 C 0 km/h
260 17-09-2010 03:50:03 12 C 8.95 g/m*3 12 C 0 km/h
261 17-09-2010 04:02:03 12 C 9.06 g/m*3 12 C 0 km/h
262 17-09-2010 04:14:03 11.9 C 8.9 g/m*3 11.9 C 0 km/h
263 17-09-2010 04:26:03 12 C 8.85 g/m*3 12 C 0 km/h
264 17-09-2010 04:38:03 11.8 C 8.63 g/m*3 11.8 C 0 km/h
265 17-09-2010 04:50:03 12 C 8.21 g/m*3 12 C 0 km/h
266 17-09-2010 05:02:03 11.9 C 8.15 g/m*3 11.9 C 0 km/h
267 17-09-2010 05:14:03 11.5 C 8.16 g/m*3 11.5 C 0 km/h
268 17-09-2010 05:26:04 11.1 C 8.16 g/m*3 11.1 C 0 km/h
269 17-09-2010 05:38:04 10.8 C 8.3 g/m*3 10.8 C 0 km/h
270 17-09-2010 05:50:04 10.7 C 8.35 g/m*3 10.7 C 0 km/h
271 17-09-2010 06:02:04 10.5 C 8.34 g/m*3 10.5 C 0 km/h
272 17-09-2010 06:14:04 10.5 C 8.44 g/m*3 10.5 C 0 km/h
273 17-09-2010 06:26:04 10.7 C 8.74 g/m*3 10.7 C 0 km/h
274 17-09-2010 06:38:04 10.8 C 8.8 g/m*3 10.8 C 0 km/h
275 17-09-2010 06:50:04 10.5 C 8.63 g/m*3 10.5 C 0 km/h
Sensor: Nr:Datum:Temp:Abs-Feuchte:Windchill:Wind:
Aussen-T/F 276 17-09-2010 07:02:02 10.2 C 8.37 g/m*3 10.2 C 0 km/h
277 17-09-2010 07:14:02 10 C 8.27 g/m*3 10 C 0 km/h
278 17-09-2010 07:26:02 9.9 C 8.31 g/m*3 9.9 C 0 km/h
279 17-09-2010 07:38:01 10 C 7.99 g/m*3 10 C 0 km/h
280 17-09-2010 07:50:02 10 C 7.8 g/m*3 10 C 0 km/h
281 17-09-2010 08:02:01 9.9 C 7.84 g/m*3 9.9 C 0 km/h
282 17-09-2010 08:14:01 10 C 7.8 g/m*3 10 C 0 km/h
283 17-09-2010 08:26:01 10.1 C 7.66 g/m*3 10.1 C 0 km/h
284 17-09-2010 08:38:01 10.3 C 7.57 g/m*3 10.3 C 0 km/h
285 17-09-2010 08:50:01 10.8 C 7.41 g/m*3 10.8 C 0 km/h
286 17-09-2010 09:02:01 10.8 C 7.31 g/m*3 10.8 C 0 km/h
287 17-09-2010 09:14:01 10.7 C 7.27 g/m*3 10.7 C 0 km/h
288 17-09-2010 09:26:02 10.8 C 7.31 g/m*3 10.8 C 0 km/h
289 17-09-2010 09:38:01 10.9 C 7.26 g/m*3 10.9 C 0 km/h
290 17-09-2010 09:50:02 11.1 C 7.25 g/m*3 11.1 C 0 km/h
291 17-09-2010 10:02:02 11.4 C 7.39 g/m*3 11.4 C 0 km/h
292 17-09-2010 10:14:02 11.7 C 7.53 g/m*3 11.7 C 0 km/h
293 17-09-2010 10:26:02 12.1 C 7.61 g/m*3 12.1 C 0 km/h
294 17-09-2010 10:38:01 12.4 C 7.54 g/m*3 12.4 C 0 km/h
295 17-09-2010 10:50:02 12.7 C 7.68 g/m*3 12.7 C 0 km/h
296 17-09-2010 11:02:01 13.1 C 7.65 g/m*3 13.1 C 0 km/h
297 17-09-2010 11:14:01 13.3 C 7.63 g/m*3 13.3 C 0 km/h
298 17-09-2010 11:26:01 13.8 C 7.74 g/m*3 13.8 C 0 km/h
299 17-09-2010 11:38:02 14.1 C 7.4 g/m*3 14.1 C 0 km/h
300 17-09-2010 11:50:02 14.3 C 7.37 g/m*3 14.3 C 0 km/h
Sensor: Nr:Datum:Temp:Abs-Feuchte:Windchill:Wind:
Aussen-T/F 301 17-09-2010 12:02:02 15.2 C 7.01 g/m*3 15.2 C 0 km/h
302 17-09-2010 12:14:02 15.2 C 6.62 g/m*3 15.2 C 0 km/h
303 17-09-2010 12:26:02 15.7 C 6.42 g/m*3 15.7 C 0 km/h
304 17-09-2010 12:38:02 16.2 C 6.62 g/m*3 16.2 C 0 km/h
305 17-09-2010 12:50:02 16.2 C 6.21 g/m*3 16.2 C 0 km/h
306 17-09-2010 13:02:02 15.9 C 6.23 g/m*3 15.9 C 0 km/h
307 17-09-2010 13:14:02 16.2 C 5.93 g/m*3 16.2 C 0 km/h
308 17-09-2010 13:26:02 16.3 C 5.83 g/m*3 16.3 C 0 km/h
309 17-09-2010 13:38:02 17 C 5.79 g/m*3 17 C 0 km/h
310 17-09-2010 13:50:02 17.9 C 5.65 g/m*3 17.9 C 0 km/h
311 17-09-2010 14:02:02 18.5 C 5.54 g/m*3 18.5 C 0 km/h
312 17-09-2010 14:14:02 17.1 C 5.24 g/m*3 17.1 C 0 km/h
313 17-09-2010 14:26:02 16.8 C 5.29 g/m*3 16.8 C 0 km/h
314 17-09-2010 14:38:02 17.4 C 5.34 g/m*3 17.4 C 0 km/h
315 17-09-2010 14:50:02 18.3 C 5 g/m*3 18.3 C 0 km/h
316 17-09-2010 15:02:02 18.6 C 4.93 g/m*3 18.6 C 0 km/h
317 17-09-2010 15:14:02 18.2 C 4.97 g/m*3 18.2 C 0 km/h
318 17-09-2010 15:26:02 17.2 C 5.13 g/m*3 17.2 C 0 km/h
319 17-09-2010 15:38:02 16.6 C 5.09 g/m*3 16.6 C 0 km/h
320 17-09-2010 15:50:02 16.8 C 5.15 g/m*3 16.8 C 0 km/h
321 17-09-2010 16:02:02 18.4 C 5.19 g/m*3 18.4 C 0 km/h
322 17-09-2010 16:14:02 18.9 C 5.02 g/m*3 18.9 C 0 km/h
323 17-09-2010 16:26:02 19.3 C 4.81 g/m*3 19.3 C 0 km/h
324 17-09-2010 16:38:01 18.9 C 4.86 g/m*3 18.9 C 0 km/h
325 17-09-2010 16:50:02 19.8 C 4.78 g/m*3 19.8 C 0 km/h
Sensor: Nr:Datum:Temp:Abs-Feuchte:Windchill:Wind:
Aussen-T/F 326 17-09-2010 17:02:01 20.1 C 4.69 g/m*3 20.1 C 0 km/h
327 17-09-2010 17:14:01 19.7 C 4.25 g/m*3 19.7 C 0 km/h
328 17-09-2010 17:26:01 18.8 C 4.35 g/m*3 18.8 C 0 km/h
329 17-09-2010 17:38:02 19.3 C 4.31 g/m*3 19.3 C 0 km/h
330 17-09-2010 17:50:02 19.4 C 4.67 g/m*3 19.4 C 0 km/h
331 17-09-2010 18:02:02 17.5 C 5.22 g/m*3 17.5 C 0 km/h
332 17-09-2010 18:14:02 16 C 5.99 g/m*3 16 C 0 km/h
333 17-09-2010 18:26:02 17.2 C 6.3 g/m*3 17.2 C 0 km/h
334 17-09-2010 18:38:02 16.3 C 6.24 g/m*3 16.3 C 0 km/h
335 17-09-2010 18:50:01 16.3 C 6.66 g/m*3 16.3 C 0 km/h
336 17-09-2010 19:02:01 16.3 C 6.66 g/m*3 16.3 C 0 km/h
337 17-09-2010 19:14:02 15.7 C 6.56 g/m*3 15.7 C 0 km/h
338 17-09-2010 19:26:01 15 C 6.54 g/m*3 15 C 0 km/h
339 17-09-2010 19:38:01 14.7 C 6.8 g/m*3 14.7 C 0 km/h
340 17-09-2010 19:50:02 14.5 C 6.84 g/m*3 14.5 C 0 km/h
341 17-09-2010 20:02:02 14.5 C 6.96 g/m*3 14.5 C 0 km/h
342 17-09-2010 20:14:02 14.5 C 6.96 g/m*3 14.5 C 0 km/h
343 17-09-2010 20:26:02 14.5 C 7.09 g/m*3 14.5 C 0 km/h
344 17-09-2010 20:38:02 14.1 C 7.28 g/m*3 14.1 C 0 km/h
345 17-09-2010 20:50:01 13.7 C 6.99 g/m*3 13.7 C 0 km/h
346 17-09-2010 21:02:02 13.7 C 7.22 g/m*3 13.7 C 0 km/h
347 17-09-2010 21:14:02 13.5 C 7.13 g/m*3 13.5 C 0 km/h
348 17-09-2010 21:26:01 13.4 C 7.09 g/m*3 13.4 C 0 km/h
349 17-09-2010 21:38:01 13.4 C 7.09 g/m*3 13.4 C 0 km/h
350 17-09-2010 21:50:01 13.4 C 7.21 g/m*3 13.4 C 0 km/h
Sensor: Nr:Datum:Temp:Abs-Feuchte:Windchill:Wind:
Aussen-T/F 351 17-09-2010 22:02:01 13.6 C 6.94 g/m*3 13.6 C 0 km/h
352 17-09-2010 22:14:01 13.6 C 6.71 g/m*3 13.6 C 0 km/h
353 17-09-2010 22:26:02 13.4 C 6.63 g/m*3 13.4 C 0 km/h
354 17-09-2010 22:39:36 13.1 C 6.62 g/m*3 13.1 C 0 km/h
355 17-09-2010 22:51:37 13 C 6.69 g/m*3 13 C 0 km/h
356 17-09-2010 23:03:37 12.8 C 6.72 g/m*3 12.8 C 0 km/h
357 17-09-2010 23:15:37 12.6 C 6.75 g/m*3 12.6 C 0 km/h
358 17-09-2010 23:27:37 12.6 C 6.86 g/m*3 12.6 C 0 km/h
359 17-09-2010 23:39:37 12.5 C 6.82 g/m*3 12.5 C 0 km/h
360 17-09-2010 23:51:37 12.4 C 6.88 g/m*3 12.4 C 0 km/h
361 18-09-2010 00:03:37 12.2 C 6.8 g/m*3 12.2 C 0 km/h
362 18-09-2010 00:15:37 12.3 C 6.95 g/m*3 12.3 C 0 km/h
363 18-09-2010 00:27:37 12 C 6.82 g/m*3 12 C 0 km/h
364 18-09-2010 00:39:37 12 C 7.03 g/m*3 12 C 0 km/h
365 18-09-2010 00:51:37 12.1 C 7.08 g/m*3 12.1 C 0 km/h
366 18-09-2010 01:03:37 11.9 C 7.2 g/m*3 11.9 C 0 km/h
367 18-09-2010 01:15:37 11.2 C 6.99 g/m*3 11.2 C 0 km/h
368 18-09-2010 01:27:37 10.8 C 7.02 g/m*3 10.8 C 0 km/h
369 18-09-2010 01:39:37 10.4 C 6.94 g/m*3 10.4 C 0 km/h
370 18-09-2010 01:51:37 10.2 C 6.85 g/m*3 10.2 C 0 km/h
371 18-09-2010 02:03:37 10.2 C 6.95 g/m*3 10.2 C 0 km/h
372 18-09-2010 02:15:37 10 C 7.05 g/m*3 10 C 0 km/h
373 18-09-2010 02:27:37 10 C 7.24 g/m*3 10 C 0 km/h
374 18-09-2010 02:39:37 9.8 C 7.33 g/m*3 9.8 C 0 km/h
375 18-09-2010 02:51:37 10 C 7.42 g/m*3 10 C 0 km/h
Sensor: Nr:Datum:Temp:Abs-Feuchte:Windchill:Wind:
Aussen-T/F 376 18-09-2010 03:03:38 9.9 C 7.47 g/m*3 9.9 C 0 km/h
377 18-09-2010 03:15:38 9.5 C 7.28 g/m*3 9.5 C 0 km/h
378 18-09-2010 03:27:38 9.4 C 7.33 g/m*3 9.4 C 0 km/h
379 18-09-2010 03:39:38 9.1 C 7.19 g/m*3 9.1 C 0 km/h
380 18-09-2010 03:51:38 9 C 7.23 g/m*3 9 C 0 km/h
381 18-09-2010 04:03:38 8.9 C 7.36 g/m*3 8.9 C 0 km/h
382 18-09-2010 04:15:38 8.7 C 7.26 g/m*3 8.7 C 0 km/h
383 18-09-2010 04:27:38 8.5 C 7.17 g/m*3 8.5 C 0 km/h
384 18-09-2010 04:39:38 8.4 C 7.13 g/m*3 8.4 C 0 km/h
385 18-09-2010 04:51:38 8.2 C 7.03 g/m*3 8.2 C 0 km/h
386 18-09-2010 05:03:38 8.2 C 7.12 g/m*3 8.2 C 0 km/h
387 18-09-2010 05:15:38 8.1 C 7.16 g/m*3 8.1 C 0 km/h
388 18-09-2010 05:27:38 7.9 C 7.23 g/m*3 7.9 C 0 km/h
389 18-09-2010 05:39:38 7.7 C 7.14 g/m*3 7.7 C 0 km/h
390 18-09-2010 05:51:38 7.8 C 7.26 g/m*3 7.8 C 0 km/h
391 18-09-2010 06:03:38 7.8 C 7.35 g/m*3 7.8 C 0 km/h
392 18-09-2010 06:15:38 7.5 C 7.28 g/m*3 7.5 C 0 km/h
393 18-09-2010 06:27:38 7.5 C 7.28 g/m*3 7.5 C 0 km/h
394 18-09-2010 06:39:38 7.6 C 7.41 g/m*3 7.6 C 0 km/h
395 18-09-2010 06:51:38 7.7 C 7.46 g/m*3 7.7 C 0 km/h
396 18-09-2010 07:03:39 7.7 C 7.46 g/m*3 7.7 C 0 km/h
397 18-09-2010 07:15:39 7.6 C 7.33 g/m*3 7.6 C 0 km/h
398 18-09-2010 07:27:39 7.5 C 7.28 g/m*3 7.5 C 0 km/h
399 18-09-2010 07:39:39 7.3 C 7.19 g/m*3 7.3 C 0 km/h
400 18-09-2010 07:51:39 7.4 C 7.24 g/m*3 7.4 C 0 km/h
Sensor: Nr:Datum:Temp:Abs-Feuchte:Windchill:Wind:
Aussen-T/F 401 18-09-2010 08:03:02 7.3 C 7.11 g/m*3 7.3 C 0 km/h
402 18-09-2010 08:15:03 7.4 C 7.16 g/m*3 7.4 C 0 km/h
403 18-09-2010 08:27:03 7.5 C 7.28 g/m*3 7.5 C 0 km/h
404 18-09-2010 08:39:02 7.5 C 7.28 g/m*3 7.5 C 0 km/h
405 18-09-2010 08:51:02 7.6 C 7.33 g/m*3 7.6 C 0 km/h
406 18-09-2010 09:03:02 7.7 C 7.38 g/m*3 7.7 C 0 km/h
407 18-09-2010 09:15:02 7.8 C 7.43 g/m*3 7.8 C 0 km/h
408 18-09-2010 09:27:02 8 C 7.44 g/m*3 8 C 0 km/h
409 18-09-2010 09:39:02 8.2 C 7.54 g/m*3 8.2 C 0 km/h
410 18-09-2010 09:51:02 8.9 C 7.97 g/m*3 8.9 C 0 km/h
411 18-09-2010 10:03:02 9.3 C 8.09 g/m*3 9.3 C 0 km/h
412 18-09-2010 10:15:02 9.5 C 8.1 g/m*3 9.5 C 0 km/h
413 18-09-2010 10:27:03 9.8 C 8.07 g/m*3 9.8 C 0 km/h
414 18-09-2010 10:39:01 10.7 C 8.25 g/m*3 10.7 C 0 km/h
415 18-09-2010 10:51:02 11.7 C 8.37 g/m*3 11.7 C 0 km/h
416 18-09-2010 11:03:02 12.2 C 6.91 g/m*3 12.2 C 0 km/h
417 18-09-2010 11:15:02 13 C 6.8 g/m*3 13 C 0 km/h
418 18-09-2010 11:27:02 13.6 C 6.59 g/m*3 13.6 C 0 km/h
419 18-09-2010 11:39:02 14 C 6.39 g/m*3 14 C 0 km/h
420 18-09-2010 11:51:01 14.5 C 6.47 g/m*3 14.5 C 0 km/h
421 18-09-2010 12:03:02 14.6 C 6.13 g/m*3 14.6 C 0 km/h
422 18-09-2010 12:15:01 15.7 C 6.15 g/m*3 15.7 C 0 km/h
423 18-09-2010 12:27:01 15.1 C 5.42 g/m*3 15.1 C 0 km/h
424 18-09-2010 12:39:01 15.4 C 6.04 g/m*3 15.4 C 0 km/h
425 18-09-2010 12:51:01 14.9 C 5.86 g/m*3 14.9 C 0 km/h
Sensor: Nr:Datum:Temp:Abs-Feuchte:Windchill:Wind:
Aussen-T/F 426 18-09-2010 13:03:02 14.9 C 5.86 g/m*3 14.9 C 0 km/h
427 18-09-2010 13:15:01 15.3 C 5.48 g/m*3 15.3 C 0 km/h
428 18-09-2010 13:27:01 15.6 C 5.32 g/m*3 15.6 C 0 km/h
429 18-09-2010 13:39:01 15.8 C 5.25 g/m*3 15.8 C 0 km/h
430 18-09-2010 13:51:01 16.4 C 5.16 g/m*3 16.4 C 0 km/h
431 18-09-2010 14:03:01 16.2 C 4.96 g/m*3 16.2 C 0 km/h
432 18-09-2010 14:15:02 15.4 C 4.73 g/m*3 15.4 C 0 km/h
433 18-09-2010 14:27:02 14.7 C 4.66 g/m*3 14.7 C 0 km/h
434 18-09-2010 14:39:01 14.9 C 4.72 g/m*3 14.9 C 0 km/h
435 18-09-2010 14:51:02 15.1 C 4.77 g/m*3 15.1 C 0 km/h
436 18-09-2010 15:03:02 15.4 C 4.6 g/m*3 15.4 C 0 km/h
437 18-09-2010 15:15:02 16.1 C 4.52 g/m*3 16.1 C 0 km/h
438 18-09-2010 15:27:02 15.9 C 4.74 g/m*3 15.9 C 0 km/h
439 18-09-2010 15:39:02 17.3 C 4.57 g/m*3 17.3 C 0 km/h
440 18-09-2010 15:51:02 16.8 C 4.43 g/m*3 16.8 C 0 km/h
441 18-09-2010 16:03:01 16.4 C 4.75 g/m*3 16.4 C 0 km/h
442 18-09-2010 16:15:02 16.2 C 4.55 g/m*3 16.2 C 0 km/h
443 18-09-2010 16:27:03 16.1 C 4.66 g/m*3 16.1 C 0 km/h
444 18-09-2010 16:39:01 16.1 C 4.8 g/m*3 16.1 C 0 km/h
445 18-09-2010 16:51:02 16.3 C 5.55 g/m*3 16.3 C 0 km/h
446 18-09-2010 17:03:02 16.3 C 4.99 g/m*3 16.3 C 0 km/h
447 18-09-2010 17:15:02 16.4 C 6.14 g/m*3 16.4 C 0 km/h
448 18-09-2010 17:27:02 16.3 C 5.41 g/m*3 16.3 C 0 km/h
449 18-09-2010 17:39:02 15.6 C 6.12 g/m*3 15.6 C 0 km/h
450 18-09-2010 17:51:01 14.7 C 5.92 g/m*3 14.7 C 0 km/h
Sensor: Nr:Datum:Temp:Abs-Feuchte:Windchill:Wind:
Aussen-T/F 451 18-09-2010 18:03:02 14.5 C 6.09 g/m*3 14.5 C 0 km/h
452 18-09-2010 18:15:01 15.6 C 5.98 g/m*3 15.6 C 0 km/h
453 18-09-2010 18:27:01 16.2 C 5.93 g/m*3 16.2 C 0 km/h
454 18-09-2010 18:39:01 16.2 C 6.07 g/m*3 16.2 C 0 km/h
455 18-09-2010 18:51:01 15.8 C 6.19 g/m*3 15.8 C 0 km/h
456 18-09-2010 19:03:02 15.2 C 6.1 g/m*3 15.2 C 0 km/h
457 18-09-2010 19:15:01 14 C 5.91 g/m*3 14 C 0 km/h
458 18-09-2010 19:27:01 13 C 6.12 g/m*3 13 C 0 km/h
459 18-09-2010 19:39:01 12.2 C 6.04 g/m*3 12.2 C 0 km/h
460 18-09-2010 19:51:01 11.9 C 6.14 g/m*3 11.9 C 0 km/h
461 18-09-2010 20:03:02 11.4 C 6.36 g/m*3 11.4 C 0 km/h
462 18-09-2010 20:15:02 11.2 C 6.39 g/m*3 11.2 C 0 km/h
463 18-09-2010 20:27:02 11.1 C 6.75 g/m*3 11.1 C 0 km/h
464 18-09-2010 20:39:01 10.9 C 6.76 g/m*3 10.9 C 0 km/h
465 18-09-2010 20:51:01 10.8 C 6.72 g/m*3 10.8 C 0 km/h
466 18-09-2010 21:03:01 10.6 C 6.73 g/m*3 10.6 C 0 km/h
467 18-09-2010 21:15:02 10.2 C 6.66 g/m*3 10.2 C 0 km/h
468 18-09-2010 21:27:02 10 C 6.48 g/m*3 10 C 0 km/h
469 18-09-2010 21:39:01 9.7 C 6.64 g/m*3 9.7 C 0 km/h
470 18-09-2010 21:51:02 9.6 C 6.6 g/m*3 9.6 C 0 km/h
471 18-09-2010 22:03:02 9.3 C 6.56 g/m*3 9.3 C 0 km/h
472 18-09-2010 22:15:02 9.2 C 6.61 g/m*3 9.2 C 0 km/h
473 18-09-2010 22:27:02 9 C 6.7 g/m*3 9 C 0 km/h
474 18-09-2010 22:40:03 8.8 C 6.79 g/m*3 8.8 C 0 km/h
475 18-09-2010 22:52:03 8.6 C 6.79 g/m*3 8.6 C 0 km/h
Sensor: Nr:Datum:Temp:Abs-Feuchte:Windchill:Wind:
Aussen-T/F 476 18-09-2010 23:04:03 8.5 C 6.74 g/m*3 8.5 C 0 km/h
477 18-09-2010 23:16:03 8.4 C 6.87 g/m*3 8.4 C 0 km/h
478 18-09-2010 23:28:03 8.2 C 6.78 g/m*3 8.2 C 0 km/h
479 18-09-2010 23:40:03 8 C 6.7 g/m*3 8 C 0 km/h
480 18-09-2010 23:52:03 7.9 C 6.74 g/m*3 7.9 C 0 km/h
481 19-09-2010 00:04:03 7.8 C 6.77 g/m*3 7.8 C 0 km/h
482 19-09-2010 00:16:03 7.7 C 6.73 g/m*3 7.7 C 0 km/h
483 19-09-2010 00:28:03 7.6 C 6.77 g/m*3 7.6 C 0 km/h
484 19-09-2010 00:40:03 7.4 C 6.68 g/m*3 7.4 C 0 km/h
485 19-09-2010 00:52:03 7.3 C 6.64 g/m*3 7.3 C 0 km/h
486 19-09-2010 01:04:04 7.1 C 6.47 g/m*3 7.1 C 0 km/h
487 19-09-2010 01:16:04 7.1 C 6.55 g/m*3 7.1 C 0 km/h
488 19-09-2010 01:28:04 6.9 C 6.54 g/m*3 6.9 C 0 km/h
489 19-09-2010 01:40:04 6.8 C 6.58 g/m*3 6.8 C 0 km/h
490 19-09-2010 01:52:04 6.7 C 6.53 g/m*3 6.7 C 0 km/h
491 19-09-2010 02:04:04 6.6 C 6.57 g/m*3 6.6 C 0 km/h
492 19-09-2010 02:16:04 6.4 C 6.48 g/m*3 6.4 C 0 km/h
493 19-09-2010 02:28:04 6.4 C 6.48 g/m*3 6.4 C 0 km/h
494 19-09-2010 02:40:04 6.4 C 6.56 g/m*3 6.4 C 0 km/h
495 19-09-2010 02:52:04 6.4 C 6.56 g/m*3 6.4 C 0 km/h
496 19-09-2010 03:04:04 6.4 C 6.56 g/m*3 6.4 C 0 km/h
497 19-09-2010 03:16:04 6.4 C 6.56 g/m*3 6.4 C 0 km/h
498 19-09-2010 03:28:04 6.4 C 6.56 g/m*3 6.4 C 0 km/h
499 19-09-2010 03:40:04 6.5 C 6.6 g/m*3 6.5 C 0 km/h
500 19-09-2010 03:52:04 6.4 C 6.56 g/m*3 6.4 C 0 km/h
Sensor: Nr:Datum:Temp:Abs-Feuchte:Windchill:Wind:
Aussen-T/F 501 19-09-2010 04:04:04 6.3 C 6.51 g/m*3 6.3 C 0 km/h
502 19-09-2010 04:16:04 6.1 C 6.43 g/m*3 6.1 C 0 km/h
503 19-09-2010 04:28:04 5.9 C 6.42 g/m*3 5.9 C 0 km/h
504 19-09-2010 04:40:04 6.2 C 6.47 g/m*3 6.2 C 0 km/h
505 19-09-2010 04:52:04 6.5 C 6.67 g/m*3 6.5 C 0 km/h
506 19-09-2010 05:04:05 6.6 C 6.72 g/m*3 6.6 C 0 km/h
507 19-09-2010 05:16:05 6.2 C 6.47 g/m*3 6.2 C 0 km/h
508 19-09-2010 05:28:05 6 C 6.39 g/m*3 6 C 0 km/h
509 19-09-2010 05:40:05 5.8 C 6.3 g/m*3 5.8 C 0 km/h
510 19-09-2010 05:52:05 5.6 C 6.22 g/m*3 5.6 C 0 km/h
511 19-09-2010 06:04:05 5.5 C 6.18 g/m*3 5.5 C 0 km/h
512 19-09-2010 06:16:05 5.5 C 6.18 g/m*3 5.5 C 0 km/h
513 19-09-2010 06:28:05 5.7 C 6.33 g/m*3 5.7 C 0 km/h
514 19-09-2010 06:40:05 6 C 6.46 g/m*3 6 C 0 km/h
515 19-09-2010 06:52:05 6.1 C 6.5 g/m*3 6.1 C 0 km/h
516 19-09-2010 07:04:05 6.3 C 6.59 g/m*3 6.3 C 0 km/h
517 19-09-2010 07:16:05 6.1 C 6.5 g/m*3 6.1 C 0 km/h
518 19-09-2010 07:28:05 5.8 C 6.38 g/m*3 5.8 C 0 km/h
519 19-09-2010 07:40:05 5.9 C 6.42 g/m*3 5.9 C 0 km/h
520 19-09-2010 07:52:05 5.9 C 6.42 g/m*3 5.9 C 0 km/h
521 19-09-2010 08:04:05 6.2 C 6.47 g/m*3 6.2 C 0 km/h
522 19-09-2010 08:16:05 6.7 C 6.76 g/m*3 6.7 C 0 km/h
523 19-09-2010 08:28:05 7.3 C 6.95 g/m*3 7.3 C 0 km/h
524 19-09-2010 08:40:05 7.4 C 7 g/m*3 7.4 C 0 km/h
525 19-09-2010 08:52:02 7.2 C 6.75 g/m*3 7.2 C 0 km/h
Sensor: Nr:Datum:Temp:Abs-Feuchte:Windchill:Wind:
Aussen-T/F 526 19-09-2010 09:04:02 7.2 C 6.67 g/m*3 7.2 C 0 km/h
527 19-09-2010 09:16:02 7.3 C 6.79 g/m*3 7.3 C 0 km/h
528 19-09-2010 09:28:02 7.7 C 6.97 g/m*3 7.7 C 0 km/h
529 19-09-2010 09:40:02 8.8 C 7.31 g/m*3 8.8 C 0 km/h
530 19-09-2010 09:52:01 9.6 C 7.15 g/m*3 9.6 C 0 km/h
531 19-09-2010 10:04:01 10.2 C 6.76 g/m*3 10.2 C 0 km/h
532 19-09-2010 10:16:01 10.9 C 6.86 g/m*3 10.9 C 0 km/h
533 19-09-2010 10:28:01 10.8 C 6.62 g/m*3 10.8 C 0 km/h
534 19-09-2010 10:40:01 10.7 C 6.58 g/m*3 10.7 C 0 km/h
535 19-09-2010 10:52:01 11 C 6.61 g/m*3 11 C 0 km/h
536 19-09-2010 11:04:01 11.5 C 6.51 g/m*3 11.5 C 0 km/h
537 19-09-2010 11:16:02 12.2 C 6.58 g/m*3 12.2 C 0 km/h
538 19-09-2010 11:28:02 13.3 C 6.47 g/m*3 13.3 C 0 km/h
539 19-09-2010 11:40:01 13.8 C 5.96 g/m*3 13.8 C 0 km/h
540 19-09-2010 11:52:03 13.8 C 5.72 g/m*3 13.8 C 0 km/h
541 19-09-2010 12:04:02 13.8 C 5.84 g/m*3 13.8 C 0 km/h
542 19-09-2010 12:16:02 14.3 C 5.9 g/m*3 14.3 C 0 km/h
543 19-09-2010 12:28:02 15.2 C 5.84 g/m*3 15.2 C 0 km/h
544 19-09-2010 12:40:02 15.7 C 5.35 g/m*3 15.7 C 0 km/h
545 19-09-2010 12:52:02 15.7 C 5.35 g/m*3 15.7 C 0 km/h
546 19-09-2010 13:04:01 16.2 C 5.52 g/m*3 16.2 C 0 km/h
547 19-09-2010 13:16:02 16.4 C 5.58 g/m*3 16.4 C 0 km/h
548 19-09-2010 13:28:02 16.1 C 5.48 g/m*3 16.1 C 0 km/h
549 19-09-2010 13:40:02 16 C 5.59 g/m*3 16 C 0 km/h
550 19-09-2010 13:52:01 15.9 C 5.55 g/m*3 15.9 C 0 km/h
Sensor: Nr:Datum:Temp:Abs-Feuchte:Windchill:Wind:
Aussen-T/F 551 19-09-2010 14:04:02 16.5 C 5.62 g/m*3 16.5 C 0 km/h
552 19-09-2010 14:16:01 17.5 C 5.67 g/m*3 17.5 C 0 km/h
553 19-09-2010 14:28:01 17.5 C 5.67 g/m*3 17.5 C 0 km/h
554 19-09-2010 14:40:01 17.5 C 5.67 g/m*3 17.5 C 0 km/h
555 19-09-2010 14:52:01 17.9 C 5.8 g/m*3 17.9 C 0 km/h
556 19-09-2010 15:04:02 17.8 C 5.46 g/m*3 17.8 C 0 km/h
557 19-09-2010 15:16:01 18.6 C 5.73 g/m*3 18.6 C 0 km/h
558 19-09-2010 15:28:01 18.4 C 5.66 g/m*3 18.4 C 0 km/h
559 19-09-2010 15:40:02 19 C 5.38 g/m*3 19 C 0 km/h
560 19-09-2010 15:52:01 19.3 C 4.98 g/m*3 19.3 C 0 km/h
561 19-09-2010 16:04:02 18.8 C 5.31 g/m*3 18.8 C 0 km/h
562 19-09-2010 16:16:01 18.6 C 5.41 g/m*3 18.6 C 0 km/h
563 19-09-2010 16:28:01 18.8 C 5.31 g/m*3 18.8 C 0 km/h
564 19-09-2010 16:40:02 19.6 C 5.4 g/m*3 19.6 C 0 km/h
565 19-09-2010 16:52:01 19.4 C 5.01 g/m*3 19.4 C 0 km/h
566 19-09-2010 17:04:02 19.8 C 5.3 g/m*3 19.8 C 0 km/h
567 19-09-2010 17:16:02 19.1 C 5.25 g/m*3 19.1 C 0 km/h
568 19-09-2010 17:28:02 18.6 C 5.57 g/m*3 18.6 C 0 km/h
569 19-09-2010 17:40:01 18.4 C 6.29 g/m*3 18.4 C 0 km/h
570 19-09-2010 17:52:02 18 C 5.99 g/m*3 18 C 0 km/h
571 19-09-2010 18:04:01 17.6 C 6 g/m*3 17.6 C 0 km/h
572 19-09-2010 18:16:02 17.2 C 6.3 g/m*3 17.2 C 0 km/h
573 19-09-2010 18:28:03 17.1 C 5.82 g/m*3 17.1 C 0 km/h
574 19-09-2010 18:40:01 17 C 6.08 g/m*3 17 C 0 km/h
575 19-09-2010 18:52:02 16.5 C 5.76 g/m*3 16.5 C 0 km/h
Sensor: Nr:Datum:Temp:Abs-Feuchte:Windchill:Wind:
Aussen-T/F 576 19-09-2010 19:04:02 16.2 C 5.79 g/m*3 16.2 C 0 km/h
577 19-09-2010 19:16:02 16 C 5.99 g/m*3 16 C 0 km/h
578 19-09-2010 19:28:02 15.8 C 5.92 g/m*3 15.8 C 0 km/h
579 19-09-2010 19:40:03 15.6 C 5.98 g/m*3 15.6 C 0 km/h
580 19-09-2010 19:52:02 15.3 C 6.14 g/m*3 15.3 C 0 km/h
581 19-09-2010 20:04:02 14.8 C 6.33 g/m*3 14.8 C 0 km/h
582 19-09-2010 20:16:02 14.5 C 6.34 g/m*3 14.5 C 0 km/h
583 19-09-2010 20:28:02 14.3 C 6.27 g/m*3 14.3 C 0 km/h
584 19-09-2010 20:40:02 14.3 C 6.39 g/m*3 14.3 C 0 km/h
585 19-09-2010 20:52:02 14.4 C 6.18 g/m*3 14.4 C 0 km/h
586 19-09-2010 21:04:02 14.4 C 6.43 g/m*3 14.4 C 0 km/h
587 19-09-2010 21:16:02 14.2 C 6.47 g/m*3 14.2 C 0 km/h
588 19-09-2010 21:28:02 14 C 6.51 g/m*3 14 C 0 km/h
589 19-09-2010 21:40:02 13.7 C 6.87 g/m*3 13.7 C 0 km/h
590 19-09-2010 21:52:03 13.5 C 6.78 g/m*3 13.5 C 0 km/h
591 19-09-2010 22:04:03 13.4 C 6.74 g/m*3 13.4 C 0 km/h
592 19-09-2010 22:17:01 13.3 C 6.7 g/m*3 13.3 C 0 km/h
593 19-09-2010 22:29:01 13.4 C 6.86 g/m*3 13.4 C 0 km/h
594 19-09-2010 22:41:01 13.3 C 6.82 g/m*3 13.3 C 0 km/h
595 19-09-2010 22:53:01 13.2 C 6.77 g/m*3 13.2 C 0 km/h
596 19-09-2010 23:05:01 13 C 6.8 g/m*3 13 C 0 km/h
597 19-09-2010 23:17:01 12.5 C 6.82 g/m*3 12.5 C 0 km/h
598 19-09-2010 23:29:01 12.2 C 6.8 g/m*3 12.2 C 0 km/h
599 19-09-2010 23:41:01 11.9 C 6.67 g/m*3 11.9 C 0 km/h
600 19-09-2010 23:53:01 11.8 C 6.74 g/m*3 11.8 C 0 km/h
Sensor: Nr:Datum:Temp:Abs-Feuchte:Windchill:Wind:
Aussen-T/F 601 20-09-2010 00:05:01 11.9 C 6.88 g/m*3 11.9 C 0 km/h
602 20-09-2010 00:17:01 11.9 C 6.99 g/m*3 11.9 C 0 km/h
603 20-09-2010 00:29:02 11.9 C 6.88 g/m*3 11.9 C 0 km/h
604 20-09-2010 00:41:02 11.4 C 6.77 g/m*3 11.4 C 0 km/h
605 20-09-2010 00:53:02 11.3 C 6.83 g/m*3 11.3 C 0 km/h
606 20-09-2010 01:05:02 10.8 C 6.72 g/m*3 10.8 C 0 km/h
607 20-09-2010 01:17:02 10.5 C 6.69 g/m*3 10.5 C 0 km/h
608 20-09-2010 01:29:02 10.4 C 6.75 g/m*3 10.4 C 0 km/h
609 20-09-2010 01:41:02 10.2 C 6.85 g/m*3 10.2 C 0 km/h
610 20-09-2010 01:53:02 10.3 C 6.9 g/m*3 10.3 C 0 km/h
611 20-09-2010 02:05:02 10.1 C 6.81 g/m*3 10.1 C 0 km/h
612 20-09-2010 02:17:02 10 C 6.77 g/m*3 10 C 0 km/h
613 20-09-2010 02:29:02 9.8 C 6.96 g/m*3 9.8 C 0 km/h
614 20-09-2010 02:41:02 9.6 C 6.87 g/m*3 9.6 C 0 km/h
615 20-09-2010 02:53:02 9.7 C 7.01 g/m*3 9.7 C 0 km/h
616 20-09-2010 03:05:02 9.8 C 6.96 g/m*3 9.8 C 0 km/h
617 20-09-2010 03:17:02 9.6 C 6.96 g/m*3 9.6 C 0 km/h
618 20-09-2010 03:29:02 9.7 C 7.1 g/m*3 9.7 C 0 km/h
619 20-09-2010 03:41:02 9.7 C 7.1 g/m*3 9.7 C 0 km/h
620 20-09-2010 03:53:02 9.4 C 6.96 g/m*3 9.4 C 0 km/h
621 20-09-2010 04:05:02 9.3 C 6.92 g/m*3 9.3 C 0 km/h
622 20-09-2010 04:17:02 9.2 C 6.88 g/m*3 9.2 C 0 km/h
623 20-09-2010 04:29:02 9 C 6.88 g/m*3 9 C 0 km/h
624 20-09-2010 04:41:03 8.8 C 6.88 g/m*3 8.8 C 0 km/h
625 20-09-2010 04:53:03 8.6 C 6.87 g/m*3 8.6 C 0 km/h
Sensor: Nr:Datum:Temp:Abs-Feuchte:Windchill:Wind:
Aussen-T/F 626 20-09-2010 05:05:03 8.4 C 6.87 g/m*3 8.4 C 0 km/h
627 20-09-2010 05:17:03 8.4 C 6.87 g/m*3 8.4 C 0 km/h
628 20-09-2010 05:29:03 8.3 C 6.91 g/m*3 8.3 C 0 km/h
629 20-09-2010 05:41:03 8.2 C 6.87 g/m*3 8.2 C 0 km/h
630 20-09-2010 05:53:03 8.3 C 6.91 g/m*3 8.3 C 0 km/h
631 20-09-2010 06:05:03 8.3 C 6.91 g/m*3 8.3 C 0 km/h
632 20-09-2010 06:17:03 8.4 C 7.04 g/m*3 8.4 C 0 km/h
633 20-09-2010 06:29:03 8.5 C 7 g/m*3 8.5 C 0 km/h
634 20-09-2010 06:41:03 8.5 C 7 g/m*3 8.5 C 0 km/h
635 20-09-2010 06:53:03 8.7 C 7.18 g/m*3 8.7 C 0 km/h
636 20-09-2010 07:05:01 8.6 C 7.13 g/m*3 8.6 C 0 km/h
637 20-09-2010 07:17:02 8.4 C 7.04 g/m*3 8.4 C 0 km/h
638 20-09-2010 07:29:02 8.5 C 7.09 g/m*3 8.5 C 0 km/h
639 20-09-2010 07:41:01 8.5 C 7.09 g/m*3 8.5 C 0 km/h
640 20-09-2010 07:53:02 8.6 C 7.13 g/m*3 8.6 C 0 km/h
641 20-09-2010 08:05:02 9 C 7.14 g/m*3 9 C 0 km/h
642 20-09-2010 08:17:02 9.2 C 6.97 g/m*3 9.2 C 0 km/h
643 20-09-2010 08:29:02 9.2 C 6.79 g/m*3 9.2 C 0 km/h
644 20-09-2010 08:41:02 9.3 C 6.74 g/m*3 9.3 C 0 km/h
645 20-09-2010 08:53:01 9.2 C 6.7 g/m*3 9.2 C 0 km/h
646 20-09-2010 09:05:02 9.3 C 6.83 g/m*3 9.3 C 0 km/h
647 20-09-2010 09:17:01 9.6 C 6.87 g/m*3 9.6 C 0 km/h
648 20-09-2010 09:29:01 9.7 C 6.82 g/m*3 9.7 C 0 km/h
649 20-09-2010 09:41:01 10 C 6.95 g/m*3 10 C 0 km/h
650 20-09-2010 09:53:01 10.6 C 7.12 g/m*3 10.6 C 0 km/h
Sensor: Nr:Datum:Temp:Abs-Feuchte:Windchill:Wind:
Aussen-T/F 651 20-09-2010 10:05:02 11.4 C 7.29 g/m*3 11.4 C 0 km/h
652 20-09-2010 10:17:02 12.1 C 7.18 g/m*3 12.1 C 0 km/h
653 20-09-2010 10:29:02 12.4 C 7.1 g/m*3 12.4 C 0 km/h
654 20-09-2010 10:41:01 12.9 C 7.33 g/m*3 12.9 C 0 km/h
655 20-09-2010 10:53:01 13.2 C 7.12 g/m*3 13.2 C 0 km/h
656 20-09-2010 11:05:01 13.3 C 7.39 g/m*3 13.3 C 0 km/h
657 20-09-2010 11:17:02 13.8 C 7.15 g/m*3 13.8 C 0 km/h
658 20-09-2010 11:29:02 14.8 C 6.84 g/m*3 14.8 C 0 km/h
659 20-09-2010 11:41:01 15.3 C 6.66 g/m*3 15.3 C 0 km/h
660 20-09-2010 11:53:02 15.9 C 6.77 g/m*3 15.9 C 0 km/h
661 20-09-2010 12:05:02 16.1 C 6.31 g/m*3 16.1 C 0 km/h
662 20-09-2010 12:17:02 15.9 C 6.5 g/m*3 15.9 C 0 km/h
663 20-09-2010 12:29:03 16.1 C 6.31 g/m*3 16.1 C 0 km/h
664 20-09-2010 12:41:02 16.4 C 6.42 g/m*3 16.4 C 0 km/h
665 20-09-2010 12:53:02 16.8 C 6.15 g/m*3 16.8 C 0 km/h
666 20-09-2010 13:05:01 17.1 C 6.11 g/m*3 17.1 C 0 km/h
667 20-09-2010 13:17:02 17.5 C 6.26 g/m*3 17.5 C 0 km/h
668 20-09-2010 13:29:02 18.1 C 6.33 g/m*3 18.1 C 0 km/h
669 20-09-2010 13:41:02 18.5 C 6.01 g/m*3 18.5 C 0 km/h
670 20-09-2010 13:53:02 18.9 C 5.83 g/m*3 18.9 C 0 km/h
671 20-09-2010 14:05:03 19.5 C 6.04 g/m*3 19.5 C 0 km/h
672 20-09-2010 14:17:02 19.7 C 5.94 g/m*3 19.7 C 0 km/h
673 20-09-2010 14:29:02 20.1 C 5.91 g/m*3 20.1 C 0 km/h
674 20-09-2010 14:41:02 20.5 C 5.69 g/m*3 20.5 C 0 km/h
675 20-09-2010 14:53:01 20.3 C 5.45 g/m*3 20.3 C 0 km/h
Sensor: Nr:Datum:Temp:Abs-Feuchte:Windchill:Wind:
Aussen-T/F 676 20-09-2010 15:05:02 20.8 C 5.79 g/m*3 20.8 C 0 km/h
677 20-09-2010 15:17:01 21.4 C 5.81 g/m*3 21.4 C 0 km/h
678 20-09-2010 15:29:01 21.5 C 5.85 g/m*3 21.5 C 0 km/h
679 20-09-2010 15:41:01 21.6 C 5.88 g/m*3 21.6 C 0 km/h
680 20-09-2010 15:53:01 21.8 C 5.95 g/m*3 21.8 C 0 km/h
681 20-09-2010 16:05:01 22.2 C 6.48 g/m*3 22.2 C 0 km/h
682 20-09-2010 16:17:02 22.6 C 6.23 g/m*3 22.6 C 0 km/h
683 20-09-2010 16:29:02 22.8 C 6.1 g/m*3 22.8 C 0 km/h
684 20-09-2010 16:41:01 22.6 C 6.23 g/m*3 22.6 C 0 km/h
685 20-09-2010 16:53:01 22.1 C 6.05 g/m*3 22.1 C 0 km/h
686 20-09-2010 17:05:01 22.2 C 6.28 g/m*3 22.2 C 0 km/h
687 20-09-2010 17:17:02 22.1 C 5.86 g/m*3 22.1 C 0 km/h
688 20-09-2010 17:29:02 22.3 C 6.32 g/m*3 22.3 C 0 km/h
689 20-09-2010 17:41:01 22.1 C 5.86 g/m*3 22.1 C 0 km/h
690 20-09-2010 17:53:02 22.7 C 6.26 g/m*3 22.7 C 0 km/h
691 20-09-2010 18:05:02 22.7 C 6.47 g/m*3 22.7 C 0 km/h
692 20-09-2010 18:17:02 22.2 C 6.28 g/m*3 22.2 C 0 km/h
693 20-09-2010 18:29:02 21.6 C 6.64 g/m*3 21.6 C 0 km/h
694 20-09-2010 18:41:02 20.6 C 6.8 g/m*3 20.6 C 0 km/h
695 20-09-2010 18:53:02 19.4 C 7.01 g/m*3 19.4 C 0 km/h
696 20-09-2010 19:05:01 18.9 C 6.97 g/m*3 18.9 C 0 km/h
697 20-09-2010 19:17:01 18.1 C 7.11 g/m*3 18.1 C 0 km/h
698 20-09-2010 19:29:01 17.5 C 7.31 g/m*3 17.5 C 0 km/h
699 20-09-2010 19:41:02 16.8 C 7.29 g/m*3 16.8 C 0 km/h
700 20-09-2010 19:53:02 16.2 C 7.17 g/m*3 16.2 C 0 km/h
Sensor: Nr:Datum:Temp:Abs-Feuchte:Windchill:Wind:
Aussen-T/F 701 20-09-2010 20:05:02 15.9 C 7.31 g/m*3 15.9 C 0 km/h
702 20-09-2010 20:17:02 15.6 C 7.45 g/m*3 15.6 C 0 km/h
703 20-09-2010 20:29:02 15.3 C 7.57 g/m*3 15.3 C 0 km/h
704 20-09-2010 20:41:02 15.1 C 7.74 g/m*3 15.1 C 0 km/h
705 20-09-2010 20:53:02 14.8 C 7.6 g/m*3 14.8 C 0 km/h
706 20-09-2010 21:05:02 14.7 C 7.68 g/m*3 14.7 C 0 km/h
707 20-09-2010 21:17:02 14.4 C 7.66 g/m*3 14.4 C 0 km/h
708 20-09-2010 21:29:02 14.2 C 7.69 g/m*3 14.2 C 0 km/h
709 20-09-2010 21:41:02 14 C 7.72 g/m*3 14 C 0 km/h
710 20-09-2010 21:53:02 13.7 C 7.82 g/m*3 13.7 C 0 km/h
711 20-09-2010 22:06:02 13.6 C 8 g/m*3 13.6 C 0 km/h
712 20-09-2010 22:18:02 13.5 C 7.95 g/m*3 13.5 C 0 km/h
713 20-09-2010 22:30:02 13.5 C 8.07 g/m*3 13.5 C 0 km/h
714 20-09-2010 22:42:02 12.9 C 8.11 g/m*3 12.9 C 0 km/h
715 20-09-2010 22:54:02 12.6 C 8.19 g/m*3 12.6 C 0 km/h
716 20-09-2010 23:06:02 12.6 C 8.19 g/m*3 12.6 C 0 km/h
717 20-09-2010 23:18:02 12.5 C 8.14 g/m*3 12.5 C 0 km/h
718 20-09-2010 23:30:02 12.3 C 8.04 g/m*3 12.3 C 0 km/h
719 20-09-2010 23:42:02 12.1 C 7.94 g/m*3 12.1 C 0 km/h
720 20-09-2010 23:54:02 11.9 C 7.94 g/m*3 11.9 C 0 km/h
721 21-09-2010 00:06:03 11.8 C 7.89 g/m*3 11.8 C 0 km/h
722 21-09-2010 00:18:03 11.6 C 7.9 g/m*3 11.6 C 0 km/h
723 21-09-2010 00:30:03 11.5 C 7.85 g/m*3 11.5 C 0 km/h
724 21-09-2010 00:42:03 11.4 C 7.9 g/m*3 11.4 C 0 km/h
725 21-09-2010 00:54:03 11.3 C 7.85 g/m*3 11.3 C 0 km/h
Sensor: Nr:Datum:Temp:Abs-Feuchte:Windchill:Wind:
Aussen-T/F 726 21-09-2010 01:06:03 11.2 C 7.8 g/m*3 11.2 C 0 km/h
727 21-09-2010 01:18:03 11.1 C 7.86 g/m*3 11.1 C 0 km/h
728 21-09-2010 01:30:03 10.9 C 7.86 g/m*3 10.9 C 0 km/h
729 21-09-2010 01:42:03 10.8 C 7.81 g/m*3 10.8 C 0 km/h
730 21-09-2010 01:54:03 10.5 C 7.66 g/m*3 10.5 C 0 km/h
731 21-09-2010 02:06:03 10.4 C 7.71 g/m*3 10.4 C 0 km/h
732 21-09-2010 02:18:03 10.4 C 7.71 g/m*3 10.4 C 0 km/h
733 21-09-2010 02:30:03 10.3 C 7.76 g/m*3 10.3 C 0 km/h
734 21-09-2010 02:42:03 10.1 C 7.66 g/m*3 10.1 C 0 km/h
735 21-09-2010 02:54:03 10 C 7.61 g/m*3 10 C 0 km/h
736 21-09-2010 03:06:03 10 C 7.71 g/m*3 10 C 0 km/h
737 21-09-2010 03:18:03 9.9 C 7.75 g/m*3 9.9 C 0 km/h
738 21-09-2010 03:30:03 9.8 C 7.79 g/m*3 9.8 C 0 km/h
739 21-09-2010 03:42:03 9.5 C 7.65 g/m*3 9.5 C 0 km/h
740 21-09-2010 03:54:03 9.5 C 7.65 g/m*3 9.5 C 0 km/h
741 21-09-2010 04:06:04 9.4 C 7.6 g/m*3 9.4 C 0 km/h
742 21-09-2010 04:18:04 9.3 C 7.55 g/m*3 9.3 C 0 km/h
743 21-09-2010 04:30:04 9.2 C 7.5 g/m*3 9.2 C 0 km/h
744 21-09-2010 04:42:04 9.2 C 7.5 g/m*3 9.2 C 0 km/h
745 21-09-2010 04:54:04 9 C 7.41 g/m*3 9 C 0 km/h
746 21-09-2010 05:06:04 9 C 7.49 g/m*3 9 C 0 km/h
747 21-09-2010 05:18:04 8.8 C 7.49 g/m*3 8.8 C 0 km/h
748 21-09-2010 05:30:04 8.8 C 7.49 g/m*3 8.8 C 0 km/h
749 21-09-2010 05:42:04 8.7 C 7.44 g/m*3 8.7 C 0 km/h
750 21-09-2010 05:54:04 8.6 C 7.39 g/m*3 8.6 C 0 km/h
Sensor: Nr:Datum:Temp:Abs-Feuchte:Windchill:Wind:
Aussen-T/F 751 21-09-2010 06:06:04 8.5 C 7.43 g/m*3 8.5 C 0 km/h
752 21-09-2010 06:18:04 8.4 C 7.38 g/m*3 8.4 C 0 km/h
753 21-09-2010 06:30:04 8.3 C 7.33 g/m*3 8.3 C 0 km/h
754 21-09-2010 06:42:04 8.2 C 7.29 g/m*3 8.2 C 0 km/h
755 21-09-2010 06:54:04 8.3 C 7.42 g/m*3 8.3 C 0 km/h
756 21-09-2010 07:06:02 8.2 C 7.37 g/m*3 8.2 C 0 km/h
757 21-09-2010 07:18:02 8.2 C 7.37 g/m*3 8.2 C 0 km/h
758 21-09-2010 07:30:02 8.1 C 7.32 g/m*3 8.1 C 0 km/h
759 21-09-2010 07:42:03 8.1 C 7.32 g/m*3 8.1 C 0 km/h
760 21-09-2010 07:54:02 8.1 C 7.32 g/m*3 8.1 C 0 km/h
761 21-09-2010 08:06:01 8 C 7.36 g/m*3 8 C 0 km/h
762 21-09-2010 08:18:02 8.1 C 7.41 g/m*3 8.1 C 0 km/h
763 21-09-2010 08:30:02 8.2 C 7.54 g/m*3 8.2 C 0 km/h
764 21-09-2010 08:42:02 8.4 C 7.63 g/m*3 8.4 C 0 km/h
765 21-09-2010 08:54:02 8.6 C 7.73 g/m*3 8.6 C 0 km/h
766 21-09-2010 09:06:02 8.7 C 7.78 g/m*3 8.7 C 0 km/h
767 21-09-2010 09:18:02 8.9 C 7.88 g/m*3 8.9 C 0 km/h
768 21-09-2010 09:30:02 9.3 C 8 g/m*3 9.3 C 0 km/h
769 21-09-2010 09:42:02 9.5 C 8.1 g/m*3 9.5 C 0 km/h
770 21-09-2010 09:54:01 9.5 C 8.1 g/m*3 9.5 C 0 km/h
771 21-09-2010 10:06:02 9.9 C 8.31 g/m*3 9.9 C 0 km/h
772 21-09-2010 10:18:01 10.5 C 8.53 g/m*3 10.5 C 0 km/h
773 21-09-2010 10:30:01 11.1 C 8.76 g/m*3 11.1 C 0 km/h
774 21-09-2010 10:42:01 11.7 C 8.99 g/m*3 11.7 C 0 km/h
775 21-09-2010 10:54:01 12.4 C 8.96 g/m*3 12.4 C 0 km/h
Sensor: Nr:Datum:Temp:Abs-Feuchte:Windchill:Wind:
Aussen-T/F 776 21-09-2010 11:06:01 13 C 8.51 g/m*3 13 C 0 km/h
777 21-09-2010 11:18:02 13.6 C 8.59 g/m*3 13.6 C 0 km/h
778 21-09-2010 11:30:02 14 C 8.56 g/m*3 14 C 0 km/h
779 21-09-2010 11:42:01 14.7 C 8.81 g/m*3 14.7 C 0 km/h
780 21-09-2010 11:54:03 15.3 C 8.75 g/m*3 15.3 C 0 km/h
781 21-09-2010 12:06:02 15.8 C 8.75 g/m*3 15.8 C 0 km/h
782 21-09-2010 12:18:02 16.5 C 8.85 g/m*3 16.5 C 0 km/h
783 21-09-2010 12:30:03 16.5 C 9.13 g/m*3 16.5 C 0 km/h
784 21-09-2010 12:42:02 16 C 8.86 g/m*3 16 C 0 km/h
785 21-09-2010 12:54:02 15.9 C 9.34 g/m*3 15.9 C 0 km/h
786 21-09-2010 13:06:02 16.4 C 9.77 g/m*3 16.4 C 0 km/h
787 21-09-2010 13:18:02 16.6 C 9.46 g/m*3 16.6 C 0 km/h
788 21-09-2010 13:30:02 16.8 C 9.72 g/m*3 16.8 C 0 km/h
789 21-09-2010 13:42:02 17.3 C 9.87 g/m*3 17.3 C 0 km/h
790 21-09-2010 13:54:02 18 C 9.37 g/m*3 18 C 0 km/h
791 21-09-2010 14:06:02 17.5 C 9.54 g/m*3 17.5 C 0 km/h
792 21-09-2010 14:18:01 17.4 C 9.63 g/m*3 17.4 C 0 km/h
793 21-09-2010 14:30:01 17.2 C 9.52 g/m*3 17.2 C 0 km/h
794 21-09-2010 14:42:02 17.5 C 9.54 g/m*3 17.5 C 0 km/h
795 21-09-2010 14:54:02 19.5 C 9.06 g/m*3 19.5 C 0 km/h
796 21-09-2010 15:06:02 21.3 C 8.76 g/m*3 21.3 C 0 km/h
797 21-09-2010 15:18:02 22.6 C 8.44 g/m*3 22.6 C 0 km/h
798 21-09-2010 15:30:02 23.3 C 7.95 g/m*3 23.3 C 0 km/h
799 21-09-2010 15:42:02 23.9 C 7.79 g/m*3 23.9 C 0 km/h
800 21-09-2010 15:54:02 24.5 C 7.83 g/m*3 24.5 C 0 km/h
Sensor: Nr:Datum:Temp:Abs-Feuchte:Windchill:Wind:
Aussen-T/F 801 21-09-2010 16:06:02 25 C 7.6 g/m*3 25 C 0 km/h
802 21-09-2010 16:18:02 25.2 C 7.45 g/m*3 25.2 C 0 km/h
803 21-09-2010 16:30:02 25.2 C 7.68 g/m*3 25.2 C 0 km/h
804 21-09-2010 16:42:02 25.1 C 7.87 g/m*3 25.1 C 0 km/h
805 21-09-2010 16:54:02 25.3 C 7.49 g/m*3 25.3 C 0 km/h
806 21-09-2010 17:06:02 25.4 C 7.53 g/m*3 25.4 C 0 km/h
807 21-09-2010 17:18:02 25.5 C 7.81 g/m*3 25.5 C 0 km/h
808 21-09-2010 17:30:02 24.5 C 7.39 g/m*3 24.5 C 0 km/h
809 21-09-2010 17:42:02 24.1 C 7.44 g/m*3 24.1 C 0 km/h
810 21-09-2010 17:54:02 23.5 C 7.61 g/m*3 23.5 C 0 km/h
811 21-09-2010 18:06:02 23.2 C 7.69 g/m*3 23.2 C 0 km/h
812 21-09-2010 18:18:02 22.7 C 7.88 g/m*3 22.7 C 0 km/h
813 21-09-2010 18:30:02 22.2 C 7.85 g/m*3 22.2 C 0 km/h
814 21-09-2010 18:42:02 21.7 C 8.01 g/m*3 21.7 C 0 km/h
815 21-09-2010 18:54:02 21.1 C 7.92 g/m*3 21.1 C 0 km/h
816 21-09-2010 19:06:01 20.2 C 8.04 g/m*3 20.2 C 0 km/h
817 21-09-2010 19:18:02 19.5 C 8.22 g/m*3 19.5 C 0 km/h
818 21-09-2010 19:30:02 18.5 C 8.39 g/m*3 18.5 C 0 km/h
819 21-09-2010 19:42:02 17.8 C 8.5 g/m*3 17.8 C 0 km/h
820 21-09-2010 19:54:02 17.2 C 8.49 g/m*3 17.2 C 0 km/h
821 21-09-2010 20:06:03 16.8 C 8.58 g/m*3 16.8 C 0 km/h
822 21-09-2010 20:18:02 16.5 C 8.43 g/m*3 16.5 C 0 km/h
823 21-09-2010 20:30:02 16.3 C 8.46 g/m*3 16.3 C 0 km/h
824 21-09-2010 20:42:02 16.1 C 8.5 g/m*3 16.1 C 0 km/h
825 21-09-2010 20:54:02 15.8 C 8.62 g/m*3 15.8 C 0 km/h
Sensor: Nr:Datum:Temp:Abs-Feuchte:Windchill:Wind:
Aussen-T/F 826 21-09-2010 21:06:02 15.6 C 8.51 g/m*3 15.6 C 0 km/h
827 21-09-2010 21:18:01 15.4 C 8.41 g/m*3 15.4 C 0 km/h
828 21-09-2010 21:30:01 15.1 C 8.51 g/m*3 15.1 C 0 km/h
829 21-09-2010 21:42:02 14.7 C 8.56 g/m*3 14.7 C 0 km/h
830 21-09-2010 21:54:02 14.5 C 8.46 g/m*3 14.5 C 0 km/h
831 21-09-2010 22:06:02 14.4 C 8.53 g/m*3 14.4 C 0 km/h
832 21-09-2010 22:18:01 14.1 C 8.5 g/m*3 14.1 C 0 km/h
833 21-09-2010 22:30:01 13.9 C 8.51 g/m*3 13.9 C 0 km/h
834 21-09-2010 22:42:01 13.6 C 8.47 g/m*3 13.6 C 0 km/h
835 21-09-2010 22:54:01 13.5 C 8.54 g/m*3 13.5 C 0 km/h
836 21-09-2010 23:06:01 13.2 C 8.38 g/m*3 13.2 C 0 km/h
837 21-09-2010 23:18:01 13.1 C 8.44 g/m*3 13.1 C 0 km/h
838 21-09-2010 23:30:01 13 C 8.51 g/m*3 13 C 0 km/h
839 21-09-2010 23:42:01 12.9 C 8.68 g/m*3 12.9 C 0 km/h
840 21-09-2010 23:54:01 12.7 C 8.68 g/m*3 12.7 C 0 km/h
841 22-09-2010 00:06:01 12.5 C 8.69 g/m*3 12.5 C 0 km/h
842 22-09-2010 00:18:01 12.3 C 8.58 g/m*3 12.3 C 0 km/h
843 22-09-2010 00:30:01 12.2 C 8.52 g/m*3 12.2 C 0 km/h
844 22-09-2010 00:42:01 12.1 C 8.47 g/m*3 12.1 C 0 km/h
845 22-09-2010 00:54:01 11.9 C 8.47 g/m*3 11.9 C 0 km/h
846 22-09-2010 01:06:02 11.8 C 8.53 g/m*3 11.8 C 0 km/h
847 22-09-2010 01:18:02 11.6 C 8.42 g/m*3 11.6 C 0 km/h
848 22-09-2010 01:30:02 11.5 C 8.47 g/m*3 11.5 C 0 km/h
849 22-09-2010 01:42:02 11.3 C 8.26 g/m*3 11.3 C 0 km/h
850 22-09-2010 01:54:02 11.3 C 8.36 g/m*3 11.3 C 0 km/h
Sensor: Nr:Datum:Temp:Abs-Feuchte:Windchill:Wind:
Aussen-T/F 851 22-09-2010 02:06:02 11 C 8.21 g/m*3 11 C 0 km/h
852 22-09-2010 02:18:02 10.9 C 8.16 g/m*3 10.9 C 0 km/h
853 22-09-2010 02:30:02 10.8 C 8.2 g/m*3 10.8 C 0 km/h
854 22-09-2010 02:42:02 10.7 C 8.15 g/m*3 10.7 C 0 km/h
855 22-09-2010 02:54:02 10.5 C 8.05 g/m*3 10.5 C 0 km/h
856 22-09-2010 03:06:02 10.4 C 8 g/m*3 10.4 C 0 km/h
857 22-09-2010 03:18:02 10.4 C 8 g/m*3 10.4 C 0 km/h
858 22-09-2010 03:30:02 10.3 C 8.04 g/m*3 10.3 C 0 km/h
859 22-09-2010 03:42:02 10.1 C 7.94 g/m*3 10.1 C 0 km/h
860 22-09-2010 03:54:02 9.9 C 8.03 g/m*3 9.9 C 0 km/h
861 22-09-2010 04:06:02 9.9 C 8.03 g/m*3 9.9 C 0 km/h
862 22-09-2010 04:18:02 9.7 C 7.93 g/m*3 9.7 C 0 km/h
863 22-09-2010 04:30:02 9.6 C 7.79 g/m*3 9.6 C 0 km/h
864 22-09-2010 04:42:02 9.6 C 7.88 g/m*3 9.6 C 0 km/h
865 22-09-2010 04:54:02 9.8 C 8.07 g/m*3 9.8 C 0 km/h
866 22-09-2010 05:06:02 9.8 C 8.07 g/m*3 9.8 C 0 km/h
867 22-09-2010 05:18:02 9.9 C 8.22 g/m*3 9.9 C 0 km/h
868 22-09-2010 05:30:03 9.9 C 8.22 g/m*3 9.9 C 0 km/h
869 22-09-2010 05:42:03 9.9 C 8.22 g/m*3 9.9 C 0 km/h
870 22-09-2010 05:54:03 9.7 C 8.02 g/m*3 9.7 C 0 km/h
871 22-09-2010 06:06:03 9.8 C 8.16 g/m*3 9.8 C 0 km/h
872 22-09-2010 06:18:03 9.8 C 8.16 g/m*3 9.8 C 0 km/h
873 22-09-2010 06:30:03 9.8 C 8.16 g/m*3 9.8 C 0 km/h
874 22-09-2010 06:42:03 9.7 C 8.11 g/m*3 9.7 C 0 km/h
875 22-09-2010 06:54:03 9.8 C 8.16 g/m*3 9.8 C 0 km/h
Sensor: Nr:Datum:Temp:Abs-Feuchte:Windchill:Wind:
Aussen-T/F 876 22-09-2010 07:06:01 9.8 C 8.16 g/m*3 9.8 C 0 km/h
877 22-09-2010 07:18:02 9.8 C 8.16 g/m*3 9.8 C 0 km/h
878 22-09-2010 07:30:02 9.6 C 8.06 g/m*3 9.6 C 0 km/h
879 22-09-2010 07:42:01 9.3 C 7.91 g/m*3 9.3 C 0 km/h
880 22-09-2010 07:54:01 9.3 C 7.91 g/m*3 9.3 C 0 km/h
881 22-09-2010 08:06:01 9.3 C 7.91 g/m*3 9.3 C 0 km/h
882 22-09-2010 08:18:02 9.3 C 7.91 g/m*3 9.3 C 0 km/h
883 22-09-2010 08:30:02 9.6 C 8.15 g/m*3 9.6 C 0 km/h
884 22-09-2010 08:42:01 9.3 C 7.91 g/m*3 9.3 C 0 km/h
885 22-09-2010 08:54:02 9.3 C 7.91 g/m*3 9.3 C 0 km/h
886 22-09-2010 09:06:01 9.6 C 8.06 g/m*3 9.6 C 0 km/h
887 22-09-2010 09:18:02 9.8 C 8.16 g/m*3 9.8 C 0 km/h
888 22-09-2010 09:30:02 10.2 C 8.09 g/m*3 10.2 C 0 km/h
889 22-09-2010 09:42:01 10.3 C 8.04 g/m*3 10.3 C 0 km/h
890 22-09-2010 09:54:02 11 C 8.41 g/m*3 11 C 0 km/h
891 22-09-2010 10:06:01 11.8 C 8.63 g/m*3 11.8 C 0 km/h
892 22-09-2010 10:18:01 12.4 C 8.74 g/m*3 12.4 C 0 km/h
893 22-09-2010 10:30:01 12 C 8.31 g/m*3 12 C 0 km/h
894 22-09-2010 10:42:02 12.7 C 8.79 g/m*3 12.7 C 0 km/h
895 22-09-2010 10:54:01 13.2 C 8.73 g/m*3 13.2 C 0 km/h
896 22-09-2010 11:06:02 12.9 C 8.68 g/m*3 12.9 C 0 km/h
897 22-09-2010 11:18:01 13.1 C 8.9 g/m*3 13.1 C 0 km/h
898 22-09-2010 11:30:01 13.6 C 9.3 g/m*3 13.6 C 0 km/h
899 22-09-2010 11:42:02 14.2 C 9.52 g/m*3 14.2 C 0 km/h
900 22-09-2010 11:54:01 15.1 C 9.55 g/m*3 15.1 C 0 km/h
Sensor: Nr:Datum:Temp:Abs-Feuchte:Windchill:Wind:
Aussen-T/F 901 22-09-2010 12:06:02 15.6 C 9.71 g/m*3 15.6 C 0 km/h
902 22-09-2010 12:18:01 16 C 9.67 g/m*3 16 C 0 km/h
903 22-09-2010 12:30:01 16.5 C 9.97 g/m*3 16.5 C 0 km/h
904 22-09-2010 12:42:01 17.1 C 10.19 g/m*3 17.1 C 0 km/h
905 22-09-2010 12:54:01 17.5 C 10.29 g/m*3 17.5 C 0 km/h
906 22-09-2010 13:06:01 18.4 C 9.91 g/m*3 18.4 C 0 km/h
907 22-09-2010 13:18:02 19.1 C 9.84 g/m*3 19.1 C 0 km/h
908 22-09-2010 13:30:02 19.7 C 10.19 g/m*3 19.7 C 0 km/h
909 22-09-2010 13:42:01 20.4 C 10.26 g/m*3 20.4 C 0 km/h
910 22-09-2010 13:54:01 21.2 C 10.19 g/m*3 21.2 C 0 km/h
911 22-09-2010 14:06:01 21.8 C 10.36 g/m*3 21.8 C 0 km/h
912 22-09-2010 14:18:02 22.2 C 10.01 g/m*3 22.2 C 0 km/h
913 22-09-2010 14:30:02 22.9 C 10.22 g/m*3 22.9 C 0 km/h
914 22-09-2010 14:42:01 23.4 C 9.88 g/m*3 23.4 C 0 km/h
915 22-09-2010 14:54:02 24 C 9.79 g/m*3 24 C 0 km/h
916 22-09-2010 15:06:01 24.2 C 9.9 g/m*3 24.2 C 0 km/h
917 22-09-2010 15:18:01 24.1 C 9.63 g/m*3 24.1 C 0 km/h
918 22-09-2010 15:30:01 24.9 C 9.61 g/m*3 24.9 C 0 km/h
919 22-09-2010 15:42:01 25.6 C 8.81 g/m*3 25.6 C 0 km/h
920 22-09-2010 15:54:01 26.5 C 8.26 g/m*3 26.5 C 0 km/h
921 22-09-2010 16:06:01 26.9 C 8.7 g/m*3 26.9 C 0 km/h
922 22-09-2010 16:18:01 27.1 C 8.8 g/m*3 27.1 C 0 km/h
923 22-09-2010 16:30:01 27.4 C 8.68 g/m*3 27.4 C 0 km/h
924 22-09-2010 16:42:02 27.6 C 8.51 g/m*3 27.6 C 0 km/h
925 22-09-2010 16:54:01 27.6 C 8.25 g/m*3 27.6 C 0 km/h
Sensor: Nr:Datum:Temp:Abs-Feuchte:Windchill:Wind:
Aussen-T/F 926 22-09-2010 17:06:02 27.3 C 7.85 g/m*3 27.3 C 0 km/h
927 22-09-2010 17:18:01 27.4 C 8.16 g/m*3 27.4 C 0 km/h
928 22-09-2010 17:30:01 27.2 C 8.07 g/m*3 27.2 C 0 km/h
929 22-09-2010 17:42:01 26.9 C 7.93 g/m*3 26.9 C 0 km/h
930 22-09-2010 17:54:01 26.5 C 8.76 g/m*3 26.5 C 0 km/h
931 22-09-2010 18:06:02 26.1 C 8.81 g/m*3 26.1 C 0 km/h
932 22-09-2010 18:18:01 25.6 C 9.05 g/m*3 25.6 C 0 km/h
933 22-09-2010 18:30:01 25.3 C 9.36 g/m*3 25.3 C 0 km/h
934 22-09-2010 18:42:01 24.1 C 8.97 g/m*3 24.1 C 0 km/h
935 22-09-2010 18:54:01 23.3 C 9.2 g/m*3 23.3 C 0 km/h
936 22-09-2010 19:06:01 22.5 C 9.19 g/m*3 22.5 C 0 km/h
937 22-09-2010 19:18:02 21.8 C 9.4 g/m*3 21.8 C 0 km/h
938 22-09-2010 19:30:02 20.6 C 9.31 g/m*3 20.6 C 0 km/h
939 22-09-2010 19:42:01 20 C 8.99 g/m*3 20 C 0 km/h
940 22-09-2010 19:54:01 19.5 C 9.06 g/m*3 19.5 C 0 km/h
941 22-09-2010 20:06:01 19 C 9.13 g/m*3 19 C 0 km/h
942 22-09-2010 20:18:02 18.7 C 9.13 g/m*3 18.7 C 0 km/h
943 22-09-2010 20:30:02 18.5 C 9.02 g/m*3 18.5 C 0 km/h
944 22-09-2010 20:42:01 18.4 C 9.12 g/m*3 18.4 C 0 km/h
945 22-09-2010 20:54:02 18.1 C 9.12 g/m*3 18.1 C 0 km/h
946 22-09-2010 21:06:01 17.9 C 9.31 g/m*3 17.9 C 0 km/h
947 22-09-2010 21:18:01 17.6 C 9.45 g/m*3 17.6 C 0 km/h
948 22-09-2010 21:30:01 17.5 C 9.24 g/m*3 17.5 C 0 km/h
949 22-09-2010 21:42:01 17.3 C 9.28 g/m*3 17.3 C 0 km/h
950 22-09-2010 21:54:01 17 C 9.26 g/m*3 17 C 0 km/h
Sensor: Nr:Datum:Temp:Abs-Feuchte:Windchill:Wind:
Aussen-T/F 951 22-09-2010 22:08:02 16.8 C 9.29 g/m*3 16.8 C 0 km/h
952 22-09-2010 22:20:02 16.4 C 9.35 g/m*3 16.4 C 0 km/h
953 22-09-2010 22:32:02 16.1 C 9.32 g/m*3 16.1 C 0 km/h
954 22-09-2010 22:44:02 15.9 C 9.21 g/m*3 15.9 C 0 km/h
955 22-09-2010 22:56:02 15.7 C 9.1 g/m*3 15.7 C 0 km/h
956 22-09-2010 23:08:02 15.4 C 8.8 g/m*3 15.4 C 0 km/h
957 22-09-2010 23:20:02 15.1 C 8.77 g/m*3 15.1 C 0 km/h
958 22-09-2010 23:32:02 14.9 C 8.79 g/m*3 14.9 C 0 km/h
959 22-09-2010 23:44:02 14.7 C 8.81 g/m*3 14.7 C 0 km/h
960 22-09-2010 23:56:02 14.5 C 8.71 g/m*3 14.5 C 0 km/h
961 23-09-2010 00:08:02 14.4 C 8.53 g/m*3 14.4 C 0 km/h
962 23-09-2010 00:20:02 14.2 C 8.67 g/m*3 14.2 C 0 km/h
963 23-09-2010 00:32:02 14 C 8.56 g/m*3 14 C 0 km/h
964 23-09-2010 00:44:02 13.8 C 8.7 g/m*3 13.8 C 0 km/h
965 23-09-2010 00:56:02 13.7 C 8.76 g/m*3 13.7 C 0 km/h
966 23-09-2010 01:08:02 13.5 C 8.77 g/m*3 13.5 C 0 km/h
967 23-09-2010 01:20:02 13.4 C 8.72 g/m*3 13.4 C 0 km/h
968 23-09-2010 01:32:02 13.2 C 8.73 g/m*3 13.2 C 0 km/h
969 23-09-2010 01:44:02 13.1 C 8.67 g/m*3 13.1 C 0 km/h
970 23-09-2010 01:56:03 12.9 C 8.68 g/m*3 12.9 C 0 km/h
971 23-09-2010 02:08:03 12.8 C 8.74 g/m*3 12.8 C 0 km/h
972 23-09-2010 02:20:03 12.6 C 8.74 g/m*3 12.6 C 0 km/h
973 23-09-2010 02:32:03 12.4 C 8.74 g/m*3 12.4 C 0 km/h
974 23-09-2010 02:44:03 12.3 C 8.69 g/m*3 12.3 C 0 km/h
975 23-09-2010 02:56:03 12.1 C 8.58 g/m*3 12.1 C 0 km/h
Sensor: Nr:Datum:Temp:Abs-Feuchte:Windchill:Wind:
Aussen-T/F 976 23-09-2010 03:08:03 12 C 8.53 g/m*3 12 C 0 km/h
977 23-09-2010 03:20:03 11.8 C 8.53 g/m*3 11.8 C 0 km/h
978 23-09-2010 03:32:03 11.8 C 8.53 g/m*3 11.8 C 0 km/h
979 23-09-2010 03:44:03 11.8 C 8.63 g/m*3 11.8 C 0 km/h
980 23-09-2010 03:56:03 11.6 C 8.63 g/m*3 11.6 C 0 km/h
981 23-09-2010 04:08:03 11.4 C 8.52 g/m*3 11.4 C 0 km/h
982 23-09-2010 04:20:03 11.2 C 8.41 g/m*3 11.2 C 0 km/h
983 23-09-2010 04:32:03 11.2 C 8.41 g/m*3 11.2 C 0 km/h
984 23-09-2010 04:44:03 11 C 8.31 g/m*3 11 C 0 km/h
985 23-09-2010 04:56:03 11 C 8.31 g/m*3 11 C 0 km/h
986 23-09-2010 05:08:03 10.9 C 8.36 g/m*3 10.9 C 0 km/h
987 23-09-2010 05:20:03 10.7 C 8.25 g/m*3 10.7 C 0 km/h
988 23-09-2010 05:32:03 10.6 C 8.2 g/m*3 10.6 C 0 km/h
989 23-09-2010 05:44:03 10.5 C 8.15 g/m*3 10.5 C 0 km/h
990 23-09-2010 05:56:03 10.5 C 8.15 g/m*3 10.5 C 0 km/h
991 23-09-2010 06:08:03 10.4 C 8.1 g/m*3 10.4 C 0 km/h
992 23-09-2010 06:20:04 10.5 C 8.24 g/m*3 10.5 C 0 km/h
993 23-09-2010 06:32:04 10.6 C 8.3 g/m*3 10.6 C 0 km/h
994 23-09-2010 06:44:04 10.4 C 8.19 g/m*3 10.4 C 0 km/h
995 23-09-2010 06:56:04 10.4 C 8.19 g/m*3 10.4 C 0 km/h
996 23-09-2010 07:08:02 10.5 C 8.24 g/m*3 10.5 C 0 km/h
997 23-09-2010 07:20:01 10.4 C 8.19 g/m*3 10.4 C 0 km/h
998 23-09-2010 07:32:02 10.5 C 8.24 g/m*3 10.5 C 0 km/h
999 23-09-2010 07:44:02 10.6 C 8.3 g/m*3 10.6 C 0 km/h
1000 23-09-2010 07:56:02 10.6 C 8.3 g/m*3 10.6 C 0 km/h
Sensor: Nr:Datum:Temp:Abs-Feuchte:Windchill:Wind:
Aussen-T/F 1001 23-09-2010 08:08:02 10.6 C 8.3 g/m*3 10.6 C 0 km/h
1002 23-09-2010 08:20:01 10.7 C 8.35 g/m*3 10.7 C 0 km/h
1003 23-09-2010 08:32:02 10.8 C 8.4 g/m*3 10.8 C 0 km/h
1004 23-09-2010 08:44:02 11 C 8.51 g/m*3 11 C 0 km/h
1005 23-09-2010 08:56:02 11.3 C 8.57 g/m*3 11.3 C 0 km/h
1006 23-09-2010 09:08:01 11.4 C 8.52 g/m*3 11.4 C 0 km/h
1007 23-09-2010 09:20:01 11.4 C 8.52 g/m*3 11.4 C 0 km/h
1008 23-09-2010 09:32:02 11.4 C 8.52 g/m*3 11.4 C 0 km/h
1009 23-09-2010 09:44:02 11.7 C 8.79 g/m*3 11.7 C 0 km/h
1010 23-09-2010 09:56:02 12.3 C 8.9 g/m*3 12.3 C 0 km/h
1011 23-09-2010 10:08:02 12.4 C 8.96 g/m*3 12.4 C 0 km/h
1012 23-09-2010 10:20:02 12.5 C 9.02 g/m*3 12.5 C 0 km/h
1013 23-09-2010 10:32:02 12.9 C 9.24 g/m*3 12.9 C 0 km/h
1014 23-09-2010 10:44:02 13.3 C 9.36 g/m*3 13.3 C 0 km/h
1015 23-09-2010 10:56:02 13.8 C 9.65 g/m*3 13.8 C 0 km/h
1016 23-09-2010 11:08:02 14.1 C 9.71 g/m*3 14.1 C 0 km/h
1017 23-09-2010 11:20:02 15 C 10 g/m*3 15 C 0 km/h
1018 23-09-2010 11:32:02 15.8 C 10.23 g/m*3 15.8 C 0 km/h
1019 23-09-2010 11:44:02 16.3 C 10.13 g/m*3 16.3 C 0 km/h
1020 23-09-2010 11:56:02 17 C 10.27 g/m*3 17 C 0 km/h
1021 23-09-2010 12:08:02 17.5 C 10.44 g/m*3 17.5 C 0 km/h
1022 23-09-2010 12:20:02 18 C 10.44 g/m*3 18 C 0 km/h
1023 23-09-2010 12:32:02 18.7 C 10.73 g/m*3 18.7 C 0 km/h
1024 23-09-2010 12:44:02 19.2 C 10.55 g/m*3 19.2 C 0 km/h
1025 23-09-2010 12:56:02 19.9 C 10.82 g/m*3 19.9 C 0 km/h
Sensor: Nr:Datum:Temp:Abs-Feuchte:Windchill:Wind:
Aussen-T/F 1026 23-09-2010 13:08:02 20.5 C 11.03 g/m*3 20.5 C 0 km/h
1027 23-09-2010 13:20:02 21.4 C 11.06 g/m*3 21.4 C 0 km/h
1028 23-09-2010 13:32:01 22.3 C 11.26 g/m*3 22.3 C 0 km/h
1029 23-09-2010 13:44:01 23.3 C 10.66 g/m*3 23.3 C 0 km/h
1030 23-09-2010 13:56:02 24 C 9.14 g/m*3 24 C 0 km/h
1031 23-09-2010 14:08:01 24.5 C 9.62 g/m*3 24.5 C 0 km/h
1032 23-09-2010 14:20:02 23.8 C 10.11 g/m*3 23.8 C 0 km/h
1033 23-09-2010 14:32:02 23.7 C 10.48 g/m*3 23.7 C 0 km/h
1034 23-09-2010 14:44:02 23.8 C 10.54 g/m*3 23.8 C 0 km/h
1035 23-09-2010 14:56:02 24.5 C 10.3 g/m*3 24.5 C 0 km/h
1036 23-09-2010 15:08:02 25.2 C 8.85 g/m*3 25.2 C 0 km/h
1037 23-09-2010 15:20:02 25.2 C 9.78 g/m*3 25.2 C 0 km/h
1038 23-09-2010 15:32:02 24.8 C 9.33 g/m*3 24.8 C 0 km/h
1039 23-09-2010 15:44:03 25.1 C 9.26 g/m*3 25.1 C 0 km/h
1040 23-09-2010 15:56:01 24.9 C 9.61 g/m*3 24.9 C 0 km/h
1041 23-09-2010 16:08:02 25.1 C 10.19 g/m*3 25.1 C 0 km/h
1042 23-09-2010 16:20:01 26 C 9.74 g/m*3 26 C 0 km/h
1043 23-09-2010 16:32:01 25.6 C 9.05 g/m*3 25.6 C 0 km/h
1044 23-09-2010 16:44:01 24.9 C 10.07 g/m*3 24.9 C 0 km/h
1045 23-09-2010 16:56:01 24.1 C 10.28 g/m*3 24.1 C 0 km/h
1046 23-09-2010 17:08:01 23.7 C 10.91 g/m*3 23.7 C 0 km/h
1047 23-09-2010 17:20:02 23.4 C 10.72 g/m*3 23.4 C 0 km/h
1048 23-09-2010 17:32:01 23.2 C 10.81 g/m*3 23.2 C 0 km/h
1049 23-09-2010 17:44:01 23.3 C 10.45 g/m*3 23.3 C 0 km/h
1050 23-09-2010 17:56:02 23.8 C 10.76 g/m*3 23.8 C 0 km/h
Sensor: Nr:Datum:Temp:Abs-Feuchte:Windchill:Wind:
Aussen-T/F 1051 23-09-2010 18:08:01 23.3 C 10.45 g/m*3 23.3 C 0 km/h
1052 23-09-2010 18:20:02 22.6 C 10.25 g/m*3 22.6 C 0 km/h
1053 23-09-2010 18:32:01 21.7 C 10.68 g/m*3 21.7 C 0 km/h
1054 23-09-2010 18:44:01 21.6 C 10.81 g/m*3 21.6 C 0 km/h
1055 23-09-2010 18:56:02 21.4 C 10.87 g/m*3 21.4 C 0 km/h
1056 23-09-2010 19:08:02 20.9 C 10.93 g/m*3 20.9 C 0 km/h
1057 23-09-2010 19:20:02 20.4 C 10.97 g/m*3 20.4 C 0 km/h
1058 23-09-2010 19:32:02 19.8 C 11.1 g/m*3 19.8 C 0 km/h
1059 23-09-2010 19:44:02 19.4 C 11.18 g/m*3 19.4 C 0 km/h
1060 23-09-2010 19:56:02 19 C 11.08 g/m*3 19 C 0 km/h
1061 23-09-2010 20:08:01 18.8 C 11.43 g/m*3 18.8 C 0 km/h
1062 23-09-2010 20:20:02 18.6 C 11.3 g/m*3 18.6 C 0 km/h
1063 23-09-2010 20:32:02 18.6 C 11.3 g/m*3 18.6 C 0 km/h
1064 23-09-2010 20:44:02 18.4 C 11.32 g/m*3 18.4 C 0 km/h
1065 23-09-2010 20:56:02 18.1 C 11.12 g/m*3 18.1 C 0 km/h
1066 23-09-2010 21:08:02 18.4 C 11.48 g/m*3 18.4 C 0 km/h
1067 23-09-2010 21:20:01 18.3 C 11.41 g/m*3 18.3 C 0 km/h
1068 23-09-2010 21:32:02 18.4 C 11.64 g/m*3 18.4 C 0 km/h
1069 23-09-2010 21:44:02 18.7 C 11.53 g/m*3 18.7 C 0 km/h
1070 23-09-2010 21:57:02 18.7 C 11.37 g/m*3 18.7 C 0 km/h
1071 23-09-2010 22:09:02 18.5 C 11.23 g/m*3 18.5 C 0 km/h
1072 23-09-2010 22:21:02 18.5 C 11.39 g/m*3 18.5 C 0 km/h
1073 23-09-2010 22:33:02 17.9 C 11.6 g/m*3 17.9 C 0 km/h
1074 23-09-2010 22:45:02 17.7 C 12.52 g/m*3 17.7 C 0 km/h
1075 23-09-2010 22:57:02 17.1 C 12.23 g/m*3 17.1 C 0 km/h
Sensor: Nr:Datum:Temp:Abs-Feuchte:Windchill:Wind:
Aussen-T/F 1076 23-09-2010 23:09:02 16.9 C 12.37 g/m*3 16.9 C 0 km/h
1077 23-09-2010 23:21:02 16.5 C 12.22 g/m*3 16.5 C 0 km/h
1078 23-09-2010 23:33:02 16.4 C 12.28 g/m*3 16.4 C 0 km/h
1079 23-09-2010 23:45:02 16.2 C 12.14 g/m*3 16.2 C 0 km/h
1080 23-09-2010 23:57:02 16.2 C 12.27 g/m*3 16.2 C 0 km/h
1081 24-09-2010 00:09:02 16 C 12.13 g/m*3 16 C 0 km/h
1082 24-09-2010 00:21:02 15.9 C 12.32 g/m*3 15.9 C 0 km/h
1083 24-09-2010 00:33:02 15.6 C 12.1 g/m*3 15.6 C 0 km/h
1084 24-09-2010 00:45:02 15.5 C 12.16 g/m*3 15.5 C 0 km/h
1085 24-09-2010 00:57:02 15.5 C 12.16 g/m*3 15.5 C 0 km/h
1086 24-09-2010 01:09:02 15.5 C 12.16 g/m*3 15.5 C 0 km/h
1087 24-09-2010 01:21:02 15.5 C 12.29 g/m*3 15.5 C 0 km/h
1088 24-09-2010 01:33:02 15.6 C 12.37 g/m*3 15.6 C 0 km/h
1089 24-09-2010 01:45:02 15.6 C 12.37 g/m*3 15.6 C 0 km/h
1090 24-09-2010 01:57:03 15.5 C 12.29 g/m*3 15.5 C 0 km/h
1091 24-09-2010 02:09:03 15.5 C 12.29 g/m*3 15.5 C 0 km/h
1092 24-09-2010 02:21:03 15.5 C 12.29 g/m*3 15.5 C 0 km/h
1093 24-09-2010 02:33:03 15.4 C 12.22 g/m*3 15.4 C 0 km/h
1094 24-09-2010 02:45:03 15.3 C 12.01 g/m*3 15.3 C 0 km/h
1095 24-09-2010 02:57:03 15.2 C 11.94 g/m*3 15.2 C 0 km/h
1096 24-09-2010 03:09:03 15.1 C 11.87 g/m*3 15.1 C 0 km/h
1097 24-09-2010 03:21:03 14.9 C 11.85 g/m*3 14.9 C 0 km/h
1098 24-09-2010 03:33:03 14.9 C 11.85 g/m*3 14.9 C 0 km/h
1099 24-09-2010 03:45:03 14.9 C 11.98 g/m*3 14.9 C 0 km/h
1100 24-09-2010 03:57:03 14.9 C 11.98 g/m*3 14.9 C 0 km/h
Sensor: Nr:Datum:Temp:Abs-Feuchte:Windchill:Wind:
Aussen-T/F 1101 24-09-2010 04:09:03 14.8 C 11.91 g/m*3 14.8 C 0 km/h
1102 24-09-2010 04:21:03 14.8 C 11.91 g/m*3 14.8 C 0 km/h
1103 24-09-2010 04:33:03 14.8 C 11.91 g/m*3 14.8 C 0 km/h
1104 24-09-2010 04:45:03 14.8 C 11.91 g/m*3 14.8 C 0 km/h
1105 24-09-2010 04:57:03 14.7 C 11.83 g/m*3 14.7 C 0 km/h
1106 24-09-2010 05:09:03 14.5 C 11.69 g/m*3 14.5 C 0 km/h
1107 24-09-2010 05:21:03 14.5 C 11.69 g/m*3 14.5 C 0 km/h
1108 24-09-2010 05:33:03 14.5 C 11.69 g/m*3 14.5 C 0 km/h
1109 24-09-2010 05:45:03 14.6 C 11.76 g/m*3 14.6 C 0 km/h
1110 24-09-2010 05:57:03 14.6 C 11.76 g/m*3 14.6 C 0 km/h
1111 24-09-2010 06:09:03 14.7 C 11.83 g/m*3 14.7 C 0 km/h
1112 24-09-2010 06:21:04 14.7 C 11.83 g/m*3 14.7 C 0 km/h
1113 24-09-2010 06:33:04 14.7 C 11.83 g/m*3 14.7 C 0 km/h
1114 24-09-2010 06:45:04 14.7 C 11.83 g/m*3 14.7 C 0 km/h
1115 24-09-2010 06:57:04 14.7 C 11.83 g/m*3 14.7 C 0 km/h
1116 24-09-2010 07:09:04 14.5 C 11.69 g/m*3 14.5 C 0 km/h
1117 24-09-2010 07:21:04 14.4 C 11.62 g/m*3 14.4 C 0 km/h
1118 24-09-2010 07:33:02 14.3 C 11.55 g/m*3 14.3 C 0 km/h
1119 24-09-2010 07:45:02 14.4 C 11.62 g/m*3 14.4 C 0 km/h
1120 24-09-2010 07:57:02 14.4 C 11.62 g/m*3 14.4 C 0 km/h
1121 24-09-2010 08:09:02 14.4 C 11.62 g/m*3 14.4 C 0 km/h
1122 24-09-2010 08:21:01 14.3 C 11.55 g/m*3 14.3 C 0 km/h
1123 24-09-2010 08:33:02 14.6 C 11.89 g/m*3 14.6 C 0 km/h
1124 24-09-2010 08:45:02 14.8 C 12.03 g/m*3 14.8 C 0 km/h
1125 24-09-2010 08:57:02 14.8 C 12.03 g/m*3 14.8 C 0 km/h
Sensor: Nr:Datum:Temp:Abs-Feuchte:Windchill:Wind:
Aussen-T/F 1126 24-09-2010 09:09:01 14.8 C 12.03 g/m*3 14.8 C 0 km/h
1127 24-09-2010 09:21:02 14.8 C 12.03 g/m*3 14.8 C 0 km/h
1128 24-09-2010 09:33:01 14.9 C 12.11 g/m*3 14.9 C 0 km/h
1129 24-09-2010 09:45:02 14.9 C 12.11 g/m*3 14.9 C 0 km/h
1130 24-09-2010 09:57:02 15 C 12.05 g/m*3 15 C 0 km/h
1131 24-09-2010 10:09:02 15 C 12.05 g/m*3 15 C 0 km/h
1132 24-09-2010 10:21:02 14.9 C 12.11 g/m*3 14.9 C 0 km/h
1133 24-09-2010 10:33:02 15 C 12.05 g/m*3 15 C 0 km/h
1134 24-09-2010 10:45:01 15 C 12.05 g/m*3 15 C 0 km/h
1135 24-09-2010 10:57:01 15 C 12.05 g/m*3 15 C 0 km/h
1136 24-09-2010 11:09:02 15.1 C 12.13 g/m*3 15.1 C 0 km/h
1137 24-09-2010 11:21:01 15.1 C 12.13 g/m*3 15.1 C 0 km/h
1138 24-09-2010 11:33:01 15.4 C 12.35 g/m*3 15.4 C 0 km/h
1139 24-09-2010 11:45:02 15.4 C 12.35 g/m*3 15.4 C 0 km/h
1140 24-09-2010 11:57:02 15.1 C 12.13 g/m*3 15.1 C 0 km/h
1141 24-09-2010 12:09:02 15.1 C 12.13 g/m*3 15.1 C 0 km/h
1142 24-09-2010 12:21:02 15.1 C 12.13 g/m*3 15.1 C 0 km/h
1143 24-09-2010 12:33:03 15.4 C 12.48 g/m*3 15.4 C 0 km/h
1144 24-09-2010 12:45:02 15.1 C 12.13 g/m*3 15.1 C 0 km/h
1145 24-09-2010 12:57:03 15 C 12.05 g/m*3 15 C 0 km/h
1146 24-09-2010 13:09:02 14.8 C 11.91 g/m*3 14.8 C 0 km/h
1147 24-09-2010 13:21:02 14.6 C 11.76 g/m*3 14.6 C 0 km/h
1148 24-09-2010 13:33:02 14.5 C 11.69 g/m*3 14.5 C 0 km/h
1149 24-09-2010 13:45:02 14.5 C 11.69 g/m*3 14.5 C 0 km/h
1150 24-09-2010 13:57:02 14.4 C 11.62 g/m*3 14.4 C 0 km/h
Sensor: Nr:Datum:Temp:Abs-Feuchte:Windchill:Wind:
Aussen-T/F 1151 24-09-2010 14:09:03 14.1 C 11.41 g/m*3 14.1 C 0 km/h
1152 24-09-2010 14:21:02 13.8 C 11.2 g/m*3 13.8 C 0 km/h
1153 24-09-2010 14:33:03 13.5 C 10.99 g/m*3 13.5 C 0 km/h
1154 24-09-2010 14:45:02 13.2 C 10.79 g/m*3 13.2 C 0 km/h
1155 24-09-2010 14:57:02 13.1 C 10.73 g/m*3 13.1 C 0 km/h
1156 24-09-2010 15:09:02 12.9 C 10.71 g/m*3 12.9 C 0 km/h
1157 24-09-2010 15:21:03 13.1 C 10.73 g/m*3 13.1 C 0 km/h
1158 24-09-2010 15:33:02 13 C 10.77 g/m*3 13 C 0 km/h
1159 24-09-2010 15:45:03 13.2 C 10.91 g/m*3 13.2 C 0 km/h
1160 24-09-2010 15:57:03 13.2 C 10.91 g/m*3 13.2 C 0 km/h
1161 24-09-2010 16:09:02 13.3 C 10.98 g/m*3 13.3 C 0 km/h
1162 24-09-2010 16:21:02 13.7 C 11.25 g/m*3 13.7 C 0 km/h
1163 24-09-2010 16:33:02 14 C 11.46 g/m*3 14 C 0 km/h
1164 24-09-2010 16:45:02 14.1 C 11.53 g/m*3 14.1 C 0 km/h
1165 24-09-2010 16:57:02 13.9 C 11.39 g/m*3 13.9 C 0 km/h
1166 24-09-2010 17:09:02 13.9 C 11.39 g/m*3 13.9 C 0 km/h
1167 24-09-2010 17:21:02 13.9 C 11.39 g/m*3 13.9 C 0 km/h
1168 24-09-2010 17:33:02 13.4 C 10.93 g/m*3 13.4 C 0 km/h
1169 24-09-2010 17:45:02 13.2 C 10.79 g/m*3 13.2 C 0 km/h
1170 24-09-2010 17:57:02 13 C 10.66 g/m*3 13 C 0 km/h
1171 24-09-2010 18:09:01 13.2 C 10.79 g/m*3 13.2 C 0 km/h
1172 24-09-2010 18:21:01 13.3 C 10.86 g/m*3 13.3 C 0 km/h
1173 24-09-2010 18:33:02 13.3 C 10.86 g/m*3 13.3 C 0 km/h
1174 24-09-2010 18:45:02 13.3 C 10.86 g/m*3 13.3 C 0 km/h
1175 24-09-2010 18:57:02 13.2 C 10.79 g/m*3 13.2 C 0 km/h
Sensor: Nr:Datum:Temp:Abs-Feuchte:Windchill:Wind:
Aussen-T/F 1176 24-09-2010 19:09:02 13.1 C 10.73 g/m*3 13.1 C 0 km/h
1177 24-09-2010 19:21:01 12.9 C 10.71 g/m*3 12.9 C 0 km/h
1178 24-09-2010 19:33:02 12.8 C 10.64 g/m*3 12.8 C 0 km/h
1179 24-09-2010 19:45:02 12.7 C 10.58 g/m*3 12.7 C 0 km/h
1180 24-09-2010 19:57:02 12.7 C 10.58 g/m*3 12.7 C 0 km/h
1181 24-09-2010 20:09:02 12.7 C 10.58 g/m*3 12.7 C 0 km/h
1182 24-09-2010 20:21:01 12.7 C 10.58 g/m*3 12.7 C 0 km/h
1183 24-09-2010 20:33:02 12.7 C 10.58 g/m*3 12.7 C 0 km/h
1184 24-09-2010 20:45:01 12.7 C 10.58 g/m*3 12.7 C 0 km/h
1185 24-09-2010 20:57:01 12.7 C 10.58 g/m*3 12.7 C 0 km/h
1186 24-09-2010 21:09:02 12.8 C 10.64 g/m*3 12.8 C 0 km/h
1187 24-09-2010 21:21:02 12.8 C 10.64 g/m*3 12.8 C 0 km/h
1188 24-09-2010 21:33:02 12.9 C 10.71 g/m*3 12.9 C 0 km/h
1189 24-09-2010 21:45:02 12.8 C 10.64 g/m*3 12.8 C 0 km/h
1190 24-09-2010 21:57:02 12.8 C 10.64 g/m*3 12.8 C 0 km/h
1191 24-09-2010 22:09:01 12.8 C 10.64 g/m*3 12.8 C 0 km/h
1192 24-09-2010 22:21:02 12.8 C 10.64 g/m*3 12.8 C 0 km/h
1193 24-09-2010 22:33:02 12.7 C 10.58 g/m*3 12.7 C 0 km/h
1194 24-09-2010 22:46:04 12.6 C 10.51 g/m*3 12.6 C 0 km/h
1195 24-09-2010 22:58:04 12.6 C 10.51 g/m*3 12.6 C 0 km/h
1196 24-09-2010 23:10:04 12.5 C 10.44 g/m*3 12.5 C 0 km/h
1197 24-09-2010 23:22:04 12.4 C 10.38 g/m*3 12.4 C 0 km/h
1198 24-09-2010 23:34:04 12.4 C 10.38 g/m*3 12.4 C 0 km/h
1199 24-09-2010 23:46:04 12.3 C 10.32 g/m*3 12.3 C 0 km/h
1200 24-09-2010 23:58:04 12.4 C 10.38 g/m*3 12.4 C 0 km/h
Sensor: Nr:Datum:Temp:Abs-Feuchte:Windchill:Wind:
Aussen-T/F 1201 25-09-2010 00:10:04 12.4 C 10.38 g/m*3 12.4 C 0 km/h
1202 25-09-2010 00:22:04 12.5 C 10.44 g/m*3 12.5 C 0 km/h
1203 25-09-2010 00:34:04 12.5 C 10.44 g/m*3 12.5 C 0 km/h
1204 25-09-2010 00:46:04 12.5 C 10.44 g/m*3 12.5 C 0 km/h
1205 25-09-2010 00:58:05 12.5 C 10.44 g/m*3 12.5 C 0 km/h
1206 25-09-2010 01:10:05 12.5 C 10.44 g/m*3 12.5 C 0 km/h
1207 25-09-2010 01:22:05 12.5 C 10.44 g/m*3 12.5 C 0 km/h
1208 25-09-2010 01:34:05 12.5 C 10.44 g/m*3 12.5 C 0 km/h
1209 25-09-2010 01:46:05 12.5 C 10.44 g/m*3 12.5 C 0 km/h
1210 25-09-2010 01:58:05 12.6 C 10.51 g/m*3 12.6 C 0 km/h
1211 25-09-2010 02:10:05 12.6 C 10.51 g/m*3 12.6 C 0 km/h
1212 25-09-2010 02:22:05 12.6 C 10.51 g/m*3 12.6 C 0 km/h
1213 25-09-2010 02:34:05 12.6 C 10.51 g/m*3 12.6 C 0 km/h
1214 25-09-2010 02:46:05 12.6 C 10.51 g/m*3 12.6 C 0 km/h
1215 25-09-2010 02:58:05 12.6 C 10.51 g/m*3 12.6 C 0 km/h
1216 25-09-2010 03:10:05 12.7 C 10.58 g/m*3 12.7 C 0 km/h
1217 25-09-2010 03:22:05 12.6 C 10.51 g/m*3 12.6 C 0 km/h
1218 25-09-2010 03:34:05 12.6 C 10.51 g/m*3 12.6 C 0 km/h
1219 25-09-2010 03:46:05 12.6 C 10.51 g/m*3 12.6 C 0 km/h
1220 25-09-2010 03:58:05 12.6 C 10.51 g/m*3 12.6 C 0 km/h
1221 25-09-2010 04:10:05 12.6 C 10.51 g/m*3 12.6 C 0 km/h
1222 25-09-2010 04:22:05 12.5 C 10.44 g/m*3 12.5 C 0 km/h
1223 25-09-2010 04:34:05 12.6 C 10.51 g/m*3 12.6 C 0 km/h
1224 25-09-2010 04:46:05 12.5 C 10.44 g/m*3 12.5 C 0 km/h
1225 25-09-2010 04:58:06 12.5 C 10.44 g/m*3 12.5 C 0 km/h
Sensor: Nr:Datum:Temp:Abs-Feuchte:Windchill:Wind:
Aussen-T/F 1226 25-09-2010 05:10:06 12.5 C 10.44 g/m*3 12.5 C 0 km/h
1227 25-09-2010 05:22:06 12.4 C 10.38 g/m*3 12.4 C 0 km/h
1228 25-09-2010 05:34:06 12.4 C 10.38 g/m*3 12.4 C 0 km/h
1229 25-09-2010 05:46:06 12.3 C 10.32 g/m*3 12.3 C 0 km/h
1230 25-09-2010 05:58:06 12.3 C 10.21 g/m*3 12.3 C 0 km/h
1231 25-09-2010 06:10:06 12.1 C 10.08 g/m*3 12.1 C 0 km/h
1232 25-09-2010 06:22:06 12.1 C 10.08 g/m*3 12.1 C 0 km/h
1233 25-09-2010 06:34:06 12.1 C 10.08 g/m*3 12.1 C 0 km/h
1234 25-09-2010 06:46:06 12 C 10.02 g/m*3 12 C 0 km/h
1235 25-09-2010 06:58:06 12 C 10.02 g/m*3 12 C 0 km/h
1236 25-09-2010 07:10:06 12 C 10.02 g/m*3 12 C 0 km/h
1237 25-09-2010 07:22:06 11.9 C 9.96 g/m*3 11.9 C 0 km/h
1238 25-09-2010 07:34:06 11.9 C 9.96 g/m*3 11.9 C 0 km/h
1239 25-09-2010 07:46:02 11.8 C 9.89 g/m*3 11.8 C 0 km/h
1240 25-09-2010 07:58:02 11.8 C 9.89 g/m*3 11.8 C 0 km/h
1241 25-09-2010 08:10:02 11.7 C 9.83 g/m*3 11.7 C 0 km/h
1242 25-09-2010 08:22:02 11.6 C 9.77 g/m*3 11.6 C 0 km/h
1243 25-09-2010 08:34:02 11.2 C 9.43 g/m*3 11.2 C 0 km/h
1244 25-09-2010 08:46:02 11 C 9.31 g/m*3 11 C 0 km/h
1245 25-09-2010 08:58:02 10.8 C 9.19 g/m*3 10.8 C 0 km/h
1246 25-09-2010 09:10:01 10.6 C 9.08 g/m*3 10.6 C 0 km/h
1247 25-09-2010 09:22:02 10.4 C 8.96 g/m*3 10.4 C 0 km/h
1248 25-09-2010 09:34:02 10.5 C 8.92 g/m*3 10.5 C 0 km/h
1249 25-09-2010 09:46:02 10.5 C 8.83 g/m*3 10.5 C 0 km/h
1250 25-09-2010 09:58:02 10.4 C 8.29 g/m*3 10.4 C 0 km/h
Sensor: Nr:Datum:Temp:Abs-Feuchte:Windchill:Wind:
Aussen-T/F 1251 25-09-2010 10:10:03 10.5 C 8.15 g/m*3 10.5 C 0 km/h
1252 25-09-2010 10:22:02 10.8 C 8.2 g/m*3 10.8 C 0 km/h
1253 25-09-2010 10:34:02 11.1 C 8.36 g/m*3 11.1 C 0 km/h
1254 25-09-2010 10:46:01 11.3 C 8.36 g/m*3 11.3 C 0 km/h
1255 25-09-2010 10:58:01 11.5 C 8.16 g/m*3 11.5 C 0 km/h
1256 25-09-2010 11:10:02 11.6 C 7.8 g/m*3 11.6 C 0 km/h
1257 25-09-2010 11:22:01 12.1 C 7.72 g/m*3 12.1 C 0 km/h
1258 25-09-2010 11:34:02 12.3 C 7.38 g/m*3 12.3 C 0 km/h
1259 25-09-2010 11:46:01 12.5 C 7.26 g/m*3 12.5 C 0 km/h
1260 25-09-2010 11:58:01 13 C 7.03 g/m*3 13 C 0 km/h
1261 25-09-2010 12:10:02 12.8 C 6.83 g/m*3 12.8 C 0 km/h
1262 25-09-2010 12:22:01 12.8 C 7.06 g/m*3 12.8 C 0 km/h
1263 25-09-2010 12:34:02 12.4 C 6.88 g/m*3 12.4 C 0 km/h
1264 25-09-2010 12:46:02 11.8 C 6.84 g/m*3 11.8 C 0 km/h
1265 25-09-2010 12:58:02 12.4 C 6.88 g/m*3 12.4 C 0 km/h
1266 25-09-2010 13:10:02 12.7 C 6.68 g/m*3 12.7 C 0 km/h
1267 25-09-2010 13:22:01 13 C 6.35 g/m*3 13 C 0 km/h
1268 25-09-2010 13:34:02 13.8 C 6.43 g/m*3 13.8 C 0 km/h
1269 25-09-2010 13:46:01 13.5 C 5.38 g/m*3 13.5 C 0 km/h
1270 25-09-2010 13:58:01 13.3 C 5.31 g/m*3 13.3 C 0 km/h
1271 25-09-2010 14:10:02 13.7 C 5.45 g/m*3 13.7 C 0 km/h
1272 25-09-2010 14:22:01 13.5 C 5.5 g/m*3 13.5 C 0 km/h
1273 25-09-2010 14:34:02 13.8 C 5.36 g/m*3 13.8 C 0 km/h
1274 25-09-2010 14:46:01 14.4 C 5.32 g/m*3 14.4 C 0 km/h
1275 25-09-2010 14:58:01 15.8 C 5.12 g/m*3 15.8 C 0 km/h
Sensor: Nr:Datum:Temp:Abs-Feuchte:Windchill:Wind:
Aussen-T/F 1276 25-09-2010 15:10:02 14.8 C 4.43 g/m*3 14.8 C 0 km/h
1277 25-09-2010 15:22:02 14.5 C 4.6 g/m*3 14.5 C 0 km/h
1278 25-09-2010 15:34:01 15.7 C 4.68 g/m*3 15.7 C 0 km/h
1279 25-09-2010 15:46:02 15.5 C 4.63 g/m*3 15.5 C 0 km/h
1280 25-09-2010 15:58:02 14.7 C 5.04 g/m*3 14.7 C 0 km/h
1281 25-09-2010 16:10:01 14.2 C 4.88 g/m*3 14.2 C 0 km/h
1282 25-09-2010 16:22:02 14.4 C 5.07 g/m*3 14.4 C 0 km/h
1283 25-09-2010 16:34:01 14.7 C 5.16 g/m*3 14.7 C 0 km/h
1284 25-09-2010 16:46:02 15.6 C 4.79 g/m*3 15.6 C 0 km/h
1285 25-09-2010 16:58:02 14.7 C 4.91 g/m*3 14.7 C 0 km/h
1286 25-09-2010 17:10:02 14.3 C 4.91 g/m*3 14.3 C 0 km/h
1287 25-09-2010 17:22:02 14.8 C 5.32 g/m*3 14.8 C 0 km/h
1288 25-09-2010 17:34:03 15.6 C 5.19 g/m*3 15.6 C 0 km/h
1289 25-09-2010 17:46:02 16.8 C 5.15 g/m*3 16.8 C 0 km/h
1290 25-09-2010 17:58:02 16.5 C 4.77 g/m*3 16.5 C 0 km/h
1291 25-09-2010 18:10:01 15.4 C 4.47 g/m*3 15.4 C 0 km/h
1292 25-09-2010 18:22:01 14.3 C 4.67 g/m*3 14.3 C 0 km/h
1293 25-09-2010 18:34:02 13.9 C 4.92 g/m*3 13.9 C 0 km/h
1294 25-09-2010 18:46:02 13.8 C 5.36 g/m*3 13.8 C 0 km/h
1295 25-09-2010 18:58:02 13.7 C 5.8 g/m*3 13.7 C 0 km/h
1296 25-09-2010 19:10:02 13.5 C 5.5 g/m*3 13.5 C 0 km/h
1297 25-09-2010 19:22:02 13.1 C 5.59 g/m*3 13.1 C 0 km/h
1298 25-09-2010 19:34:02 13 C 5.67 g/m*3 13 C 0 km/h
1299 25-09-2010 19:46:02 12.7 C 5.9 g/m*3 12.7 C 0 km/h
1300 25-09-2010 19:58:02 12.6 C 6.08 g/m*3 12.6 C 0 km/h
Sensor: Nr:Datum:Temp:Abs-Feuchte:Windchill:Wind:
Aussen-T/F 1301 25-09-2010 20:10:02 12.5 C 5.72 g/m*3 12.5 C 0 km/h
1302 25-09-2010 20:22:02 12.2 C 5.61 g/m*3 12.2 C 0 km/h
1303 25-09-2010 20:34:02 11.8 C 5.79 g/m*3 11.8 C 0 km/h
1304 25-09-2010 20:46:02 11.1 C 6.04 g/m*3 11.1 C 0 km/h
1305 25-09-2010 20:58:02 10.9 C 6.17 g/m*3 10.9 C 0 km/h
1306 25-09-2010 21:10:02 10.4 C 6.17 g/m*3 10.4 C 0 km/h
1307 25-09-2010 21:22:03 10.2 C 6.28 g/m*3 10.2 C 0 km/h
1308 25-09-2010 21:34:02 10.1 C 6.34 g/m*3 10.1 C 0 km/h
1309 25-09-2010 21:46:03 10 C 6.3 g/m*3 10 C 0 km/h
1310 25-09-2010 21:58:03 9.9 C 6.44 g/m*3 9.9 C 0 km/h
1311 25-09-2010 22:10:02 9.9 C 6.54 g/m*3 9.9 C 0 km/h
1312 25-09-2010 22:22:02 10.2 C 6.57 g/m*3 10.2 C 0 km/h
1313 25-09-2010 22:34:02 10.5 C 6.69 g/m*3 10.5 C 0 km/h
1314 25-09-2010 22:46:02 10.5 C 6.69 g/m*3 10.5 C 0 km/h
1315 25-09-2010 22:58:02 10.3 C 6.9 g/m*3 10.3 C 0 km/h
1316 25-09-2010 23:10:02 9.6 C 7.15 g/m*3 9.6 C 0 km/h
1317 25-09-2010 23:22:02 9.3 C 7.28 g/m*3 9.3 C 0 km/h
1318 25-09-2010 23:34:01 9.2 C 7.5 g/m*3 9.2 C 0 km/h
1319 25-09-2010 23:46:02 9.1 C 7.45 g/m*3 9.1 C 0 km/h
1320 25-09-2010 23:58:02 9.2 C 7.59 g/m*3 9.2 C 0 km/h
1321 26-09-2010 00:10:01 9.1 C 7.63 g/m*3 9.1 C 0 km/h
1322 26-09-2010 00:22:02 9.5 C 7.92 g/m*3 9.5 C 0 km/h
1323 26-09-2010 00:34:02 9.5 C 7.92 g/m*3 9.5 C 0 km/h
1324 26-09-2010 00:46:02 9.6 C 7.79 g/m*3 9.6 C 0 km/h
1325 26-09-2010 00:58:02 9.5 C 7.55 g/m*3 9.5 C 0 km/h
Sensor: Nr:Datum:Temp:Abs-Feuchte:Windchill:Wind:
Aussen-T/F 1326 26-09-2010 01:10:02 9.5 C 7.37 g/m*3 9.5 C 0 km/h
1327 26-09-2010 01:22:02 9.5 C 7.28 g/m*3 9.5 C 0 km/h
1328 26-09-2010 01:34:02 9.4 C 7.15 g/m*3 9.4 C 0 km/h
1329 26-09-2010 01:46:01 9.5 C 7.19 g/m*3 9.5 C 0 km/h
1330 26-09-2010 01:58:01 9.5 C 7.19 g/m*3 9.5 C 0 km/h
1331 26-09-2010 02:10:02 9.5 C 7.19 g/m*3 9.5 C 0 km/h
1332 26-09-2010 02:22:01 9.5 C 7.1 g/m*3 9.5 C 0 km/h
1333 26-09-2010 02:34:01 9.3 C 7.01 g/m*3 9.3 C 0 km/h
1334 26-09-2010 02:46:01 9.4 C 6.96 g/m*3 9.4 C 0 km/h
1335 26-09-2010 02:58:01 9.4 C 6.96 g/m*3 9.4 C 0 km/h
1336 26-09-2010 03:10:01 9.3 C 6.92 g/m*3 9.3 C 0 km/h
1337 26-09-2010 03:22:01 9.3 C 7.01 g/m*3 9.3 C 0 km/h
1338 26-09-2010 03:34:01 9.3 C 7.1 g/m*3 9.3 C 0 km/h
1339 26-09-2010 03:46:01 9.1 C 7.1 g/m*3 9.1 C 0 km/h
1340 26-09-2010 03:58:01 9 C 7.23 g/m*3 9 C 0 km/h
1341 26-09-2010 04:10:01 9 C 7.32 g/m*3 9 C 0 km/h
1342 26-09-2010 04:22:01 9 C 7.23 g/m*3 9 C 0 km/h
1343 26-09-2010 04:34:02 8.9 C 7.27 g/m*3 8.9 C 0 km/h
1344 26-09-2010 04:46:01 8.7 C 7.26 g/m*3 8.7 C 0 km/h
1345 26-09-2010 04:58:01 8.8 C 7.31 g/m*3 8.8 C 0 km/h
1346 26-09-2010 05:10:02 9 C 7.32 g/m*3 9 C 0 km/h
1347 26-09-2010 05:22:01 9.1 C 7.36 g/m*3 9.1 C 0 km/h
1348 26-09-2010 05:34:01 9 C 7.32 g/m*3 9 C 0 km/h
1349 26-09-2010 05:46:01 9 C 7.32 g/m*3 9 C 0 km/h
1350 26-09-2010 05:58:01 9 C 7.32 g/m*3 9 C 0 km/h
Sensor: Nr:Datum:Temp:Abs-Feuchte:Windchill:Wind:
Aussen-T/F 1351 26-09-2010 06:10:02 9 C 7.32 g/m*3 9 C 0 km/h
1352 26-09-2010 06:22:01 9.1 C 7.36 g/m*3 9.1 C 0 km/h
1353 26-09-2010 06:34:01 8.8 C 7.31 g/m*3 8.8 C 0 km/h
1354 26-09-2010 06:46:01 8.8 C 7.4 g/m*3 8.8 C 0 km/h
1355 26-09-2010 06:58:01 8.8 C 7.49 g/m*3 8.8 C 0 km/h
1356 26-09-2010 07:10:01 8.8 C 7.49 g/m*3 8.8 C 0 km/h
1357 26-09-2010 07:22:02 8.5 C 7.26 g/m*3 8.5 C 0 km/h
1358 26-09-2010 07:34:01 8.6 C 7.39 g/m*3 8.6 C 0 km/h
1359 26-09-2010 07:46:02 8.9 C 7.62 g/m*3 8.9 C 0 km/h
1360 26-09-2010 07:58:02 9.2 C 7.5 g/m*3 9.2 C 0 km/h
1361 26-09-2010 08:10:01 9.5 C 7.55 g/m*3 9.5 C 0 km/h
1362 26-09-2010 08:22:02 9.6 C 7.33 g/m*3 9.6 C 0 km/h
1363 26-09-2010 08:34:01 9.7 C 7.19 g/m*3 9.7 C 0 km/h
1364 26-09-2010 08:46:02 9.7 C 7.19 g/m*3 9.7 C 0 km/h
1365 26-09-2010 08:58:02 9.6 C 7.24 g/m*3 9.6 C 0 km/h
1366 26-09-2010 09:10:01 9.4 C 7.24 g/m*3 9.4 C 0 km/h
1367 26-09-2010 09:22:01 9.4 C 7.33 g/m*3 9.4 C 0 km/h
1368 26-09-2010 09:34:02 10.5 C 7.57 g/m*3 10.5 C 0 km/h
1369 26-09-2010 09:46:01 11 C 7.11 g/m*3 11 C 0 km/h
1370 26-09-2010 09:58:01 11 C 6.61 g/m*3 11 C 0 km/h
1371 26-09-2010 10:10:02 11 C 6.61 g/m*3 11 C 0 km/h
1372 26-09-2010 10:22:01 11.6 C 6.76 g/m*3 11.6 C 0 km/h
1373 26-09-2010 10:34:02 12 C 6.61 g/m*3 12 C 0 km/h
1374 26-09-2010 10:46:01 11.9 C 6.78 g/m*3 11.9 C 0 km/h
1375 26-09-2010 10:58:01 12.7 C 7.01 g/m*3 12.7 C 0 km/h
Sensor: Nr:Datum:Temp:Abs-Feuchte:Windchill:Wind:
Aussen-T/F 1376 26-09-2010 11:10:02 12.9 C 6.42 g/m*3 12.9 C 0 km/h
1377 26-09-2010 11:22:01 13.1 C 6.5 g/m*3 13.1 C 0 km/h
1378 26-09-2010 11:34:02 13.2 C 6.66 g/m*3 13.2 C 0 km/h
1379 26-09-2010 11:46:02 13.5 C 6.32 g/m*3 13.5 C 0 km/h
1380 26-09-2010 11:58:02 13.4 C 6.28 g/m*3 13.4 C 0 km/h
1381 26-09-2010 12:10:01 14 C 6.39 g/m*3 14 C 0 km/h
1382 26-09-2010 12:22:02 14.3 C 6.51 g/m*3 14.3 C 0 km/h
1383 26-09-2010 12:34:01 14.6 C 6.51 g/m*3 14.6 C 0 km/h
1384 26-09-2010 12:46:01 15 C 6.28 g/m*3 15 C 0 km/h
1385 26-09-2010 12:58:01 14.5 C 6.22 g/m*3 14.5 C 0 km/h
1386 26-09-2010 13:10:02 14.5 C 6.34 g/m*3 14.5 C 0 km/h
1387 26-09-2010 13:22:01 13.2 C 7.12 g/m*3 13.2 C 0 km/h
1388 26-09-2010 13:34:01 12.6 C 7.63 g/m*3 12.6 C 0 km/h
1389 26-09-2010 13:46:01 12.4 C 8.3 g/m*3 12.4 C 0 km/h
1390 26-09-2010 13:58:01 12.3 C 8.25 g/m*3 12.3 C 0 km/h
1391 26-09-2010 14:10:01 13.2 C 8.61 g/m*3 13.2 C 0 km/h
1392 26-09-2010 14:22:01 13.4 C 8.37 g/m*3 13.4 C 0 km/h
1393 26-09-2010 14:34:01 13.3 C 8.43 g/m*3 13.3 C 0 km/h
1394 26-09-2010 14:46:01 13.2 C 8.15 g/m*3 13.2 C 0 km/h
1395 26-09-2010 14:58:01 13.4 C 7.9 g/m*3 13.4 C 0 km/h
1396 26-09-2010 15:10:01 13.6 C 7.89 g/m*3 13.6 C 0 km/h
1397 26-09-2010 15:22:02 13.9 C 8.39 g/m*3 13.9 C 0 km/h
1398 26-09-2010 15:34:01 14.4 C 8.16 g/m*3 14.4 C 0 km/h
1399 26-09-2010 15:46:02 14.5 C 7.96 g/m*3 14.5 C 0 km/h
1400 26-09-2010 15:58:02 14.5 C 8.21 g/m*3 14.5 C 0 km/h
Sensor: Nr:Datum:Temp:Abs-Feuchte:Windchill:Wind:
Aussen-T/F 1401 26-09-2010 16:10:01 13.7 C 7.7 g/m*3 13.7 C 0 km/h
1402 26-09-2010 16:22:02 13.8 C 7.51 g/m*3 13.8 C 0 km/h
1403 26-09-2010 16:34:01 15.7 C 7.09 g/m*3 15.7 C 0 km/h
1404 26-09-2010 16:46:01 15.5 C 6.21 g/m*3 15.5 C 0 km/h
1405 26-09-2010 16:58:01 15.9 C 6.5 g/m*3 15.9 C 0 km/h
1406 26-09-2010 17:10:01 16.1 C 6.44 g/m*3 16.1 C 0 km/h
1407 26-09-2010 17:22:01 15.6 C 6.38 g/m*3 15.6 C 0 km/h
1408 26-09-2010 17:34:02 15.4 C 6.7 g/m*3 15.4 C 0 km/h
1409 26-09-2010 17:46:01 14.6 C 6.76 g/m*3 14.6 C 0 km/h
1410 26-09-2010 17:58:01 14.2 C 6.72 g/m*3 14.2 C 0 km/h
1411 26-09-2010 18:10:02 13.6 C 6.83 g/m*3 13.6 C 0 km/h
1412 26-09-2010 18:22:01 13.1 C 6.85 g/m*3 13.1 C 0 km/h
1413 26-09-2010 18:34:01 12.9 C 6.99 g/m*3 12.9 C 0 km/h
1414 26-09-2010 18:46:01 12.7 C 7.01 g/m*3 12.7 C 0 km/h
1415 26-09-2010 18:58:01 12.5 C 7.04 g/m*3 12.5 C 0 km/h
1416 26-09-2010 19:10:02 12.4 C 7.1 g/m*3 12.4 C 0 km/h
1417 26-09-2010 19:22:01 12.4 C 7.1 g/m*3 12.4 C 0 km/h
1418 26-09-2010 19:34:01 12.2 C 7.01 g/m*3 12.2 C 0 km/h
1419 26-09-2010 19:46:01 12.1 C 7.18 g/m*3 12.1 C 0 km/h
1420 26-09-2010 19:58:01 12.1 C 7.08 g/m*3 12.1 C 0 km/h
1421 26-09-2010 20:10:02 12 C 7.25 g/m*3 12 C 0 km/h
1422 26-09-2010 20:22:01 11.9 C 7.31 g/m*3 11.9 C 0 km/h
1423 26-09-2010 20:34:01 11.7 C 7.22 g/m*3 11.7 C 0 km/h
1424 26-09-2010 20:46:01 11.7 C 7.22 g/m*3 11.7 C 0 km/h
1425 26-09-2010 20:58:01 11.6 C 7.07 g/m*3 11.6 C 0 km/h
Sensor: Nr:Datum:Temp:Abs-Feuchte:Windchill:Wind:
Aussen-T/F 1426 26-09-2010 21:10:01 11.6 C 7.07 g/m*3 11.6 C 0 km/h
1427 26-09-2010 21:22:01 11.4 C 7.08 g/m*3 11.4 C 0 km/h
1428 26-09-2010 21:34:01 11.2 C 7.1 g/m*3 11.2 C 0 km/h
1429 26-09-2010 21:46:01 10.9 C 7.16 g/m*3 10.9 C 0 km/h
1430 26-09-2010 21:58:01 10.7 C 7.17 g/m*3 10.7 C 0 km/h
1431 26-09-2010 22:10:01 10.3 C 6.99 g/m*3 10.3 C 0 km/h
1432 26-09-2010 22:22:01 10 C 7.05 g/m*3 10 C 0 km/h
1433 26-09-2010 22:34:01 9.7 C 7.1 g/m*3 9.7 C 0 km/h
1434 26-09-2010 22:47:04 9.3 C 7.1 g/m*3 9.3 C 0 km/h
1435 26-09-2010 22:59:04 9.2 C 7.05 g/m*3 9.2 C 0 km/h
1436 26-09-2010 23:11:04 9 C 7.05 g/m*3 9 C 0 km/h
1437 26-09-2010 23:23:04 8.9 C 7.18 g/m*3 8.9 C 0 km/h
1438 26-09-2010 23:35:04 8.9 C 7.27 g/m*3 8.9 C 0 km/h
1439 26-09-2010 23:47:04 8.8 C 7.22 g/m*3 8.8 C 0 km/h
1440 26-09-2010 23:59:04 8.6 C 7.13 g/m*3 8.6 C 0 km/h
1441 27-09-2010 00:11:04 8.5 C 7.17 g/m*3 8.5 C 0 km/h
1442 27-09-2010 00:23:04 8.2 C 7.03 g/m*3 8.2 C 0 km/h
1443 27-09-2010 00:35:04 8.1 C 6.99 g/m*3 8.1 C 0 km/h
1444 27-09-2010 00:47:04 7.9 C 6.98 g/m*3 7.9 C 0 km/h
1445 27-09-2010 00:59:04 7.9 C 7.15 g/m*3 7.9 C 0 km/h
1446 27-09-2010 01:11:04 7.8 C 7.18 g/m*3 7.8 C 0 km/h
1447 27-09-2010 01:23:04 7.6 C 7.09 g/m*3 7.6 C 0 km/h
1448 27-09-2010 01:35:04 7.5 C 7.04 g/m*3 7.5 C 0 km/h
1449 27-09-2010 01:47:04 7.3 C 6.95 g/m*3 7.3 C 0 km/h
1450 27-09-2010 01:59:04 7.1 C 6.94 g/m*3 7.1 C 0 km/h
Sensor: Nr:Datum:Temp:Abs-Feuchte:Windchill:Wind:
Aussen-T/F 1451 27-09-2010 02:11:04 7 C 6.9 g/m*3 7 C 0 km/h
1452 27-09-2010 02:23:04 7 C 6.9 g/m*3 7 C 0 km/h
1453 27-09-2010 02:35:05 6.8 C 6.81 g/m*3 6.8 C 0 km/h
1454 27-09-2010 02:47:05 6.7 C 6.84 g/m*3 6.7 C 0 km/h
1455 27-09-2010 02:59:05 6.7 C 6.84 g/m*3 6.7 C 0 km/h
1456 27-09-2010 03:11:05 6.5 C 6.75 g/m*3 6.5 C 0 km/h
1457 27-09-2010 03:23:05 6.7 C 6.84 g/m*3 6.7 C 0 km/h
1458 27-09-2010 03:35:05 6.4 C 6.71 g/m*3 6.4 C 0 km/h
1459 27-09-2010 03:47:05 6.3 C 6.66 g/m*3 6.3 C 0 km/h
1460 27-09-2010 03:59:05 6.4 C 6.78 g/m*3 6.4 C 0 km/h
1461 27-09-2010 04:11:05 6.5 C 6.9 g/m*3 6.5 C 0 km/h
1462 27-09-2010 04:23:05 6.4 C 6.85 g/m*3 6.4 C 0 km/h
1463 27-09-2010 04:35:05 6.3 C 6.81 g/m*3 6.3 C 0 km/h
1464 27-09-2010 04:47:05 6.1 C 6.72 g/m*3 6.1 C 0 km/h
1465 27-09-2010 04:59:05 5.9 C 6.71 g/m*3 5.9 C 0 km/h
1466 27-09-2010 05:11:05 5.9 C 6.71 g/m*3 5.9 C 0 km/h
1467 27-09-2010 05:23:05 6.1 C 6.72 g/m*3 6.1 C 0 km/h
1468 27-09-2010 05:35:05 6.3 C 6.81 g/m*3 6.3 C 0 km/h
1469 27-09-2010 05:47:05 6.4 C 6.93 g/m*3 6.4 C 0 km/h
1470 27-09-2010 05:59:05 6.5 C 6.97 g/m*3 6.5 C 0 km/h
1471 27-09-2010 06:11:05 6.5 C 6.97 g/m*3 6.5 C 0 km/h
1472 27-09-2010 06:23:05 6.4 C 6.93 g/m*3 6.4 C 0 km/h
1473 27-09-2010 06:35:05 6.2 C 6.84 g/m*3 6.2 C 0 km/h
1474 27-09-2010 06:47:06 6.2 C 6.84 g/m*3 6.2 C 0 km/h
1475 27-09-2010 06:59:06 6.3 C 6.88 g/m*3 6.3 C 0 km/h
Sensor: Nr:Datum:Temp:Abs-Feuchte:Windchill:Wind:
Aussen-T/F 1476 27-09-2010 07:11:04 6.3 C 6.88 g/m*3 6.3 C 0 km/h
1477 27-09-2010 07:23:04 6.6 C 7.02 g/m*3 6.6 C 0 km/h
1478 27-09-2010 07:35:04 6.7 C 7.14 g/m*3 6.7 C 0 km/h
1479 27-09-2010 07:47:02 6.9 C 7.24 g/m*3 6.9 C 0 km/h
1480 27-09-2010 07:59:02 7.2 C 7.38 g/m*3 7.2 C 0 km/h
1481 27-09-2010 08:11:02 7.5 C 7.52 g/m*3 7.5 C 0 km/h
1482 27-09-2010 08:23:02 7.5 C 7.52 g/m*3 7.5 C 0 km/h
1483 27-09-2010 08:35:02 7.6 C 7.57 g/m*3 7.6 C 0 km/h
1484 27-09-2010 08:47:02 7.8 C 7.67 g/m*3 7.8 C 0 km/h
1485 27-09-2010 08:59:02 8.1 C 7.74 g/m*3 8.1 C 0 km/h
1486 27-09-2010 09:11:02 8.5 C 7.94 g/m*3 8.5 C 0 km/h
1487 27-09-2010 09:23:02 8.8 C 8.09 g/m*3 8.8 C 0 km/h
1488 27-09-2010 09:35:02 9.2 C 8.22 g/m*3 9.2 C 0 km/h
1489 27-09-2010 09:47:01 9.6 C 8.34 g/m*3 9.6 C 0 km/h
1490 27-09-2010 09:59:01 10.1 C 8.42 g/m*3 10.1 C 0 km/h
1491 27-09-2010 10:11:02 10.4 C 8.29 g/m*3 10.4 C 0 km/h
1492 27-09-2010 10:23:01 10.4 C 7.9 g/m*3 10.4 C 0 km/h
1493 27-09-2010 10:35:02 10.8 C 7.51 g/m*3 10.8 C 0 km/h
1494 27-09-2010 10:47:01 11 C 7.11 g/m*3 11 C 0 km/h
1495 27-09-2010 10:59:01 11.2 C 6.99 g/m*3 11.2 C 0 km/h
1496 27-09-2010 11:11:02 11.7 C 7.01 g/m*3 11.7 C 0 km/h
1497 27-09-2010 11:23:01 11.8 C 6.74 g/m*3 11.8 C 0 km/h
1498 27-09-2010 11:35:02 12.2 C 6.8 g/m*3 12.2 C 0 km/h
1499 27-09-2010 11:47:01 12 C 6.61 g/m*3 12 C 0 km/h
1500 27-09-2010 11:59:01 12.2 C 6.8 g/m*3 12.2 C 0 km/h
Sensor: Nr:Datum:Temp:Abs-Feuchte:Windchill:Wind:
Aussen-T/F 1501 27-09-2010 12:11:02 12.4 C 6.77 g/m*3 12.4 C 0 km/h
1502 27-09-2010 12:23:01 12.8 C 6.94 g/m*3 12.8 C 0 km/h
1503 27-09-2010 12:35:02 12.8 C 6.83 g/m*3 12.8 C 0 km/h
1504 27-09-2010 12:47:01 13 C 6.8 g/m*3 13 C 0 km/h
1505 27-09-2010 12:59:01 12.9 C 6.76 g/m*3 12.9 C 0 km/h
1506 27-09-2010 13:11:02 13.1 C 6.73 g/m*3 13.1 C 0 km/h
1507 27-09-2010 13:23:02 13.4 C 6.97 g/m*3 13.4 C 0 km/h
1508 27-09-2010 13:35:01 13.6 C 6.71 g/m*3 13.6 C 0 km/h
1509 27-09-2010 13:47:02 13.6 C 6.71 g/m*3 13.6 C 0 km/h
1510 27-09-2010 13:59:02 13.7 C 6.51 g/m*3 13.7 C 0 km/h
1511 27-09-2010 14:11:01 13.4 C 6.51 g/m*3 13.4 C 0 km/h
1512 27-09-2010 14:23:02 13.3 C 6.7 g/m*3 13.3 C 0 km/h
1513 27-09-2010 14:35:01 13.4 C 6.74 g/m*3 13.4 C 0 km/h
1514 27-09-2010 14:47:03 13.2 C 6.77 g/m*3 13.2 C 0 km/h
1515 27-09-2010 14:59:03 13 C 6.58 g/m*3 13 C 0 km/h
1516 27-09-2010 15:11:02 13.4 C 6.74 g/m*3 13.4 C 0 km/h
1517 27-09-2010 15:23:02 13.6 C 6.59 g/m*3 13.6 C 0 km/h
1518 27-09-2010 15:35:02 13.6 C 6.47 g/m*3 13.6 C 0 km/h
1519 27-09-2010 15:47:02 13.2 C 6.66 g/m*3 13.2 C 0 km/h
1520 27-09-2010 15:59:02 13.2 C 6.77 g/m*3 13.2 C 0 km/h
1521 27-09-2010 16:11:01 13.4 C 6.97 g/m*3 13.4 C 0 km/h
1522 27-09-2010 16:23:02 13.4 C 7.44 g/m*3 13.4 C 0 km/h
1523 27-09-2010 16:35:02 13.4 C 7.44 g/m*3 13.4 C 0 km/h
1524 27-09-2010 16:47:01 13.3 C 7.05 g/m*3 13.3 C 0 km/h
1525 27-09-2010 16:59:01 13.4 C 7.09 g/m*3 13.4 C 0 km/h
Sensor: Nr:Datum:Temp:Abs-Feuchte:Windchill:Wind:
Aussen-T/F 1526 27-09-2010 17:11:01 13.2 C 7.58 g/m*3 13.2 C 0 km/h
1527 27-09-2010 17:23:01 13 C 7.6 g/m*3 13 C 0 km/h
1528 27-09-2010 17:35:02 12.8 C 7.73 g/m*3 12.8 C 0 km/h
1529 27-09-2010 17:47:02 12.8 C 7.84 g/m*3 12.8 C 0 km/h
1530 27-09-2010 17:59:02 12.7 C 7.68 g/m*3 12.7 C 0 km/h
1531 27-09-2010 18:11:02 12.5 C 7.59 g/m*3 12.5 C 0 km/h
1532 27-09-2010 18:23:01 12.3 C 7.71 g/m*3 12.3 C 0 km/h
1533 27-09-2010 18:35:02 11.9 C 7.73 g/m*3 11.9 C 0 km/h
1534 27-09-2010 18:47:02 11.7 C 7.74 g/m*3 11.7 C 0 km/h
1535 27-09-2010 18:59:02 11.3 C 7.85 g/m*3 11.3 C 0 km/h
1536 27-09-2010 19:11:02 10.8 C 8.01 g/m*3 10.8 C 0 km/h
1537 27-09-2010 19:23:02 10.7 C 8.15 g/m*3 10.7 C 0 km/h
1538 27-09-2010 19:35:02 10.5 C 8.15 g/m*3 10.5 C 0 km/h
1539 27-09-2010 19:47:02 10.5 C 8.15 g/m*3 10.5 C 0 km/h
1540 27-09-2010 19:59:02 10.4 C 8.19 g/m*3 10.4 C 0 km/h
1541 27-09-2010 20:11:02 10.3 C 8.24 g/m*3 10.3 C 0 km/h
1542 27-09-2010 20:23:02 10.3 C 8.33 g/m*3 10.3 C 0 km/h
1543 27-09-2010 20:35:02 10.3 C 8.43 g/m*3 10.3 C 0 km/h
1544 27-09-2010 20:47:01 10.3 C 8.43 g/m*3 10.3 C 0 km/h
1545 27-09-2010 20:59:01 10.3 C 8.52 g/m*3 10.3 C 0 km/h
1546 27-09-2010 21:11:02 10.4 C 8.58 g/m*3 10.4 C 0 km/h
1547 27-09-2010 21:23:01 10.2 C 8.47 g/m*3 10.2 C 0 km/h
1548 27-09-2010 21:35:02 10.3 C 8.52 g/m*3 10.3 C 0 km/h
1549 27-09-2010 21:47:02 10.4 C 8.58 g/m*3 10.4 C 0 km/h
1550 27-09-2010 21:59:03 10.4 C 8.58 g/m*3 10.4 C 0 km/h
Sensor: Nr:Datum:Temp:Abs-Feuchte:Windchill:Wind:
Aussen-T/F 1551 27-09-2010 22:11:02 10.4 C 8.58 g/m*3 10.4 C 0 km/h
1552 27-09-2010 22:24:10 10.4 C 8.67 g/m*3 10.4 C 0 km/h
1553 27-09-2010 22:36:10 10.2 C 8.56 g/m*3 10.2 C 0 km/h
1554 27-09-2010 22:48:10 10.2 C 8.56 g/m*3 10.2 C 0 km/h
1555 27-09-2010 23:00:10 10.2 C 8.56 g/m*3 10.2 C 0 km/h
1556 27-09-2010 23:12:10 10.2 C 8.66 g/m*3 10.2 C 0 km/h
1557 27-09-2010 23:24:10 10.2 C 8.66 g/m*3 10.2 C 0 km/h
1558 27-09-2010 23:36:10 10.1 C 8.61 g/m*3 10.1 C 0 km/h
1559 27-09-2010 23:48:10 10.1 C 8.7 g/m*3 10.1 C 0 km/h
1560 28-09-2010 00:00:10 10.1 C 8.7 g/m*3 10.1 C 0 km/h
1561 28-09-2010 00:12:10 10 C 8.64 g/m*3 10 C 0 km/h
1562 28-09-2010 00:24:10 10 C 8.64 g/m*3 10 C 0 km/h
1563 28-09-2010 00:36:10 10 C 8.64 g/m*3 10 C 0 km/h
1564 28-09-2010 00:48:10 9.9 C 8.78 g/m*3 9.9 C 0 km/h
1565 28-09-2010 01:00:10 10 C 8.74 g/m*3 10 C 0 km/h
1566 28-09-2010 01:12:11 10 C 8.74 g/m*3 10 C 0 km/h
1567 28-09-2010 01:24:11 10 C 8.74 g/m*3 10 C 0 km/h
1568 28-09-2010 01:36:11 10 C 8.74 g/m*3 10 C 0 km/h
1569 28-09-2010 01:48:11 9.9 C 8.78 g/m*3 9.9 C 0 km/h
1570 28-09-2010 02:00:11 9.9 C 8.78 g/m*3 9.9 C 0 km/h
1571 28-09-2010 02:12:11 9.9 C 8.78 g/m*3 9.9 C 0 km/h
1572 28-09-2010 02:24:11 9.9 C 8.78 g/m*3 9.9 C 0 km/h
1573 28-09-2010 02:36:11 9.9 C 8.78 g/m*3 9.9 C 0 km/h
1574 28-09-2010 02:48:11 9.9 C 8.78 g/m*3 9.9 C 0 km/h
1575 28-09-2010 03:00:11 9.9 C 8.87 g/m*3 9.9 C 0 km/h
Sensor: Nr:Datum:Temp:Abs-Feuchte:Windchill:Wind:
Aussen-T/F 1576 28-09-2010 03:12:11 9.9 C 8.87 g/m*3 9.9 C 0 km/h
1577 28-09-2010 03:24:11 9.9 C 8.87 g/m*3 9.9 C 0 km/h
1578 28-09-2010 03:36:12 9.9 C 8.87 g/m*3 9.9 C 0 km/h
1579 28-09-2010 03:48:12 9.9 C 8.87 g/m*3 9.9 C 0 km/h
1580 28-09-2010 04:00:12 9.9 C 8.87 g/m*3 9.9 C 0 km/h
1581 28-09-2010 04:12:12 9.9 C 8.87 g/m*3 9.9 C 0 km/h
1582 28-09-2010 04:24:12 9.9 C 8.87 g/m*3 9.9 C 0 km/h
1583 28-09-2010 04:36:12 9.9 C 8.87 g/m*3 9.9 C 0 km/h
1584 28-09-2010 04:48:12 10 C 8.83 g/m*3 10 C 0 km/h
1585 28-09-2010 05:00:12 10 C 8.93 g/m*3 10 C 0 km/h
1586 28-09-2010 05:12:12 10 C 8.93 g/m*3 10 C 0 km/h
1587 28-09-2010 05:24:12 10 C 8.93 g/m*3 10 C 0 km/h
1588 28-09-2010 05:36:12 10 C 8.93 g/m*3 10 C 0 km/h
1589 28-09-2010 05:48:12 10 C 8.93 g/m*3 10 C 0 km/h
1590 28-09-2010 06:00:12 10.1 C 8.98 g/m*3 10.1 C 0 km/h
1591 28-09-2010 06:12:12 10.1 C 8.98 g/m*3 10.1 C 0 km/h
1592 28-09-2010 06:24:12 10.1 C 8.98 g/m*3 10.1 C 0 km/h
1593 28-09-2010 06:36:12 10.1 C 8.98 g/m*3 10.1 C 0 km/h
1594 28-09-2010 06:48:12 10 C 8.93 g/m*3 10 C 0 km/h
1595 28-09-2010 07:00:12 10 C 8.93 g/m*3 10 C 0 km/h
1596 28-09-2010 07:12:12 10 C 8.93 g/m*3 10 C 0 km/h
1597 28-09-2010 07:24:12 10 C 8.93 g/m*3 10 C 0 km/h
1598 28-09-2010 07:36:13 10 C 8.93 g/m*3 10 C 0 km/h
1599 28-09-2010 07:48:01 10 C 8.93 g/m*3 10 C 0 km/h
1600 28-09-2010 08:00:01 10 C 8.93 g/m*3 10 C 0 km/h
Sensor: Nr:Datum:Temp:Abs-Feuchte:Windchill:Wind:
Aussen-T/F 1601 28-09-2010 08:12:02 10 C 8.93 g/m*3 10 C 0 km/h
1602 28-09-2010 08:24:02 10 C 8.93 g/m*3 10 C 0 km/h
1603 28-09-2010 08:36:02 10.1 C 8.98 g/m*3 10.1 C 0 km/h
1604 28-09-2010 08:48:03 10.1 C 8.98 g/m*3 10.1 C 0 km/h
1605 28-09-2010 09:00:03 10.1 C 8.98 g/m*3 10.1 C 0 km/h
1606 28-09-2010 09:12:03 10.2 C 9.04 g/m*3 10.2 C 0 km/h
1607 28-09-2010 09:24:02 10.2 C 9.04 g/m*3 10.2 C 0 km/h
1608 28-09-2010 09:36:02 10.3 C 9.1 g/m*3 10.3 C 0 km/h
1609 28-09-2010 09:48:02 10.4 C 9.16 g/m*3 10.4 C 0 km/h
1610 28-09-2010 10:00:02 10.4 C 9.16 g/m*3 10.4 C 0 km/h
1611 28-09-2010 10:12:02 10.5 C 9.21 g/m*3 10.5 C 0 km/h
1612 28-09-2010 10:24:01 10.5 C 9.21 g/m*3 10.5 C 0 km/h
1613 28-09-2010 10:36:02 10.7 C 9.33 g/m*3 10.7 C 0 km/h
1614 28-09-2010 10:48:02 10.8 C 9.39 g/m*3 10.8 C 0 km/h
1615 28-09-2010 11:00:02 11 C 9.51 g/m*3 11 C 0 km/h
1616 28-09-2010 11:12:02 11 C 9.51 g/m*3 11 C 0 km/h
1617 28-09-2010 11:24:02 11.2 C 9.63 g/m*3 11.2 C 0 km/h
1618 28-09-2010 11:36:02 11.3 C 9.69 g/m*3 11.3 C 0 km/h
1619 28-09-2010 11:48:02 11.4 C 9.75 g/m*3 11.4 C 0 km/h
1620 28-09-2010 12:00:02 11.4 C 9.75 g/m*3 11.4 C 0 km/h
1621 28-09-2010 12:12:02 11.4 C 9.65 g/m*3 11.4 C 0 km/h
1622 28-09-2010 12:24:02 11.4 C 9.65 g/m*3 11.4 C 0 km/h
1623 28-09-2010 12:36:02 11.5 C 9.71 g/m*3 11.5 C 0 km/h
1624 28-09-2010 12:48:02 11.7 C 9.83 g/m*3 11.7 C 0 km/h
1625 28-09-2010 13:00:02 11.6 C 9.67 g/m*3 11.6 C 0 km/h
Sensor: Nr:Datum:Temp:Abs-Feuchte:Windchill:Wind:
Aussen-T/F 1626 28-09-2010 13:12:02 11.6 C 9.67 g/m*3 11.6 C 0 km/h
1627 28-09-2010 13:24:03 11.8 C 9.79 g/m*3 11.8 C 0 km/h
1628 28-09-2010 13:36:02 11.8 C 9.68 g/m*3 11.8 C 0 km/h
1629 28-09-2010 13:48:03 11.9 C 9.74 g/m*3 11.9 C 0 km/h
1630 28-09-2010 14:00:03 11.9 C 9.74 g/m*3 11.9 C 0 km/h
1631 28-09-2010 14:12:02 11.8 C 9.68 g/m*3 11.8 C 0 km/h
1632 28-09-2010 14:24:02 11.7 C 9.62 g/m*3 11.7 C 0 km/h
1633 28-09-2010 14:36:02 11.7 C 9.62 g/m*3 11.7 C 0 km/h
1634 28-09-2010 14:48:02 11.7 C 9.62 g/m*3 11.7 C 0 km/h
1635 28-09-2010 15:00:02 11.7 C 9.62 g/m*3 11.7 C 0 km/h
1636 28-09-2010 15:12:02 11.7 C 9.73 g/m*3 11.7 C 0 km/h
1637 28-09-2010 15:24:02 11.7 C 9.73 g/m*3 11.7 C 0 km/h
1638 28-09-2010 15:36:02 11.8 C 9.79 g/m*3 11.8 C 0 km/h
1639 28-09-2010 15:48:02 11.8 C 9.79 g/m*3 11.8 C 0 km/h
1640 28-09-2010 16:00:02 11.8 C 9.79 g/m*3 11.8 C 0 km/h
1641 28-09-2010 16:12:01 11.8 C 9.79 g/m*3 11.8 C 0 km/h
1642 28-09-2010 16:24:01 11.8 C 9.79 g/m*3 11.8 C 0 km/h
1643 28-09-2010 16:36:02 11.9 C 9.96 g/m*3 11.9 C 0 km/h
1644 28-09-2010 16:48:02 11.9 C 9.96 g/m*3 11.9 C 0 km/h
1645 28-09-2010 17:00:02 11.9 C 9.96 g/m*3 11.9 C 0 km/h
1646 28-09-2010 17:12:02 12 C 10.02 g/m*3 12 C 0 km/h
1647 28-09-2010 17:24:02 12 C 10.02 g/m*3 12 C 0 km/h
1648 28-09-2010 17:36:02 12 C 10.02 g/m*3 12 C 0 km/h
1649 28-09-2010 17:48:02 12 C 10.02 g/m*3 12 C 0 km/h
1650 28-09-2010 18:00:02 11.9 C 9.96 g/m*3 11.9 C 0 km/h
Sensor: Nr:Datum:Temp:Abs-Feuchte:Windchill:Wind:
Aussen-T/F 1651 28-09-2010 18:12:02 11.9 C 9.96 g/m*3 11.9 C 0 km/h
1652 28-09-2010 18:24:02 11.9 C 10.06 g/m*3 11.9 C 0 km/h
1653 28-09-2010 18:36:02 11.8 C 10 g/m*3 11.8 C 0 km/h
1654 28-09-2010 18:48:01 11.8 C 10 g/m*3 11.8 C 0 km/h
1655 28-09-2010 19:00:01 11.8 C 10 g/m*3 11.8 C 0 km/h
1656 28-09-2010 19:12:02 11.7 C 9.94 g/m*3 11.7 C 0 km/h
1657 28-09-2010 19:24:01 11.7 C 9.94 g/m*3 11.7 C 0 km/h
1658 28-09-2010 19:36:01 11.7 C 9.94 g/m*3 11.7 C 0 km/h
1659 28-09-2010 19:48:01 11.7 C 9.94 g/m*3 11.7 C 0 km/h
1660 28-09-2010 20:00:01 11.6 C 9.87 g/m*3 11.6 C 0 km/h
1661 28-09-2010 20:12:02 11.6 C 9.87 g/m*3 11.6 C 0 km/h
1662 28-09-2010 20:24:02 11.6 C 9.87 g/m*3 11.6 C 0 km/h
1663 28-09-2010 20:36:01 11.6 C 9.87 g/m*3 11.6 C 0 km/h
1664 28-09-2010 20:48:01 11.6 C 9.87 g/m*3 11.6 C 0 km/h
1665 28-09-2010 21:00:01 11.6 C 9.87 g/m*3 11.6 C 0 km/h
1666 28-09-2010 21:12:01 11.6 C 9.87 g/m*3 11.6 C 0 km/h
1667 28-09-2010 21:24:02 11.6 C 9.87 g/m*3 11.6 C 0 km/h
1668 28-09-2010 21:36:01 11.5 C 9.81 g/m*3 11.5 C 0 km/h
1669 28-09-2010 21:48:03 11.6 C 9.87 g/m*3 11.6 C 0 km/h
1670 28-09-2010 22:00:03 11.6 C 9.87 g/m*3 11.6 C 0 km/h
1671 28-09-2010 22:12:02 11.6 C 9.87 g/m*3 11.6 C 0 km/h
1672 28-09-2010 22:24:03 11.6 C 9.87 g/m*3 11.6 C 0 km/h
1673 28-09-2010 22:36:02 11.7 C 9.94 g/m*3 11.7 C 0 km/h
1674 28-09-2010 22:48:03 11.6 C 9.87 g/m*3 11.6 C 0 km/h
1675 28-09-2010 23:00:03 11.6 C 9.87 g/m*3 11.6 C 0 km/h
Sensor: Nr:Datum:Temp:Abs-Feuchte:Windchill:Wind:
Aussen-T/F 1676 28-09-2010 23:12:02 11.6 C 9.87 g/m*3 11.6 C 0 km/h
1677 28-09-2010 23:24:02 11.6 C 9.87 g/m*3 11.6 C 0 km/h
1678 28-09-2010 23:36:02 11.6 C 9.87 g/m*3 11.6 C 0 km/h
1679 28-09-2010 23:48:02 11.6 C 9.87 g/m*3 11.6 C 0 km/h
1680 29-09-2010 00:00:02 11.6 C 9.87 g/m*3 11.6 C 0 km/h
1681 29-09-2010 00:12:02 11.7 C 9.94 g/m*3 11.7 C 0 km/h
1682 29-09-2010 00:24:02 11.6 C 9.87 g/m*3 11.6 C 0 km/h
1683 29-09-2010 00:36:02 11.7 C 9.94 g/m*3 11.7 C 0 km/h
1684 29-09-2010 00:48:02 11.6 C 9.87 g/m*3 11.6 C 0 km/h
1685 29-09-2010 01:00:02 11.7 C 9.94 g/m*3 11.7 C 0 km/h
1686 29-09-2010 01:12:03 11.6 C 9.87 g/m*3 11.6 C 0 km/h
1687 29-09-2010 01:24:02 11.6 C 9.87 g/m*3 11.6 C 0 km/h
1688 29-09-2010 01:36:02 11.6 C 9.87 g/m*3 11.6 C 0 km/h
1689 29-09-2010 01:48:01 11.6 C 9.87 g/m*3 11.6 C 0 km/h
1690 29-09-2010 02:00:01 11.6 C 9.87 g/m*3 11.6 C 0 km/h
1691 29-09-2010 02:12:02 11.6 C 9.87 g/m*3 11.6 C 0 km/h
1692 29-09-2010 02:24:01 11.5 C 9.81 g/m*3 11.5 C 0 km/h
1693 29-09-2010 02:36:02 11.5 C 9.81 g/m*3 11.5 C 0 km/h
1694 29-09-2010 02:48:01 11.6 C 9.87 g/m*3 11.6 C 0 km/h
1695 29-09-2010 03:00:01 11.4 C 9.75 g/m*3 11.4 C 0 km/h
1696 29-09-2010 03:12:01 11.3 C 9.69 g/m*3 11.3 C 0 km/h
1697 29-09-2010 03:24:02 11.4 C 9.75 g/m*3 11.4 C 0 km/h
1698 29-09-2010 03:36:01 11.7 C 9.94 g/m*3 11.7 C 0 km/h
1699 29-09-2010 03:48:01 11.6 C 9.87 g/m*3 11.6 C 0 km/h
1700 29-09-2010 04:00:01 11.6 C 9.87 g/m*3 11.6 C 0 km/h
Sensor: Nr:Datum:Temp:Abs-Feuchte:Windchill:Wind:
Aussen-T/F 1701 29-09-2010 04:12:02 11.6 C 9.87 g/m*3 11.6 C 0 km/h
1702 29-09-2010 04:24:01 11.6 C 9.87 g/m*3 11.6 C 0 km/h
1703 29-09-2010 04:36:01 11.3 C 9.69 g/m*3 11.3 C 0 km/h
1704 29-09-2010 04:48:01 11.3 C 9.69 g/m*3 11.3 C 0 km/h
1705 29-09-2010 05:00:01 11.4 C 9.75 g/m*3 11.4 C 0 km/h
1706 29-09-2010 05:12:02 11.4 C 9.75 g/m*3 11.4 C 0 km/h
1707 29-09-2010 05:24:01 11.4 C 9.75 g/m*3 11.4 C 0 km/h
1708 29-09-2010 05:36:01 11.4 C 9.75 g/m*3 11.4 C 0 km/h
1709 29-09-2010 05:48:01 11.4 C 9.75 g/m*3 11.4 C 0 km/h
1710 29-09-2010 06:00:01 11.7 C 9.94 g/m*3 11.7 C 0 km/h
1711 29-09-2010 06:12:01 11.6 C 9.87 g/m*3 11.6 C 0 km/h
1712 29-09-2010 06:24:02 11.5 C 9.81 g/m*3 11.5 C 0 km/h
1713 29-09-2010 06:36:01 11.5 C 9.81 g/m*3 11.5 C 0 km/h
1714 29-09-2010 06:48:02 11.3 C 9.69 g/m*3 11.3 C 0 km/h
1715 29-09-2010 07:00:02 11.1 C 9.57 g/m*3 11.1 C 0 km/h
1716 29-09-2010 07:12:01 10.8 C 9.39 g/m*3 10.8 C 0 km/h
1717 29-09-2010 07:24:02 11 C 9.51 g/m*3 11 C 0 km/h
1718 29-09-2010 07:36:01 11.2 C 9.63 g/m*3 11.2 C 0 km/h
1719 29-09-2010 07:48:02 11.1 C 9.57 g/m*3 11.1 C 0 km/h
1720 29-09-2010 08:00:02 11 C 9.51 g/m*3 11 C 0 km/h
1721 29-09-2010 08:12:01 11.2 C 9.63 g/m*3 11.2 C 0 km/h
1722 29-09-2010 08:24:01 11.2 C 9.63 g/m*3 11.2 C 0 km/h
1723 29-09-2010 08:36:01 11.1 C 9.57 g/m*3 11.1 C 0 km/h
1724 29-09-2010 08:48:02 11.4 C 9.75 g/m*3 11.4 C 0 km/h
1725 29-09-2010 09:00:02 11.6 C 9.87 g/m*3 11.6 C 0 km/h
Sensor: Nr:Datum:Temp:Abs-Feuchte:Windchill:Wind:
Aussen-T/F 1726 29-09-2010 09:12:01 11.2 C 9.53 g/m*3 11.2 C 0 km/h
1727 29-09-2010 09:24:01 10.8 C 9.19 g/m*3 10.8 C 0 km/h
1728 29-09-2010 09:36:02 11.7 C 9.62 g/m*3 11.7 C 0 km/h
1729 29-09-2010 09:48:01 11.9 C 9.64 g/m*3 11.9 C 0 km/h
1730 29-09-2010 10:00:01 12.1 C 9.22 g/m*3 12.1 C 0 km/h
1731 29-09-2010 10:12:02 12.5 C 8.91 g/m*3 12.5 C 0 km/h
1732 29-09-2010 10:24:01 12.9 C 8.79 g/m*3 12.9 C 0 km/h
1733 29-09-2010 10:36:02 13.4 C 8.95 g/m*3 13.4 C 0 km/h
1734 29-09-2010 10:48:01 13.7 C 9 g/m*3 13.7 C 0 km/h
1735 29-09-2010 11:00:01 13.8 C 8.94 g/m*3 13.8 C 0 km/h
1736 29-09-2010 11:12:02 13.7 C 8.53 g/m*3 13.7 C 0 km/h
1737 29-09-2010 11:24:01 13.8 C 8.46 g/m*3 13.8 C 0 km/h
1738 29-09-2010 11:36:01 14.1 C 8.01 g/m*3 14.1 C 0 km/h
1739 29-09-2010 11:48:01 14.4 C 8.16 g/m*3 14.4 C 0 km/h
1740 29-09-2010 12:00:01 14.5 C 8.21 g/m*3 14.5 C 0 km/h
1741 29-09-2010 12:12:01 14.6 C 8.01 g/m*3 14.6 C 0 km/h
1742 29-09-2010 12:24:01 14.1 C 7.52 g/m*3 14.1 C 0 km/h
1743 29-09-2010 12:36:01 14 C 8.08 g/m*3 14 C 0 km/h
1744 29-09-2010 12:48:01 14.8 C 8.36 g/m*3 14.8 C 0 km/h
1745 29-09-2010 13:00:01 15.4 C 8.15 g/m*3 15.4 C 0 km/h
1746 29-09-2010 13:12:01 15.7 C 7.89 g/m*3 15.7 C 0 km/h
1747 29-09-2010 13:24:02 15.8 C 7.81 g/m*3 15.8 C 0 km/h
1748 29-09-2010 13:36:01 15.9 C 7.99 g/m*3 15.9 C 0 km/h
1749 29-09-2010 13:48:02 15.9 C 7.58 g/m*3 15.9 C 0 km/h
1750 29-09-2010 14:00:02 16.3 C 7.35 g/m*3 16.3 C 0 km/h
Sensor: Nr:Datum:Temp:Abs-Feuchte:Windchill:Wind:
Aussen-T/F 1751 29-09-2010 14:12:01 15.6 C 7.58 g/m*3 15.6 C 0 km/h
1752 29-09-2010 14:24:02 15.8 C 7.94 g/m*3 15.8 C 0 km/h
1753 29-09-2010 14:36:01 17.4 C 7.85 g/m*3 17.4 C 0 km/h
1754 29-09-2010 14:48:02 19 C 7.33 g/m*3 19 C 0 km/h
1755 29-09-2010 15:00:02 18.8 C 6.76 g/m*3 18.8 C 0 km/h
1756 29-09-2010 15:12:01 18.8 C 6.93 g/m*3 18.8 C 0 km/h
1757 29-09-2010 15:24:01 18.9 C 6.97 g/m*3 18.9 C 0 km/h
1758 29-09-2010 15:36:02 19.6 C 6.92 g/m*3 19.6 C 0 km/h
1759 29-09-2010 15:48:01 19.7 C 6.79 g/m*3 19.7 C 0 km/h
1760 29-09-2010 16:00:02 18.8 C 7.41 g/m*3 18.8 C 0 km/h
1761 29-09-2010 16:12:01 18.1 C 7.26 g/m*3 18.1 C 0 km/h
1762 29-09-2010 16:24:01 18.1 C 7.57 g/m*3 18.1 C 0 km/h
1763 29-09-2010 16:36:02 17.6 C 7.95 g/m*3 17.6 C 0 km/h
1764 29-09-2010 16:48:01 18.1 C 7.88 g/m*3 18.1 C 0 km/h
1765 29-09-2010 17:00:02 19 C 7.33 g/m*3 19 C 0 km/h
1766 29-09-2010 17:12:01 19.4 C 7.01 g/m*3 19.4 C 0 km/h
1767 29-09-2010 17:24:01 18.6 C 7.16 g/m*3 18.6 C 0 km/h
1768 29-09-2010 17:36:02 17.6 C 7.95 g/m*3 17.6 C 0 km/h
1769 29-09-2010 17:48:01 16.9 C 8.05 g/m*3 16.9 C 0 km/h
1770 29-09-2010 18:00:01 15.9 C 7.58 g/m*3 15.9 C 0 km/h
1771 29-09-2010 18:12:04 15.2 C 7.92 g/m*3 15.2 C 0 km/h
1772 29-09-2010 18:24:02 14.4 C 7.91 g/m*3 14.4 C 0 km/h
1773 29-09-2010 18:36:02 14 C 7.84 g/m*3 14 C 0 km/h
1774 29-09-2010 18:48:01 13.6 C 7.89 g/m*3 13.6 C 0 km/h
1775 29-09-2010 19:00:01 13.2 C 7.81 g/m*3 13.2 C 0 km/h
Sensor: Nr:Datum:Temp:Abs-Feuchte:Windchill:Wind:
Aussen-T/F 1776 29-09-2010 19:12:01 13.1 C 7.76 g/m*3 13.1 C 0 km/h
1777 29-09-2010 19:24:01 13 C 7.71 g/m*3 13 C 0 km/h
1778 29-09-2010 19:36:02 13 C 7.6 g/m*3 13 C 0 km/h
1779 29-09-2010 19:48:01 13.1 C 7.53 g/m*3 13.1 C 0 km/h
1780 29-09-2010 20:00:01 13.3 C 7.63 g/m*3 13.3 C 0 km/h
1781 29-09-2010 20:12:02 13.2 C 7.81 g/m*3 13.2 C 0 km/h
1782 29-09-2010 20:24:01 13.2 C 7.81 g/m*3 13.2 C 0 km/h
1783 29-09-2010 20:36:02 13 C 7.6 g/m*3 13 C 0 km/h
1784 29-09-2010 20:48:01 12.9 C 7.66 g/m*3 12.9 C 0 km/h
1785 29-09-2010 21:00:01 12.9 C 7.66 g/m*3 12.9 C 0 km/h
1786 29-09-2010 21:12:02 12.8 C 7.84 g/m*3 12.8 C 0 km/h
1787 29-09-2010 21:24:01 12.4 C 7.98 g/m*3 12.4 C 0 km/h
1788 29-09-2010 21:38:05 12.2 C 8.09 g/m*3 12.2 C 0 km/h
1789 29-09-2010 21:50:05 12.2 C 8.09 g/m*3 12.2 C 0 km/h
1790 29-09-2010 22:02:05 12.3 C 8.25 g/m*3 12.3 C 0 km/h
1791 29-09-2010 22:14:05 12.4 C 8.3 g/m*3 12.4 C 0 km/h
1792 29-09-2010 22:26:05 12.4 C 8.41 g/m*3 12.4 C 0 km/h
1793 29-09-2010 22:38:06 12.5 C 8.47 g/m*3 12.5 C 0 km/h
1794 29-09-2010 22:50:06 12.3 C 8.36 g/m*3 12.3 C 0 km/h
1795 29-09-2010 23:02:06 12 C 8.21 g/m*3 12 C 0 km/h
1796 29-09-2010 23:14:06 11.8 C 8.31 g/m*3 11.8 C 0 km/h
1797 29-09-2010 23:26:06 11.8 C 8.42 g/m*3 11.8 C 0 km/h
1798 29-09-2010 23:38:06 12 C 8.31 g/m*3 12 C 0 km/h
1799 29-09-2010 23:50:06 12.2 C 8.42 g/m*3 12.2 C 0 km/h
1800 30-09-2010 00:02:06 12.4 C 8.52 g/m*3 12.4 C 0 km/h
Sensor: Nr:Datum:Temp:Abs-Feuchte:Windchill:Wind:
Aussen-T/F 1801 30-09-2010 00:14:06 12.3 C 8.47 g/m*3 12.3 C 0 km/h
1802 30-09-2010 00:26:06 12.1 C 8.36 g/m*3 12.1 C 0 km/h
1803 30-09-2010 00:38:06 12.1 C 8.47 g/m*3 12.1 C 0 km/h
1804 30-09-2010 00:50:06 11.9 C 8.37 g/m*3 11.9 C 0 km/h
1805 30-09-2010 01:02:06 11.7 C 8.37 g/m*3 11.7 C 0 km/h
1806 30-09-2010 01:14:06 11.8 C 7.89 g/m*3 11.8 C 0 km/h
1807 30-09-2010 01:26:06 11.8 C 7.79 g/m*3 11.8 C 0 km/h
1808 30-09-2010 01:38:06 12 C 7.46 g/m*3 12 C 0 km/h
1809 30-09-2010 01:50:06 12 C 7.25 g/m*3 12 C 0 km/h
1810 30-09-2010 02:02:06 12.1 C 7.4 g/m*3 12.1 C 0 km/h
1811 30-09-2010 02:14:06 11.5 C 7.54 g/m*3 11.5 C 0 km/h
1812 30-09-2010 02:26:06 11.4 C 7.7 g/m*3 11.4 C 0 km/h
1813 30-09-2010 02:38:06 11.1 C 7.66 g/m*3 11.1 C 0 km/h
1814 30-09-2010 02:50:07 11.2 C 7.8 g/m*3 11.2 C 0 km/h
1815 30-09-2010 03:02:07 11.3 C 7.85 g/m*3 11.3 C 0 km/h
1816 30-09-2010 03:14:07 11.2 C 7.91 g/m*3 11.2 C 0 km/h
1817 30-09-2010 03:26:07 11 C 7.81 g/m*3 11 C 0 km/h
1818 30-09-2010 03:38:07 11.1 C 7.86 g/m*3 11.1 C 0 km/h
1819 30-09-2010 03:50:07 11.2 C 7.91 g/m*3 11.2 C 0 km/h
1820 30-09-2010 04:02:07 11.3 C 7.96 g/m*3 11.3 C 0 km/h
1821 30-09-2010 04:14:07 11.2 C 7.91 g/m*3 11.2 C 0 km/h
1822 30-09-2010 04:26:07 11 C 7.81 g/m*3 11 C 0 km/h
1823 30-09-2010 04:38:07 10.8 C 7.81 g/m*3 10.8 C 0 km/h
1824 30-09-2010 04:50:07 10.8 C 7.91 g/m*3 10.8 C 0 km/h
1825 30-09-2010 05:02:07 10.8 C 7.91 g/m*3 10.8 C 0 km/h
Sensor: Nr:Datum:Temp:Abs-Feuchte:Windchill:Wind:
Aussen-T/F 1826 30-09-2010 05:14:07 10.8 C 7.91 g/m*3 10.8 C 0 km/h
1827 30-09-2010 05:26:07 10.8 C 7.81 g/m*3 10.8 C 0 km/h
1828 30-09-2010 05:38:07 10.7 C 7.76 g/m*3 10.7 C 0 km/h
1829 30-09-2010 05:50:07 10.7 C 7.56 g/m*3 10.7 C 0 km/h
1830 30-09-2010 06:02:07 10.8 C 7.31 g/m*3 10.8 C 0 km/h
1831 30-09-2010 06:14:07 10.8 C 7.31 g/m*3 10.8 C 0 km/h
1832 30-09-2010 06:26:07 10.7 C 7.27 g/m*3 10.7 C 0 km/h
1833 30-09-2010 06:38:05 10.6 C 7.32 g/m*3 10.6 C 0 km/h
1834 30-09-2010 06:50:02 10.6 C 7.42 g/m*3 10.6 C 0 km/h
1835 30-09-2010 07:02:02 10.7 C 7.56 g/m*3 10.7 C 0 km/h
1836 30-09-2010 07:14:02 10.7 C 7.66 g/m*3 10.7 C 0 km/h
1837 30-09-2010 07:26:02 10.6 C 7.61 g/m*3 10.6 C 0 km/h
1838 30-09-2010 07:38:02 10.6 C 7.71 g/m*3 10.6 C 0 km/h
1839 30-09-2010 07:50:01 10.7 C 7.76 g/m*3 10.7 C 0 km/h
1840 30-09-2010 08:02:01 10.7 C 7.66 g/m*3 10.7 C 0 km/h
1841 30-09-2010 08:14:02 10.9 C 7.76 g/m*3 10.9 C 0 km/h
1842 30-09-2010 08:26:01 10.9 C 7.76 g/m*3 10.9 C 0 km/h
1843 30-09-2010 08:38:01 11 C 7.81 g/m*3 11 C 0 km/h
1844 30-09-2010 08:50:01 11 C 7.81 g/m*3 11 C 0 km/h
1845 30-09-2010 09:02:01 11.2 C 7.91 g/m*3 11.2 C 0 km/h
1846 30-09-2010 09:14:01 11.4 C 8.01 g/m*3 11.4 C 0 km/h
1847 30-09-2010 09:26:01 11.4 C 7.8 g/m*3 11.4 C 0 km/h
1848 30-09-2010 09:38:01 11.5 C 7.75 g/m*3 11.5 C 0 km/h
1849 30-09-2010 09:50:02 11.5 C 7.85 g/m*3 11.5 C 0 km/h
1850 30-09-2010 10:02:02 11.4 C 8.01 g/m*3 11.4 C 0 km/h
Sensor: Nr:Datum:Temp:Abs-Feuchte:Windchill:Wind:
Aussen-T/F 1851 30-09-2010 10:14:02 11.4 C 8.11 g/m*3 11.4 C 0 km/h
1852 30-09-2010 10:26:03 11.7 C 8.37 g/m*3 11.7 C 0 km/h
1853 30-09-2010 10:38:02 11.8 C 8.42 g/m*3 11.8 C 0 km/h
1854 30-09-2010 10:50:02 11.9 C 8.47 g/m*3 11.9 C 0 km/h
1855 30-09-2010 11:02:02 12 C 8.42 g/m*3 12 C 0 km/h
1856 30-09-2010 11:14:02 12 C 8.42 g/m*3 12 C 0 km/h
1857 30-09-2010 11:26:02 11.8 C 8.42 g/m*3 11.8 C 0 km/h
1858 30-09-2010 11:38:01 11.7 C 8.47 g/m*3 11.7 C 0 km/h
1859 30-09-2010 11:50:02 11.8 C 8.63 g/m*3 11.8 C 0 km/h
1860 30-09-2010 12:02:01 11.9 C 8.79 g/m*3 11.9 C 0 km/h
1861 30-09-2010 12:14:01 11.9 C 8.9 g/m*3 11.9 C 0 km/h
1862 30-09-2010 12:26:02 12 C 8.95 g/m*3 12 C 0 km/h
1863 30-09-2010 12:38:02 12.1 C 9.01 g/m*3 12.1 C 0 km/h
1864 30-09-2010 12:50:02 12 C 9.06 g/m*3 12 C 0 km/h
1865 30-09-2010 13:02:02 12.4 C 9.4 g/m*3 12.4 C 0 km/h
1866 30-09-2010 13:14:02 12.6 C 9.51 g/m*3 12.6 C 0 km/h
1867 30-09-2010 13:26:02 12.6 C 9.51 g/m*3 12.6 C 0 km/h
1868 30-09-2010 13:38:02 12.6 C 9.62 g/m*3 12.6 C 0 km/h
1869 30-09-2010 13:50:01 12.7 C 9.68 g/m*3 12.7 C 0 km/h
1870 30-09-2010 14:02:02 12.9 C 9.81 g/m*3 12.9 C 0 km/h
1871 30-09-2010 14:14:02 13 C 9.87 g/m*3 13 C 0 km/h
1872 30-09-2010 14:26:01 12.8 C 9.86 g/m*3 12.8 C 0 km/h
1873 30-09-2010 14:38:01 12.9 C 9.92 g/m*3 12.9 C 0 km/h
1874 30-09-2010 14:50:01 13.1 C 10.04 g/m*3 13.1 C 0 km/h
1875 30-09-2010 15:02:02 13.2 C 10.1 g/m*3 13.2 C 0 km/h
Sensor: Nr:Datum:Temp:Abs-Feuchte:Windchill:Wind:
Aussen-T/F 1876 30-09-2010 15:14:03 13.2 C 10.1 g/m*3 13.2 C 0 km/h
1877 30-09-2010 15:26:01 13.4 C 10.23 g/m*3 13.4 C 0 km/h
1878 30-09-2010 15:38:01 13.3 C 10.17 g/m*3 13.3 C 0 km/h
1879 30-09-2010 15:50:01 13.2 C 9.99 g/m*3 13.2 C 0 km/h
1880 30-09-2010 16:02:01 13.5 C 10.29 g/m*3 13.5 C 0 km/h
1881 30-09-2010 16:14:01 13.5 C 10.29 g/m*3 13.5 C 0 km/h
1882 30-09-2010 16:26:02 13.6 C 10.24 g/m*3 13.6 C 0 km/h
1883 30-09-2010 16:38:01 13.3 C 10.05 g/m*3 13.3 C 0 km/h
1884 30-09-2010 16:50:03 13.1 C 9.93 g/m*3 13.1 C 0 km/h
1885 30-09-2010 17:02:02 13.1 C 9.93 g/m*3 13.1 C 0 km/h
1886 30-09-2010 17:14:02 13 C 9.98 g/m*3 13 C 0 km/h
1887 30-09-2010 17:26:02 13 C 9.98 g/m*3 13 C 0 km/h
1888 30-09-2010 17:38:02 12.9 C 10.03 g/m*3 12.9 C 0 km/h
1889 30-09-2010 17:50:02 12.8 C 9.97 g/m*3 12.8 C 0 km/h
1890 30-09-2010 18:02:02 12.7 C 9.91 g/m*3 12.7 C 0 km/h
1891 30-09-2010 18:14:02 12.5 C 9.78 g/m*3 12.5 C 0 km/h
1892 30-09-2010 18:26:02 12.5 C 9.78 g/m*3 12.5 C 0 km/h
1893 30-09-2010 18:38:02 12.4 C 9.83 g/m*3 12.4 C 0 km/h
1894 30-09-2010 18:50:01 12.3 C 9.77 g/m*3 12.3 C 0 km/h
1895 30-09-2010 19:02:02 12.2 C 9.71 g/m*3 12.2 C 0 km/h
1896 30-09-2010 19:14:02 12.1 C 9.76 g/m*3 12.1 C 0 km/h
1897 30-09-2010 19:26:02 12.1 C 9.76 g/m*3 12.1 C 0 km/h
1898 30-09-2010 19:38:02 12.2 C 9.82 g/m*3 12.2 C 0 km/h
1899 30-09-2010 19:50:02 12.1 C 9.87 g/m*3 12.1 C 0 km/h
1900 30-09-2010 20:02:02 12.2 C 9.93 g/m*3 12.2 C 0 km/h
Sensor: Nr:Datum:Temp:Abs-Feuchte:Windchill:Wind:
Aussen-T/F 1901 30-09-2010 20:14:02 12.2 C 9.93 g/m*3 12.2 C 0 km/h
1902 30-09-2010 20:26:02 12.1 C 9.87 g/m*3 12.1 C 0 km/h
1903 30-09-2010 20:38:01 12.1 C 9.87 g/m*3 12.1 C 0 km/h
1904 30-09-2010 20:50:02 12.2 C 10.04 g/m*3 12.2 C 0 km/h
1905 30-09-2010 21:02:01 12.1 C 9.97 g/m*3 12.1 C 0 km/h
1906 30-09-2010 21:14:01 12.1 C 9.97 g/m*3 12.1 C 0 km/h
1907 30-09-2010 21:26:02 12.1 C 9.97 g/m*3 12.1 C 0 km/h
1908 30-09-2010 21:38:01 12.1 C 9.97 g/m*3 12.1 C 0 km/h
1909 30-09-2010 21:50:02 12 C 9.91 g/m*3 12 C 0 km/h
1910 30-09-2010 22:02:02 12 C 9.91 g/m*3 12 C 0 km/h
1911 30-09-2010 22:14:02 12 C 9.91 g/m*3 12 C 0 km/h
1912 30-09-2010 22:26:02 11.9 C 9.96 g/m*3 11.9 C 0 km/h
1913 30-09-2010 22:38:02 11.9 C 9.96 g/m*3 11.9 C 0 km/h
1914 30-09-2010 22:50:01 12 C 9.91 g/m*3 12 C 0 km/h
1915 30-09-2010 23:03:03 12 C 9.91 g/m*3 12 C 0 km/h
1916 30-09-2010 23:15:03 11.9 C 9.96 g/m*3 11.9 C 0 km/h
1917 30-09-2010 23:27:03 12 C 10.02 g/m*3 12 C 0 km/h
1918 30-09-2010 23:39:03 12.1 C 10.08 g/m*3 12.1 C 0 km/h
1919 30-09-2010 23:51:03 12 C 10.02 g/m*3 12 C 0 km/h
1920 01-10-2010 00:03:03 12.1 C 10.08 g/m*3 12.1 C 0 km/h
1921 01-10-2010 00:15:03 12 C 10.02 g/m*3 12 C 0 km/h
1922 01-10-2010 00:27:03 12.1 C 10.08 g/m*3 12.1 C 0 km/h
1923 01-10-2010 00:39:03 12.1 C 10.08 g/m*3 12.1 C 0 km/h
1924 01-10-2010 00:51:03 11.8 C 10 g/m*3 11.8 C 0 km/h
1925 01-10-2010 01:03:03 11.6 C 9.87 g/m*3 11.6 C 0 km/h
Sensor: Nr:Datum:Temp:Abs-Feuchte:Windchill:Wind:
Aussen-T/F 1926 01-10-2010 01:15:04 11.7 C 9.94 g/m*3 11.7 C 0 km/h
1927 01-10-2010 01:27:04 11.6 C 9.87 g/m*3 11.6 C 0 km/h
1928 01-10-2010 01:39:04 11.5 C 9.81 g/m*3 11.5 C 0 km/h
1929 01-10-2010 01:51:04 11.5 C 9.81 g/m*3 11.5 C 0 km/h
1930 01-10-2010 02:03:04 11.5 C 9.81 g/m*3 11.5 C 0 km/h
1931 01-10-2010 02:15:04 11.4 C 9.75 g/m*3 11.4 C 0 km/h
1932 01-10-2010 02:27:04 11.4 C 9.75 g/m*3 11.4 C 0 km/h
1933 01-10-2010 02:39:04 11.4 C 9.75 g/m*3 11.4 C 0 km/h
1934 01-10-2010 02:51:04 11.5 C 9.81 g/m*3 11.5 C 0 km/h
1935 01-10-2010 03:03:04 11.5 C 9.81 g/m*3 11.5 C 0 km/h
1936 01-10-2010 03:15:04 11.5 C 9.81 g/m*3 11.5 C 0 km/h
1937 01-10-2010 03:27:04 11.5 C 9.81 g/m*3 11.5 C 0 km/h
1938 01-10-2010 03:39:04 11.5 C 9.81 g/m*3 11.5 C 0 km/h
1939 01-10-2010 03:51:04 11.8 C 10 g/m*3 11.8 C 0 km/h
1940 01-10-2010 04:03:04 11.7 C 9.94 g/m*3 11.7 C 0 km/h
1941 01-10-2010 04:15:04 11.7 C 9.94 g/m*3 11.7 C 0 km/h
1942 01-10-2010 04:27:04 11.7 C 9.94 g/m*3 11.7 C 0 km/h
1943 01-10-2010 04:39:04 11.7 C 9.94 g/m*3 11.7 C 0 km/h
1944 01-10-2010 04:51:04 11.7 C 9.94 g/m*3 11.7 C 0 km/h
1945 01-10-2010 05:03:04 11.7 C 9.94 g/m*3 11.7 C 0 km/h
1946 01-10-2010 05:15:04 11.7 C 9.94 g/m*3 11.7 C 0 km/h
1947 01-10-2010 05:27:04 11.7 C 9.94 g/m*3 11.7 C 0 km/h
1948 01-10-2010 05:39:04 11.5 C 9.81 g/m*3 11.5 C 0 km/h
1949 01-10-2010 05:51:05 11.5 C 9.81 g/m*3 11.5 C 0 km/h
1950 01-10-2010 06:03:05 11.4 C 9.75 g/m*3 11.4 C 0 km/h
Sensor: Nr:Datum:Temp:Abs-Feuchte:Windchill:Wind:
Aussen-T/F 1951 01-10-2010 06:15:05 11.4 C 9.75 g/m*3 11.4 C 0 km/h
1952 01-10-2010 06:27:05 11.4 C 9.75 g/m*3 11.4 C 0 km/h
1953 01-10-2010 06:39:05 11.4 C 9.75 g/m*3 11.4 C 0 km/h
1954 01-10-2010 06:51:05 11.4 C 9.75 g/m*3 11.4 C 0 km/h
1955 01-10-2010 07:03:05 11.3 C 9.69 g/m*3 11.3 C 0 km/h
1956 01-10-2010 07:15:02 11.3 C 9.69 g/m*3 11.3 C 0 km/h
1957 01-10-2010 07:27:02 11 C 9.51 g/m*3 11 C 0 km/h
1958 01-10-2010 07:39:02 10.8 C 9.39 g/m*3 10.8 C 0 km/h
1959 01-10-2010 07:51:02 10.6 C 9.27 g/m*3 10.6 C 0 km/h
1960 01-10-2010 08:03:02 10.4 C 9.16 g/m*3 10.4 C 0 km/h
1961 01-10-2010 08:15:02 10.3 C 9.1 g/m*3 10.3 C 0 km/h
1962 01-10-2010 08:27:02 10.2 C 9.04 g/m*3 10.2 C 0 km/h
1963 01-10-2010 08:39:02 10.2 C 9.04 g/m*3 10.2 C 0 km/h
1964 01-10-2010 08:51:02 10.4 C 9.16 g/m*3 10.4 C 0 km/h
1965 01-10-2010 09:03:02 10.7 C 9.33 g/m*3 10.7 C 0 km/h
1966 01-10-2010 09:15:01 11.1 C 9.57 g/m*3 11.1 C 0 km/h
1967 01-10-2010 09:27:01 11.3 C 9.69 g/m*3 11.3 C 0 km/h
1968 01-10-2010 09:39:02 11.4 C 9.75 g/m*3 11.4 C 0 km/h
1969 01-10-2010 09:51:02 11.7 C 9.94 g/m*3 11.7 C 0 km/h
1970 01-10-2010 10:03:02 11.7 C 9.94 g/m*3 11.7 C 0 km/h
1971 01-10-2010 10:15:02 11.7 C 9.83 g/m*3 11.7 C 0 km/h
1972 01-10-2010 10:27:02 11.6 C 9.56 g/m*3 11.6 C 0 km/h
1973 01-10-2010 10:39:02 11.7 C 9.52 g/m*3 11.7 C 0 km/h
1974 01-10-2010 10:51:02 11.9 C 9.32 g/m*3 11.9 C 0 km/h
1975 01-10-2010 11:03:02 12.1 C 9.12 g/m*3 12.1 C 0 km/h
Sensor: Nr:Datum:Temp:Abs-Feuchte:Windchill:Wind:
Aussen-T/F 1976 01-10-2010 11:15:02 12.2 C 8.85 g/m*3 12.2 C 0 km/h
1977 01-10-2010 11:27:02 12.5 C 8.91 g/m*3 12.5 C 0 km/h
1978 01-10-2010 11:39:02 12.5 C 8.69 g/m*3 12.5 C 0 km/h
1979 01-10-2010 11:51:02 13 C 8.62 g/m*3 13 C 0 km/h
1980 01-10-2010 12:03:02 12.8 C 8.51 g/m*3 12.8 C 0 km/h
1981 01-10-2010 12:15:02 12.8 C 8.62 g/m*3 12.8 C 0 km/h
1982 01-10-2010 12:27:02 12.7 C 8.46 g/m*3 12.7 C 0 km/h
1983 01-10-2010 12:39:02 12.4 C 8.41 g/m*3 12.4 C 0 km/h
1984 01-10-2010 12:51:02 12.7 C 8.46 g/m*3 12.7 C 0 km/h
1985 01-10-2010 13:03:01 12.8 C 8.4 g/m*3 12.8 C 0 km/h
1986 01-10-2010 13:15:02 13.3 C 8.32 g/m*3 13.3 C 0 km/h
1987 01-10-2010 13:27:02 13.4 C 8.14 g/m*3 13.4 C 0 km/h
1988 01-10-2010 13:39:01 13.1 C 7.76 g/m*3 13.1 C 0 km/h
1989 01-10-2010 13:51:02 13.3 C 7.97 g/m*3 13.3 C 0 km/h
1990 01-10-2010 14:03:01 13.1 C 7.87 g/m*3 13.1 C 0 km/h
1991 01-10-2010 14:15:01 13.2 C 8.04 g/m*3 13.2 C 0 km/h
1992 01-10-2010 14:27:01 13.3 C 7.86 g/m*3 13.3 C 0 km/h
1993 01-10-2010 14:39:02 13.2 C 7.92 g/m*3 13.2 C 0 km/h
1994 01-10-2010 14:51:02 13.8 C 7.98 g/m*3 13.8 C 0 km/h
1995 01-10-2010 15:03:02 14.4 C 7.91 g/m*3 14.4 C 0 km/h
1996 01-10-2010 15:15:02 15.2 C 7.92 g/m*3 15.2 C 0 km/h
1997 01-10-2010 15:27:02 15.3 C 7.7 g/m*3 15.3 C 0 km/h
1998 01-10-2010 15:39:02 15.7 C 7.76 g/m*3 15.7 C 0 km/h
1999 01-10-2010 15:51:02 15.9 C 7.58 g/m*3 15.9 C 0 km/h
2000 01-10-2010 16:03:02 16 C 7.49 g/m*3 16 C 0 km/h
Sensor: Nr:Datum:Temp:Abs-Feuchte:Windchill:Wind:
Aussen-T/F 2001 01-10-2010 16:15:02 16.2 C 7.17 g/m*3 16.2 C 0 km/h
2002 01-10-2010 16:27:02 17.1 C 7.42 g/m*3 17.1 C 0 km/h
2003 01-10-2010 16:39:02 17.2 C 7.91 g/m*3 17.2 C 0 km/h
2004 01-10-2010 16:51:02 17.2 C 8.05 g/m*3 17.2 C 0 km/h
2005 01-10-2010 17:03:02 17.5 C 7.9 g/m*3 17.5 C 0 km/h
2006 01-10-2010 17:15:02 16.6 C 8.19 g/m*3 16.6 C 0 km/h
2007 01-10-2010 17:27:02 16 C 8.31 g/m*3 16 C 0 km/h
2008 01-10-2010 17:39:02 15.4 C 8.54 g/m*3 15.4 C 0 km/h
2009 01-10-2010 17:51:02 15.2 C 8.7 g/m*3 15.2 C 0 km/h
2010 01-10-2010 18:03:02 14.8 C 8.74 g/m*3 14.8 C 0 km/h
2011 01-10-2010 18:15:02 14.7 C 8.94 g/m*3 14.7 C 0 km/h
2012 01-10-2010 18:27:02 14.5 C 8.83 g/m*3 14.5 C 0 km/h
2013 01-10-2010 18:39:01 14.1 C 8.74 g/m*3 14.1 C 0 km/h
2014 01-10-2010 18:51:02 13.6 C 8.71 g/m*3 13.6 C 0 km/h
2015 01-10-2010 19:03:01 12.8 C 8.62 g/m*3 12.8 C 0 km/h
2016 01-10-2010 19:15:02 12.5 C 8.58 g/m*3 12.5 C 0 km/h
2017 01-10-2010 19:27:02 12.2 C 8.52 g/m*3 12.2 C 0 km/h
2018 01-10-2010 19:39:02 11.8 C 8.53 g/m*3 11.8 C 0 km/h
2019 01-10-2010 19:51:02 11.6 C 8.52 g/m*3 11.6 C 0 km/h
2020 01-10-2010 20:03:02 11.4 C 8.42 g/m*3 11.4 C 0 km/h
2021 01-10-2010 20:15:02 11.3 C 8.47 g/m*3 11.3 C 0 km/h
2022 01-10-2010 20:27:02 11.2 C 8.51 g/m*3 11.2 C 0 km/h
2023 01-10-2010 20:39:02 11.2 C 8.51 g/m*3 11.2 C 0 km/h
2024 01-10-2010 20:51:01 11.2 C 8.62 g/m*3 11.2 C 0 km/h
2025 01-10-2010 21:03:02 11.1 C 8.56 g/m*3 11.1 C 0 km/h
Sensor: Nr:Datum:Temp:Abs-Feuchte:Windchill:Wind:
Aussen-T/F 2026 01-10-2010 21:15:01 11 C 8.51 g/m*3 11 C 0 km/h
2027 01-10-2010 21:27:01 10.8 C 8.5 g/m*3 10.8 C 0 km/h
2028 01-10-2010 21:39:01 10.7 C 8.55 g/m*3 10.7 C 0 km/h
2029 01-10-2010 21:51:01 10.7 C 8.55 g/m*3 10.7 C 0 km/h
2030 01-10-2010 22:03:02 10.8 C 8.7 g/m*3 10.8 C 0 km/h
2031 01-10-2010 22:15:02 10.9 C 8.75 g/m*3 10.9 C 0 km/h
2032 01-10-2010 22:27:02 11 C 8.81 g/m*3 11 C 0 km/h
2033 01-10-2010 22:39:01 11.1 C 8.76 g/m*3 11.1 C 0 km/h
2034 01-10-2010 22:52:04 11.1 C 8.76 g/m*3 11.1 C 0 km/h
2035 01-10-2010 23:04:04 11.1 C 8.76 g/m*3 11.1 C 0 km/h
2036 01-10-2010 23:16:04 11.1 C 8.76 g/m*3 11.1 C 0 km/h
2037 01-10-2010 23:28:04 11 C 8.71 g/m*3 11 C 0 km/h
2038 01-10-2010 23:40:04 11 C 8.71 g/m*3 11 C 0 km/h
2039 01-10-2010 23:52:04 11.1 C 8.76 g/m*3 11.1 C 0 km/h
2040 02-10-2010 00:04:04 11.2 C 8.82 g/m*3 11.2 C 0 km/h
2041 02-10-2010 00:16:04 11.2 C 8.72 g/m*3 11.2 C 0 km/h
2042 02-10-2010 00:28:04 11.2 C 8.72 g/m*3 11.2 C 0 km/h
2043 02-10-2010 00:40:04 11.1 C 8.66 g/m*3 11.1 C 0 km/h
2044 02-10-2010 00:52:04 10.9 C 8.65 g/m*3 10.9 C 0 km/h
2045 02-10-2010 01:04:04 10.9 C 8.65 g/m*3 10.9 C 0 km/h
2046 02-10-2010 01:16:04 11 C 8.71 g/m*3 11 C 0 km/h
2047 02-10-2010 01:28:05 10.9 C 8.75 g/m*3 10.9 C 0 km/h
2048 02-10-2010 01:40:05 11 C 8.81 g/m*3 11 C 0 km/h
2049 02-10-2010 01:52:05 10.8 C 8.8 g/m*3 10.8 C 0 km/h
2050 02-10-2010 02:04:05 10.8 C 8.8 g/m*3 10.8 C 0 km/h
Sensor: Nr:Datum:Temp:Abs-Feuchte:Windchill:Wind:
Aussen-T/F 2051 02-10-2010 02:16:05 10.8 C 8.9 g/m*3 10.8 C 0 km/h
2052 02-10-2010 02:28:05 11 C 9.01 g/m*3 11 C 0 km/h
2053 02-10-2010 02:40:05 11.1 C 9.07 g/m*3 11.1 C 0 km/h
2054 02-10-2010 02:52:05 11.1 C 9.07 g/m*3 11.1 C 0 km/h
2055 02-10-2010 03:04:05 11.1 C 9.07 g/m*3 11.1 C 0 km/h
2056 02-10-2010 03:16:05 11.1 C 9.17 g/m*3 11.1 C 0 km/h
2057 02-10-2010 03:28:05 11.1 C 9.17 g/m*3 11.1 C 0 km/h
2058 02-10-2010 03:40:05 11.1 C 9.17 g/m*3 11.1 C 0 km/h
2059 02-10-2010 03:52:05 11.1 C 9.17 g/m*3 11.1 C 0 km/h
2060 02-10-2010 04:04:05 11.1 C 9.27 g/m*3 11.1 C 0 km/h
2061 02-10-2010 04:16:05 11.1 C 9.27 g/m*3 11.1 C 0 km/h
2062 02-10-2010 04:28:05 11.1 C 9.27 g/m*3 11.1 C 0 km/h
2063 02-10-2010 04:40:05 11.1 C 9.27 g/m*3 11.1 C 0 km/h
2064 02-10-2010 04:52:05 11 C 9.21 g/m*3 11 C 0 km/h
2065 02-10-2010 05:04:05 11 C 9.21 g/m*3 11 C 0 km/h
2066 02-10-2010 05:16:05 11 C 9.31 g/m*3 11 C 0 km/h
2067 02-10-2010 05:28:05 11 C 9.31 g/m*3 11 C 0 km/h
2068 02-10-2010 05:40:05 10.9 C 9.35 g/m*3 10.9 C 0 km/h
2069 02-10-2010 05:52:05 11 C 9.31 g/m*3 11 C 0 km/h
2070 02-10-2010 06:04:06 11 C 9.31 g/m*3 11 C 0 km/h
2071 02-10-2010 06:16:06 11 C 9.41 g/m*3 11 C 0 km/h
2072 02-10-2010 06:28:06 11 C 9.41 g/m*3 11 C 0 km/h
2073 02-10-2010 06:40:06 11 C 9.41 g/m*3 11 C 0 km/h
2074 02-10-2010 06:52:06 11 C 9.41 g/m*3 11 C 0 km/h
2075 02-10-2010 07:04:06 11 C 9.41 g/m*3 11 C 0 km/h
Sensor: Nr:Datum:Temp:Abs-Feuchte:Windchill:Wind:
Aussen-T/F 2076 02-10-2010 07:16:06 11.1 C 9.47 g/m*3 11.1 C 0 km/h
2077 02-10-2010 07:28:06 11.2 C 9.63 g/m*3 11.2 C 0 km/h
2078 02-10-2010 07:40:03 11.2 C 9.63 g/m*3 11.2 C 0 km/h
2079 02-10-2010 07:52:02 11.2 C 9.63 g/m*3 11.2 C 0 km/h
2080 02-10-2010 08:04:02 11.3 C 9.69 g/m*3 11.3 C 0 km/h
2081 02-10-2010 08:16:03 11.3 C 9.69 g/m*3 11.3 C 0 km/h
2082 02-10-2010 08:28:03 11.4 C 9.75 g/m*3 11.4 C 0 km/h
2083 02-10-2010 08:40:02 11.5 C 9.81 g/m*3 11.5 C 0 km/h
2084 02-10-2010 08:52:02 11.8 C 10 g/m*3 11.8 C 0 km/h
2085 02-10-2010 09:04:02 11.8 C 10 g/m*3 11.8 C 0 km/h
2086 02-10-2010 09:16:02 11.8 C 10 g/m*3 11.8 C 0 km/h
2087 02-10-2010 09:28:02 12 C 10.12 g/m*3 12 C 0 km/h
2088 02-10-2010 09:40:02 12.1 C 10.19 g/m*3 12.1 C 0 km/h
2089 02-10-2010 09:52:02 12.3 C 10.32 g/m*3 12.3 C 0 km/h
2090 02-10-2010 10:04:02 12.6 C 10.51 g/m*3 12.6 C 0 km/h
2091 02-10-2010 10:16:02 13 C 10.66 g/m*3 13 C 0 km/h
2092 02-10-2010 10:28:02 13 C 10.66 g/m*3 13 C 0 km/h
2093 02-10-2010 10:40:01 13.3 C 10.86 g/m*3 13.3 C 0 km/h
2094 02-10-2010 10:52:02 13.8 C 11.08 g/m*3 13.8 C 0 km/h
2095 02-10-2010 11:04:01 14 C 11.1 g/m*3 14 C 0 km/h
2096 02-10-2010 11:16:01 14.4 C 11.37 g/m*3 14.4 C 0 km/h
2097 02-10-2010 11:28:01 14.4 C 11.37 g/m*3 14.4 C 0 km/h
2098 02-10-2010 11:40:02 14.4 C 11.25 g/m*3 14.4 C 0 km/h
2099 02-10-2010 11:52:02 14.4 C 11.25 g/m*3 14.4 C 0 km/h
2100 02-10-2010 12:04:02 14.5 C 11.32 g/m*3 14.5 C 0 km/h
Sensor: Nr:Datum:Temp:Abs-Feuchte:Windchill:Wind:
Aussen-T/F 2101 02-10-2010 12:16:02 14.7 C 11.46 g/m*3 14.7 C 0 km/h
2102 02-10-2010 12:28:02 15.2 C 11.68 g/m*3 15.2 C 0 km/h
2103 02-10-2010 12:40:02 15.4 C 11.69 g/m*3 15.4 C 0 km/h
2104 02-10-2010 12:52:02 15.4 C 11.43 g/m*3 15.4 C 0 km/h
2105 02-10-2010 13:04:02 15.5 C 11.5 g/m*3 15.5 C 0 km/h
2106 02-10-2010 13:16:02 15.6 C 11.57 g/m*3 15.6 C 0 km/h
2107 02-10-2010 13:28:02 15.7 C 11.64 g/m*3 15.7 C 0 km/h
2108 02-10-2010 13:40:02 15.9 C 11.65 g/m*3 15.9 C 0 km/h
2109 02-10-2010 13:52:01 16 C 11.31 g/m*3 16 C 0 km/h
2110 02-10-2010 14:04:01 15.7 C 11.24 g/m*3 15.7 C 0 km/h
2111 02-10-2010 14:16:02 15.4 C 11.17 g/m*3 15.4 C 0 km/h
2112 02-10-2010 14:28:02 15.4 C 11.3 g/m*3 15.4 C 0 km/h
2113 02-10-2010 14:40:01 15.7 C 11.64 g/m*3 15.7 C 0 km/h
2114 02-10-2010 14:52:03 16 C 11.72 g/m*3 16 C 0 km/h
2115 02-10-2010 15:04:02 15.8 C 11.71 g/m*3 15.8 C 0 km/h
2116 02-10-2010 15:16:02 15.9 C 11.65 g/m*3 15.9 C 0 km/h
2117 02-10-2010 15:28:02 16 C 11.44 g/m*3 16 C 0 km/h
2118 02-10-2010 15:40:02 16.2 C 11.31 g/m*3 16.2 C 0 km/h
2119 02-10-2010 15:52:02 16.1 C 11.24 g/m*3 16.1 C 0 km/h
2120 02-10-2010 16:04:02 16.2 C 11.31 g/m*3 16.2 C 0 km/h
2121 02-10-2010 16:16:02 16.1 C 10.97 g/m*3 16.1 C 0 km/h
2122 02-10-2010 16:28:02 16.2 C 11.03 g/m*3 16.2 C 0 km/h
2123 02-10-2010 16:40:02 16.4 C 11.17 g/m*3 16.4 C 0 km/h
2124 02-10-2010 16:52:02 16.3 C 10.96 g/m*3 16.3 C 0 km/h
2125 02-10-2010 17:04:01 16.4 C 11.03 g/m*3 16.4 C 0 km/h
Sensor: Nr:Datum:Temp:Abs-Feuchte:Windchill:Wind:
Aussen-T/F 2126 02-10-2010 17:16:01 16.3 C 10.82 g/m*3 16.3 C 0 km/h
2127 02-10-2010 17:28:01 16.3 C 10.96 g/m*3 16.3 C 0 km/h
2128 02-10-2010 17:40:02 16.3 C 10.96 g/m*3 16.3 C 0 km/h
2129 02-10-2010 17:52:02 16.1 C 10.83 g/m*3 16.1 C 0 km/h
2130 02-10-2010 18:04:02 15.9 C 10.97 g/m*3 15.9 C 0 km/h
2131 02-10-2010 18:16:02 15.6 C 10.91 g/m*3 15.6 C 0 km/h
2132 02-10-2010 18:28:02 15.3 C 10.84 g/m*3 15.3 C 0 km/h
2133 02-10-2010 18:40:02 15.2 C 10.9 g/m*3 15.2 C 0 km/h
2134 02-10-2010 18:52:02 15.1 C 10.97 g/m*3 15.1 C 0 km/h
2135 02-10-2010 19:04:02 15 C 10.9 g/m*3 15 C 0 km/h
2136 02-10-2010 19:16:02 15 C 10.9 g/m*3 15 C 0 km/h
2137 02-10-2010 19:28:02 15 C 10.9 g/m*3 15 C 0 km/h
2138 02-10-2010 19:40:02 14.9 C 10.96 g/m*3 14.9 C 0 km/h
2139 02-10-2010 19:52:01 14.8 C 11.02 g/m*3 14.8 C 0 km/h
2140 02-10-2010 20:04:01 14.8 C 11.02 g/m*3 14.8 C 0 km/h
2141 02-10-2010 20:16:02 14.9 C 11.22 g/m*3 14.9 C 0 km/h
2142 02-10-2010 20:28:02 14.9 C 11.22 g/m*3 14.9 C 0 km/h
2143 02-10-2010 20:40:01 14.8 C 11.02 g/m*3 14.8 C 0 km/h
2144 02-10-2010 20:52:01 14.6 C 11.01 g/m*3 14.6 C 0 km/h
2145 02-10-2010 21:04:01 14.6 C 11.01 g/m*3 14.6 C 0 km/h
2146 02-10-2010 21:16:02 14.5 C 10.94 g/m*3 14.5 C 0 km/h
2147 02-10-2010 21:28:02 14.5 C 11.07 g/m*3 14.5 C 0 km/h
2148 02-10-2010 21:40:01 14.5 C 11.07 g/m*3 14.5 C 0 km/h
2149 02-10-2010 21:53:02 14.4 C 11 g/m*3 14.4 C 0 km/h
2150 02-10-2010 22:05:02 14.4 C 11 g/m*3 14.4 C 0 km/h
Sensor: Nr:Datum:Temp:Abs-Feuchte:Windchill:Wind:
Aussen-T/F 2151 02-10-2010 22:17:02 14.4 C 11.13 g/m*3 14.4 C 0 km/h
2152 02-10-2010 22:29:02 14.4 C 11.13 g/m*3 14.4 C 0 km/h
2153 02-10-2010 22:41:02 14.5 C 11.19 g/m*3 14.5 C 0 km/h
2154 02-10-2010 22:53:02 14.7 C 11.33 g/m*3 14.7 C 0 km/h
2155 02-10-2010 23:05:02 14.7 C 11.33 g/m*3 14.7 C 0 km/h
2156 02-10-2010 23:17:02 14.6 C 11.14 g/m*3 14.6 C 0 km/h
2157 02-10-2010 23:29:03 14.5 C 11.07 g/m*3 14.5 C 0 km/h
2158 02-10-2010 23:41:03 14.5 C 11.07 g/m*3 14.5 C 0 km/h
2159 02-10-2010 23:53:03 14.5 C 11.07 g/m*3 14.5 C 0 km/h
2160 03-10-2010 00:05:03 14.6 C 11.14 g/m*3 14.6 C 0 km/h
2161 03-10-2010 00:17:03 14.4 C 11 g/m*3 14.4 C 0 km/h
2162 03-10-2010 00:29:03 14.3 C 10.93 g/m*3 14.3 C 0 km/h
2163 03-10-2010 00:41:03 14.4 C 11.13 g/m*3 14.4 C 0 km/h
2164 03-10-2010 00:53:03 14.5 C 11.19 g/m*3 14.5 C 0 km/h
2165 03-10-2010 01:05:03 14.5 C 11.07 g/m*3 14.5 C 0 km/h
2166 03-10-2010 01:17:03 14.6 C 10.89 g/m*3 14.6 C 0 km/h
2167 03-10-2010 01:29:03 14.7 C 10.58 g/m*3 14.7 C 0 km/h
2168 03-10-2010 01:41:03 14.8 C 10.51 g/m*3 14.8 C 0 km/h
2169 03-10-2010 01:53:03 14.9 C 10.45 g/m*3 14.9 C 0 km/h
2170 03-10-2010 02:05:03 15 C 10.26 g/m*3 15 C 0 km/h
2171 03-10-2010 02:17:03 14.8 C 10.39 g/m*3 14.8 C 0 km/h
2172 03-10-2010 02:29:03 14.6 C 10.39 g/m*3 14.6 C 0 km/h
2173 03-10-2010 02:41:03 14.4 C 10.26 g/m*3 14.4 C 0 km/h
2174 03-10-2010 02:53:03 14.1 C 10.32 g/m*3 14.1 C 0 km/h
2175 03-10-2010 03:05:03 14 C 10.37 g/m*3 14 C 0 km/h
Sensor: Nr:Datum:Temp:Abs-Feuchte:Windchill:Wind:
Aussen-T/F 2176 03-10-2010 03:17:03 13.8 C 10.48 g/m*3 13.8 C 0 km/h
2177 03-10-2010 03:29:04 13.8 C 10.6 g/m*3 13.8 C 0 km/h
2178 03-10-2010 03:41:04 13.9 C 10.67 g/m*3 13.9 C 0 km/h
2179 03-10-2010 03:53:04 14.1 C 10.8 g/m*3 14.1 C 0 km/h
2180 03-10-2010 04:05:04 14 C 10.74 g/m*3 14 C 0 km/h
2181 03-10-2010 04:17:04 14.1 C 10.68 g/m*3 14.1 C 0 km/h
2182 03-10-2010 04:29:04 14 C 10.61 g/m*3 14 C 0 km/h
2183 03-10-2010 04:41:04 14 C 10.49 g/m*3 14 C 0 km/h
2184 03-10-2010 04:53:04 14.3 C 10.57 g/m*3 14.3 C 0 km/h
2185 03-10-2010 05:05:04 14.3 C 10.44 g/m*3 14.3 C 0 km/h
2186 03-10-2010 05:17:04 14.4 C 10.38 g/m*3 14.4 C 0 km/h
2187 03-10-2010 05:29:04 14.4 C 10.38 g/m*3 14.4 C 0 km/h
2188 03-10-2010 05:41:04 14.2 C 10.26 g/m*3 14.2 C 0 km/h
2189 03-10-2010 05:53:04 14 C 10.25 g/m*3 14 C 0 km/h
2190 03-10-2010 06:05:04 13.8 C 10.37 g/m*3 13.8 C 0 km/h
2191 03-10-2010 06:17:04 13.5 C 10.18 g/m*3 13.5 C 0 km/h
2192 03-10-2010 06:29:04 13.4 C 10.23 g/m*3 13.4 C 0 km/h
2193 03-10-2010 06:41:04 13.3 C 10.17 g/m*3 13.3 C 0 km/h
2194 03-10-2010 06:53:04 13.3 C 10.28 g/m*3 13.3 C 0 km/h
2195 03-10-2010 07:05:04 13.3 C 10.28 g/m*3 13.3 C 0 km/h
2196 03-10-2010 07:17:04 13.4 C 10.46 g/m*3 13.4 C 0 km/h
2197 03-10-2010 07:29:04 13.4 C 10.46 g/m*3 13.4 C 0 km/h
2198 03-10-2010 07:41:05 13.5 C 10.53 g/m*3 13.5 C 0 km/h
2199 03-10-2010 07:53:02 13.5 C 10.41 g/m*3 13.5 C 0 km/h
2200 03-10-2010 08:05:01 13.7 C 10.42 g/m*3 13.7 C 0 km/h
Sensor: Nr:Datum:Temp:Abs-Feuchte:Windchill:Wind:
Aussen-T/F 2201 03-10-2010 08:17:02 13.9 C 10.43 g/m*3 13.9 C 0 km/h
2202 03-10-2010 08:29:02 13.9 C 10.43 g/m*3 13.9 C 0 km/h
2203 03-10-2010 08:41:01 14.1 C 10.44 g/m*3 14.1 C 0 km/h
2204 03-10-2010 08:53:03 14.3 C 10.32 g/m*3 14.3 C 0 km/h
2205 03-10-2010 09:05:02 14.8 C 10.26 g/m*3 14.8 C 0 km/h
2206 03-10-2010 09:17:02 15 C 10 g/m*3 15 C 0 km/h
2207 03-10-2010 09:29:03 15.1 C 9.93 g/m*3 15.1 C 0 km/h
2208 03-10-2010 09:41:02 15.2 C 10.12 g/m*3 15.2 C 0 km/h
2209 03-10-2010 09:53:02 15.5 C 10.05 g/m*3 15.5 C 0 km/h
2210 03-10-2010 10:05:02 16.2 C 10.2 g/m*3 16.2 C 0 km/h
2211 03-10-2010 10:17:02 16.9 C 9.92 g/m*3 16.9 C 0 km/h
2212 03-10-2010 10:29:03 17 C 9.69 g/m*3 17 C 0 km/h
2213 03-10-2010 10:41:01 17 C 9.84 g/m*3 17 C 0 km/h
2214 03-10-2010 10:53:02 16.8 C 9.87 g/m*3 16.8 C 0 km/h
2215 03-10-2010 11:05:01 17.2 C 9.81 g/m*3 17.2 C 0 km/h
2216 03-10-2010 11:17:02 17.6 C 10.35 g/m*3 17.6 C 0 km/h
2217 03-10-2010 11:29:02 17.9 C 10.23 g/m*3 17.9 C 0 km/h
2218 03-10-2010 11:41:02 18.5 C 9.97 g/m*3 18.5 C 0 km/h
2219 03-10-2010 11:53:02 19.5 C 10.24 g/m*3 19.5 C 0 km/h
2220 03-10-2010 12:05:03 19.7 C 9.85 g/m*3 19.7 C 0 km/h
2221 03-10-2010 12:17:02 19.7 C 10.02 g/m*3 19.7 C 0 km/h
2222 03-10-2010 12:29:02 19.3 C 9.45 g/m*3 19.3 C 0 km/h
2223 03-10-2010 12:41:02 19.7 C 9.68 g/m*3 19.7 C 0 km/h
2224 03-10-2010 12:53:01 20 C 9.68 g/m*3 20 C 0 km/h
2225 03-10-2010 13:05:02 20.7 C 9.9 g/m*3 20.7 C 0 km/h
Sensor: Nr:Datum:Temp:Abs-Feuchte:Windchill:Wind:
Aussen-T/F 2226 03-10-2010 13:17:01 21.1 C 9.58 g/m*3 21.1 C 0 km/h
2227 03-10-2010 13:29:01 21.5 C 9.62 g/m*3 21.5 C 0 km/h
2228 03-10-2010 13:41:01 21.7 C 8.97 g/m*3 21.7 C 0 km/h
2229 03-10-2010 13:53:01 21.8 C 9.02 g/m*3 21.8 C 0 km/h
2230 03-10-2010 14:05:02 22.2 C 8.83 g/m*3 22.2 C 0 km/h
2231 03-10-2010 14:17:01 22.7 C 9.5 g/m*3 22.7 C 0 km/h
2232 03-10-2010 14:29:01 23.2 C 9.15 g/m*3 23.2 C 0 km/h
2233 03-10-2010 14:41:01 24.4 C 9.12 g/m*3 24.4 C 0 km/h
2234 03-10-2010 14:53:01 24.2 C 8.8 g/m*3 24.2 C 0 km/h
2235 03-10-2010 15:05:02 24.4 C 8.68 g/m*3 24.4 C 0 km/h
2236 03-10-2010 15:17:02 24.4 C 8.68 g/m*3 24.4 C 0 km/h
2237 03-10-2010 15:29:02 24.5 C 8.5 g/m*3 24.5 C 0 km/h
2238 03-10-2010 15:41:01 24.9 C 8.7 g/m*3 24.9 C 0 km/h
2239 03-10-2010 15:53:02 25.4 C 8.48 g/m*3 25.4 C 0 km/h
2240 03-10-2010 16:05:01 24.6 C 8.33 g/m*3 24.6 C 0 km/h
2241 03-10-2010 16:17:02 24.7 C 8.37 g/m*3 24.7 C 0 km/h
2242 03-10-2010 16:29:02 25.1 C 8.57 g/m*3 25.1 C 0 km/h
2243 03-10-2010 16:41:01 25.4 C 8.95 g/m*3 25.4 C 0 km/h
2244 03-10-2010 16:53:03 25.8 C 9.15 g/m*3 25.8 C 0 km/h
2245 03-10-2010 17:05:02 26.1 C 9.3 g/m*3 26.1 C 0 km/h
2246 03-10-2010 17:17:02 25.6 C 9.05 g/m*3 25.6 C 0 km/h
2247 03-10-2010 17:29:02 25.6 C 9.52 g/m*3 25.6 C 0 km/h
2248 03-10-2010 17:41:03 24.4 C 9.35 g/m*3 24.4 C 0 km/h
2249 03-10-2010 17:53:02 24.4 C 9.57 g/m*3 24.4 C 0 km/h
2250 03-10-2010 18:05:01 23.6 C 10.21 g/m*3 23.6 C 0 km/h
Sensor: Nr:Datum:Temp:Abs-Feuchte:Windchill:Wind:
Aussen-T/F 2251 03-10-2010 18:17:02 22.5 C 10.39 g/m*3 22.5 C 0 km/h
2252 03-10-2010 18:29:02 21.4 C 10.5 g/m*3 21.4 C 0 km/h
2253 03-10-2010 18:41:02 20.4 C 10.61 g/m*3 20.4 C 0 km/h
2254 03-10-2010 18:53:02 19.8 C 10.76 g/m*3 19.8 C 0 km/h
2255 03-10-2010 19:05:03 19.3 C 10.95 g/m*3 19.3 C 0 km/h
2256 03-10-2010 19:17:02 19 C 10.76 g/m*3 19 C 0 km/h
2257 03-10-2010 19:29:02 18.9 C 10.85 g/m*3 18.9 C 0 km/h
2258 03-10-2010 19:41:02 18.4 C 10.85 g/m*3 18.4 C 0 km/h
2259 03-10-2010 19:53:01 18.3 C 10.79 g/m*3 18.3 C 0 km/h
2260 03-10-2010 20:05:02 18.1 C 10.82 g/m*3 18.1 C 0 km/h
2261 03-10-2010 20:17:01 18.5 C 10.92 g/m*3 18.5 C 0 km/h
2262 03-10-2010 20:29:01 18.4 C 10.85 g/m*3 18.4 C 0 km/h
2263 03-10-2010 20:41:02 18.4 C 10.85 g/m*3 18.4 C 0 km/h
2264 03-10-2010 20:53:01 18.3 C 10.94 g/m*3 18.3 C 0 km/h
2265 03-10-2010 21:05:02 18.3 C 10.94 g/m*3 18.3 C 0 km/h
2266 03-10-2010 21:17:02 18.1 C 10.97 g/m*3 18.1 C 0 km/h
2267 03-10-2010 21:29:02 17.9 C 11.15 g/m*3 17.9 C 0 km/h
2268 03-10-2010 21:41:02 17.8 C 11.08 g/m*3 17.8 C 0 km/h
2269 03-10-2010 21:53:01 17.7 C 11.01 g/m*3 17.7 C 0 km/h
2270 03-10-2010 22:05:01 17.6 C 11.1 g/m*3 17.6 C 0 km/h
2271 03-10-2010 22:17:02 17.5 C 11.03 g/m*3 17.5 C 0 km/h
2272 03-10-2010 22:29:02 17.5 C 10.88 g/m*3 17.5 C 0 km/h
2273 03-10-2010 22:41:01 17.6 C 10.8 g/m*3 17.6 C 0 km/h
2274 03-10-2010 22:53:02 17.6 C 10.5 g/m*3 17.6 C 0 km/h
2275 03-10-2010 23:05:01 17.5 C 10.44 g/m*3 17.5 C 0 km/h
Sensor: Nr:Datum:Temp:Abs-Feuchte:Windchill:Wind:
Aussen-T/F 2276 03-10-2010 23:18:06 17.6 C 10.5 g/m*3 17.6 C 0 km/h
2277 03-10-2010 23:30:07 17.6 C 10.35 g/m*3 17.6 C 0 km/h
2278 03-10-2010 23:42:07 17.6 C 10.2 g/m*3 17.6 C 0 km/h
2279 03-10-2010 23:54:07 17.5 C 10.14 g/m*3 17.5 C 0 km/h
2280 04-10-2010 00:06:07 17.4 C 9.93 g/m*3 17.4 C 0 km/h
2281 04-10-2010 00:18:07 17.4 C 9.93 g/m*3 17.4 C 0 km/h
2282 04-10-2010 00:30:07 17.2 C 9.81 g/m*3 17.2 C 0 km/h
2283 04-10-2010 00:42:07 17.2 C 9.81 g/m*3 17.2 C 0 km/h
2284 04-10-2010 00:54:07 17.2 C 9.81 g/m*3 17.2 C 0 km/h
2285 04-10-2010 01:06:07 17.2 C 9.81 g/m*3 17.2 C 0 km/h
2286 04-10-2010 01:18:07 17.2 C 9.67 g/m*3 17.2 C 0 km/h
2287 04-10-2010 01:30:07 17.2 C 9.52 g/m*3 17.2 C 0 km/h
2288 04-10-2010 01:42:07 17.2 C 9.52 g/m*3 17.2 C 0 km/h
2289 04-10-2010 01:54:07 17.1 C 9.46 g/m*3 17.1 C 0 km/h
2290 04-10-2010 02:06:07 17 C 9.55 g/m*3 17 C 0 km/h
2291 04-10-2010 02:18:07 16.9 C 9.64 g/m*3 16.9 C 0 km/h
2292 04-10-2010 02:30:07 16.8 C 9.72 g/m*3 16.8 C 0 km/h
2293 04-10-2010 02:42:07 16.8 C 9.58 g/m*3 16.8 C 0 km/h
2294 04-10-2010 02:54:07 16.6 C 9.75 g/m*3 16.6 C 0 km/h
2295 04-10-2010 03:06:07 16.4 C 9.77 g/m*3 16.4 C 0 km/h
2296 04-10-2010 03:18:07 15.9 C 10.02 g/m*3 15.9 C 0 km/h
2297 04-10-2010 03:30:08 15.6 C 9.97 g/m*3 15.6 C 0 km/h
2298 04-10-2010 03:42:08 15.5 C 10.05 g/m*3 15.5 C 0 km/h
2299 04-10-2010 03:54:08 15.4 C 9.99 g/m*3 15.4 C 0 km/h
2300 04-10-2010 04:06:08 15.3 C 9.92 g/m*3 15.3 C 0 km/h
Sensor: Nr:Datum:Temp:Abs-Feuchte:Windchill:Wind:
Aussen-T/F 2301 04-10-2010 04:18:08 15.2 C 9.99 g/m*3 15.2 C 0 km/h
2302 04-10-2010 04:30:08 15.2 C 9.99 g/m*3 15.2 C 0 km/h
2303 04-10-2010 04:42:08 15 C 10 g/m*3 15 C 0 km/h
2304 04-10-2010 04:54:08 14.8 C 10.01 g/m*3 14.8 C 0 km/h
2305 04-10-2010 05:06:08 14.6 C 10.01 g/m*3 14.6 C 0 km/h
2306 04-10-2010 05:18:08 14.4 C 9.89 g/m*3 14.4 C 0 km/h
2307 04-10-2010 05:30:08 14.3 C 9.95 g/m*3 14.3 C 0 km/h
2308 04-10-2010 05:42:08 14.1 C 9.95 g/m*3 14.1 C 0 km/h
2309 04-10-2010 05:54:08 14.1 C 9.95 g/m*3 14.1 C 0 km/h
2310 04-10-2010 06:06:08 14.2 C 10.01 g/m*3 14.2 C 0 km/h
2311 04-10-2010 06:18:08 13.9 C 10.07 g/m*3 13.9 C 0 km/h
2312 04-10-2010 06:30:08 14 C 9.89 g/m*3 14 C 0 km/h
2313 04-10-2010 06:42:08 13.8 C 9.89 g/m*3 13.8 C 0 km/h
2314 04-10-2010 06:54:08 13.7 C 9.83 g/m*3 13.7 C 0 km/h
2315 04-10-2010 07:06:03 13.8 C 10.01 g/m*3 13.8 C 0 km/h
2316 04-10-2010 07:18:02 13.7 C 9.83 g/m*3 13.7 C 0 km/h
2317 04-10-2010 07:30:02 13.5 C 9.71 g/m*3 13.5 C 0 km/h
2318 04-10-2010 07:42:03 13.5 C 9.71 g/m*3 13.5 C 0 km/h
2319 04-10-2010 07:54:02 13.6 C 9.89 g/m*3 13.6 C 0 km/h
2320 04-10-2010 08:06:02 13.8 C 9.89 g/m*3 13.8 C 0 km/h
2321 04-10-2010 08:18:02 14.1 C 9.95 g/m*3 14.1 C 0 km/h
2322 04-10-2010 08:30:02 14.3 C 9.83 g/m*3 14.3 C 0 km/h
2323 04-10-2010 08:42:03 14.4 C 9.64 g/m*3 14.4 C 0 km/h
2324 04-10-2010 08:54:02 14.7 C 9.69 g/m*3 14.7 C 0 km/h
2325 04-10-2010 09:06:02 14.9 C 9.56 g/m*3 14.9 C 0 km/h
Sensor: Nr:Datum:Temp:Abs-Feuchte:Windchill:Wind:
Aussen-T/F 2326 04-10-2010 09:18:02 15 C 9.23 g/m*3 15 C 0 km/h
2327 04-10-2010 09:30:02 15 C 9.1 g/m*3 15 C 0 km/h
2328 04-10-2010 09:42:02 15 C 9.1 g/m*3 15 C 0 km/h
2329 04-10-2010 09:54:02 15.1 C 9.16 g/m*3 15.1 C 0 km/h
2330 04-10-2010 10:06:02 15.2 C 9.09 g/m*3 15.2 C 0 km/h
2331 04-10-2010 10:18:02 15.3 C 9.01 g/m*3 15.3 C 0 km/h
2332 04-10-2010 10:30:02 15.4 C 9.07 g/m*3 15.4 C 0 km/h
2333 04-10-2010 10:42:02 16 C 8.86 g/m*3 16 C 0 km/h
2334 04-10-2010 10:54:01 16.4 C 8.79 g/m*3 16.4 C 0 km/h
2335 04-10-2010 11:06:02 17.1 C 8.88 g/m*3 17.1 C 0 km/h
2336 04-10-2010 11:18:01 17.1 C 8.88 g/m*3 17.1 C 0 km/h
2337 04-10-2010 11:30:01 17.6 C 9 g/m*3 17.6 C 0 km/h
2338 04-10-2010 11:42:01 18 C 8.91 g/m*3 18 C 0 km/h
2339 04-10-2010 11:54:01 18.3 C 8.91 g/m*3 18.3 C 0 km/h
2340 04-10-2010 12:06:01 18.5 C 8.86 g/m*3 18.5 C 0 km/h
2341 04-10-2010 12:18:02 18 C 8.91 g/m*3 18 C 0 km/h
2342 04-10-2010 12:30:02 17.8 C 8.8 g/m*3 17.8 C 0 km/h
2343 04-10-2010 12:42:01 17.5 C 8.65 g/m*3 17.5 C 0 km/h
2344 04-10-2010 12:54:02 17.4 C 8.6 g/m*3 17.4 C 0 km/h
2345 04-10-2010 13:06:01 17.9 C 8.7 g/m*3 17.9 C 0 km/h
2346 04-10-2010 13:18:02 18.3 C 8.6 g/m*3 18.3 C 0 km/h
2347 04-10-2010 13:30:02 18.9 C 8.59 g/m*3 18.9 C 0 km/h
2348 04-10-2010 13:42:01 19.1 C 8.52 g/m*3 19.1 C 0 km/h
2349 04-10-2010 13:54:02 19.4 C 8.68 g/m*3 19.4 C 0 km/h
2350 04-10-2010 14:06:02 19.3 C 8.63 g/m*3 19.3 C 0 km/h
Sensor: Nr:Datum:Temp:Abs-Feuchte:Windchill:Wind:
Aussen-T/F 2351 04-10-2010 14:18:02 19.5 C 8.73 g/m*3 19.5 C 0 km/h
2352 04-10-2010 14:30:02 19.7 C 8.66 g/m*3 19.7 C 0 km/h
2353 04-10-2010 14:42:02 19.9 C 8.59 g/m*3 19.9 C 0 km/h
2354 04-10-2010 14:54:02 20.4 C 9.02 g/m*3 20.4 C 0 km/h
2355 04-10-2010 15:06:01 21.2 C 8.9 g/m*3 21.2 C 0 km/h
2356 04-10-2010 15:18:02 22.3 C 8.29 g/m*3 22.3 C 0 km/h
2357 04-10-2010 15:30:02 22.7 C 8.69 g/m*3 22.7 C 0 km/h
2358 04-10-2010 15:42:02 23 C 8.63 g/m*3 23 C 0 km/h
2359 04-10-2010 15:54:02 23.3 C 8.57 g/m*3 23.3 C 0 km/h
2360 04-10-2010 16:06:02 23.1 C 8.27 g/m*3 23.1 C 0 km/h
2361 04-10-2010 16:18:02 23.4 C 8.2 g/m*3 23.4 C 0 km/h
2362 04-10-2010 16:30:02 23.9 C 8.44 g/m*3 23.9 C 0 km/h
2363 04-10-2010 16:42:02 23.9 C 8 g/m*3 23.9 C 0 km/h
2364 04-10-2010 16:54:01 23.9 C 8.22 g/m*3 23.9 C 0 km/h
2365 04-10-2010 17:06:02 23.3 C 8.15 g/m*3 23.3 C 0 km/h
2366 04-10-2010 17:18:01 22 C 8.54 g/m*3 22 C 0 km/h
2367 04-10-2010 17:30:01 20.4 C 9.38 g/m*3 20.4 C 0 km/h
2368 04-10-2010 17:42:01 19.5 C 9.73 g/m*3 19.5 C 0 km/h
2369 04-10-2010 17:54:01 20.5 C 9.61 g/m*3 20.5 C 0 km/h
2370 04-10-2010 18:06:02 20.2 C 9.44 g/m*3 20.2 C 0 km/h
2371 04-10-2010 18:18:02 19.5 C 9.57 g/m*3 19.5 C 0 km/h
2372 04-10-2010 18:30:02 18.7 C 9.61 g/m*3 18.7 C 0 km/h
2373 04-10-2010 18:42:01 17.8 C 9.71 g/m*3 17.8 C 0 km/h
2374 04-10-2010 18:54:01 17.2 C 9.81 g/m*3 17.2 C 0 km/h
2375 04-10-2010 19:06:01 16.9 C 10.07 g/m*3 16.9 C 0 km/h
Sensor: Nr:Datum:Temp:Abs-Feuchte:Windchill:Wind:
Aussen-T/F 2376 04-10-2010 19:18:02 16.8 C 10.15 g/m*3 16.8 C 0 km/h
2377 04-10-2010 19:30:02 16.5 C 10.11 g/m*3 16.5 C 0 km/h
2378 04-10-2010 19:42:01 16.2 C 10.07 g/m*3 16.2 C 0 km/h
2379 04-10-2010 19:54:03 16.2 C 10.07 g/m*3 16.2 C 0 km/h
2380 04-10-2010 20:06:02 16.4 C 10.19 g/m*3 16.4 C 0 km/h
2381 04-10-2010 20:18:02 16.5 C 10.11 g/m*3 16.5 C 0 km/h
2382 04-10-2010 20:30:03 16.4 C 10.05 g/m*3 16.4 C 0 km/h
2383 04-10-2010 20:42:02 16.1 C 9.87 g/m*3 16.1 C 0 km/h
2384 04-10-2010 20:54:02 15.7 C 9.9 g/m*3 15.7 C 0 km/h
2385 04-10-2010 21:06:01 15.6 C 9.97 g/m*3 15.6 C 0 km/h
2386 04-10-2010 21:18:02 15.5 C 10.05 g/m*3 15.5 C 0 km/h
2387 04-10-2010 21:30:02 15.6 C 9.97 g/m*3 15.6 C 0 km/h
2388 04-10-2010 21:42:02 15.4 C 9.85 g/m*3 15.4 C 0 km/h
2389 04-10-2010 21:54:01 15 C 9.87 g/m*3 15 C 0 km/h
2390 04-10-2010 22:06:02 14.8 C 9.88 g/m*3 14.8 C 0 km/h
2391 04-10-2010 22:19:04 14.7 C 9.95 g/m*3 14.7 C 0 km/h
2392 04-10-2010 22:31:04 14.5 C 9.95 g/m*3 14.5 C 0 km/h
2393 04-10-2010 22:43:04 14.5 C 9.95 g/m*3 14.5 C 0 km/h
2394 04-10-2010 22:55:04 14.3 C 9.83 g/m*3 14.3 C 0 km/h
2395 04-10-2010 23:07:04 14.2 C 9.89 g/m*3 14.2 C 0 km/h
2396 04-10-2010 23:19:04 14.2 C 9.89 g/m*3 14.2 C 0 km/h
2397 04-10-2010 23:31:04 14.3 C 9.95 g/m*3 14.3 C 0 km/h
2398 04-10-2010 23:43:05 14.2 C 9.89 g/m*3 14.2 C 0 km/h
2399 04-10-2010 23:55:05 14.1 C 9.95 g/m*3 14.1 C 0 km/h
2400 05-10-2010 00:07:05 14.1 C 9.95 g/m*3 14.1 C 0 km/h
Sensor: Nr:Datum:Temp:Abs-Feuchte:Windchill:Wind:
Aussen-T/F 2401 05-10-2010 00:19:05 14.1 C 9.95 g/m*3 14.1 C 0 km/h
2402 05-10-2010 00:31:05 14.2 C 10.01 g/m*3 14.2 C 0 km/h
2403 05-10-2010 00:43:05 14.3 C 10.07 g/m*3 14.3 C 0 km/h
2404 05-10-2010 00:55:05 14.3 C 10.07 g/m*3 14.3 C 0 km/h
2405 05-10-2010 01:07:05 14.2 C 10.01 g/m*3 14.2 C 0 km/h
2406 05-10-2010 01:19:05 14.1 C 9.95 g/m*3 14.1 C 0 km/h
2407 05-10-2010 01:31:05 13.8 C 9.77 g/m*3 13.8 C 0 km/h
2408 05-10-2010 01:43:05 13.8 C 9.89 g/m*3 13.8 C 0 km/h
2409 05-10-2010 01:55:05 13.8 C 9.89 g/m*3 13.8 C 0 km/h
2410 05-10-2010 02:07:05 13.4 C 9.65 g/m*3 13.4 C 0 km/h
2411 05-10-2010 02:19:05 13.5 C 9.71 g/m*3 13.5 C 0 km/h
2412 05-10-2010 02:31:05 13.5 C 9.83 g/m*3 13.5 C 0 km/h
2413 05-10-2010 02:43:05 13.6 C 10 g/m*3 13.6 C 0 km/h
2414 05-10-2010 02:55:05 13.6 C 10 g/m*3 13.6 C 0 km/h
2415 05-10-2010 03:07:05 13.6 C 10 g/m*3 13.6 C 0 km/h
2416 05-10-2010 03:19:05 13.6 C 10 g/m*3 13.6 C 0 km/h
2417 05-10-2010 03:31:05 13.7 C 10.07 g/m*3 13.7 C 0 km/h
2418 05-10-2010 03:43:05 13.6 C 10 g/m*3 13.6 C 0 km/h
2419 05-10-2010 03:55:06 13.5 C 9.94 g/m*3 13.5 C 0 km/h
2420 05-10-2010 04:07:06 13.5 C 9.94 g/m*3 13.5 C 0 km/h
2421 05-10-2010 04:19:06 13.6 C 10.12 g/m*3 13.6 C 0 km/h
2422 05-10-2010 04:31:06 13.6 C 10.12 g/m*3 13.6 C 0 km/h
2423 05-10-2010 04:43:06 13.6 C 10.12 g/m*3 13.6 C 0 km/h
2424 05-10-2010 04:55:06 13.7 C 10.18 g/m*3 13.7 C 0 km/h
2425 05-10-2010 05:07:06 13.7 C 10.18 g/m*3 13.7 C 0 km/h
Sensor: Nr:Datum:Temp:Abs-Feuchte:Windchill:Wind:
Aussen-T/F 2426 05-10-2010 05:19:06 13.7 C 10.18 g/m*3 13.7 C 0 km/h
2427 05-10-2010 05:31:06 13.6 C 10.12 g/m*3 13.6 C 0 km/h
2428 05-10-2010 05:43:06 13.5 C 10.06 g/m*3 13.5 C 0 km/h
2429 05-10-2010 05:55:06 13.5 C 10.18 g/m*3 13.5 C 0 km/h
2430 05-10-2010 06:07:06 13.4 C 10.23 g/m*3 13.4 C 0 km/h
2431 05-10-2010 06:19:06 13.4 C 10.35 g/m*3 13.4 C 0 km/h
2432 05-10-2010 06:31:06 13.4 C 10.35 g/m*3 13.4 C 0 km/h
2433 05-10-2010 06:43:06 13.4 C 10.46 g/m*3 13.4 C 0 km/h
2434 05-10-2010 06:55:06 13.5 C 10.53 g/m*3 13.5 C 0 km/h
2435 05-10-2010 07:07:01 13.4 C 10.46 g/m*3 13.4 C 0 km/h
2436 05-10-2010 07:19:02 13.4 C 10.58 g/m*3 13.4 C 0 km/h
2437 05-10-2010 07:31:02 13.4 C 10.58 g/m*3 13.4 C 0 km/h
2438 05-10-2010 07:43:02 13.4 C 10.58 g/m*3 13.4 C 0 km/h
2439 05-10-2010 07:55:02 13.4 C 10.58 g/m*3 13.4 C 0 km/h
2440 05-10-2010 08:07:02 13.4 C 10.58 g/m*3 13.4 C 0 km/h
2441 05-10-2010 08:19:02 13.2 C 10.45 g/m*3 13.2 C 0 km/h
2442 05-10-2010 08:31:02 13.1 C 10.38 g/m*3 13.1 C 0 km/h
2443 05-10-2010 08:43:02 13 C 10.32 g/m*3 13 C 0 km/h
2444 05-10-2010 08:55:02 13 C 10.32 g/m*3 13 C 0 km/h
2445 05-10-2010 09:07:02 13 C 10.43 g/m*3 13 C 0 km/h
2446 05-10-2010 09:19:02 13.2 C 10.56 g/m*3 13.2 C 0 km/h
2447 05-10-2010 09:31:01 13.4 C 10.69 g/m*3 13.4 C 0 km/h
2448 05-10-2010 09:43:01 13.4 C 10.81 g/m*3 13.4 C 0 km/h
2449 05-10-2010 09:55:02 13.5 C 10.88 g/m*3 13.5 C 0 km/h
2450 05-10-2010 10:07:01 13.8 C 11.08 g/m*3 13.8 C 0 km/h
Sensor: Nr:Datum:Temp:Abs-Feuchte:Windchill:Wind:
Aussen-T/F 2451 05-10-2010 10:19:02 14.3 C 11.43 g/m*3 14.3 C 0 km/h
2452 05-10-2010 10:31:02 14.7 C 11.83 g/m*3 14.7 C 0 km/h
2453 05-10-2010 10:43:02 15.2 C 12.07 g/m*3 15.2 C 0 km/h
2454 05-10-2010 10:55:02 16 C 12.67 g/m*3 16 C 0 km/h
2455 05-10-2010 11:07:02 17.2 C 13.62 g/m*3 17.2 C 0 km/h
2456 05-10-2010 11:19:02 17.3 C 13.7 g/m*3 17.3 C 0 km/h
2457 05-10-2010 11:31:02 17.4 C 13.34 g/m*3 17.4 C 0 km/h
2458 05-10-2010 11:43:02 17.3 C 12.37 g/m*3 17.3 C 0 km/h
2459 05-10-2010 11:55:01 18.2 C 11.97 g/m*3 18.2 C 0 km/h
2460 05-10-2010 12:07:02 18.3 C 11.73 g/m*3 18.3 C 0 km/h
2461 05-10-2010 12:19:02 17.9 C 11.45 g/m*3 17.9 C 0 km/h
2462 05-10-2010 12:31:01 18 C 11.37 g/m*3 18 C 0 km/h
2463 05-10-2010 12:43:01 17.9 C 11.3 g/m*3 17.9 C 0 km/h
2464 05-10-2010 12:55:02 18.4 C 11.32 g/m*3 18.4 C 0 km/h
2465 05-10-2010 13:07:01 18.7 C 11.37 g/m*3 18.7 C 0 km/h
2466 05-10-2010 13:19:02 18.9 C 11.18 g/m*3 18.9 C 0 km/h
2467 05-10-2010 13:31:01 19 C 11.08 g/m*3 19 C 0 km/h
2468 05-10-2010 13:43:01 19.3 C 11.44 g/m*3 19.3 C 0 km/h
2469 05-10-2010 13:55:02 20 C 11.06 g/m*3 20 C 0 km/h
2470 05-10-2010 14:07:02 19.9 C 10.31 g/m*3 19.9 C 0 km/h
2471 05-10-2010 14:19:02 19.5 C 10.57 g/m*3 19.5 C 0 km/h
2472 05-10-2010 14:31:02 19.6 C 10.8 g/m*3 19.6 C 0 km/h
2473 05-10-2010 14:43:02 18.7 C 11.05 g/m*3 18.7 C 0 km/h
2474 05-10-2010 14:55:02 18.6 C 11.94 g/m*3 18.6 C 0 km/h
2475 05-10-2010 15:07:01 19 C 12.22 g/m*3 19 C 0 km/h
Sensor: Nr:Datum:Temp:Abs-Feuchte:Windchill:Wind:
Aussen-T/F 2476 05-10-2010 15:19:02 17.9 C 12.06 g/m*3 17.9 C 0 km/h
2477 05-10-2010 15:31:02 18.3 C 12.51 g/m*3 18.3 C 0 km/h
2478 05-10-2010 15:43:02 19.3 C 13.27 g/m*3 19.3 C 0 km/h
2479 05-10-2010 15:55:01 19.5 C 13.09 g/m*3 19.5 C 0 km/h
2480 05-10-2010 16:07:02 19 C 12.55 g/m*3 19 C 0 km/h
2481 05-10-2010 16:19:01 18.7 C 12.65 g/m*3 18.7 C 0 km/h
2482 05-10-2010 16:31:02 18.4 C 12.43 g/m*3 18.4 C 0 km/h
2483 05-10-2010 16:43:02 18.3 C 12.51 g/m*3 18.3 C 0 km/h
2484 05-10-2010 16:55:02 18.1 C 12.21 g/m*3 18.1 C 0 km/h
2485 05-10-2010 17:07:02 17.7 C 11.92 g/m*3 17.7 C 0 km/h
2486 05-10-2010 17:19:01 17.2 C 11.42 g/m*3 17.2 C 0 km/h
2487 05-10-2010 17:31:02 16.8 C 11.58 g/m*3 16.8 C 0 km/h
2488 05-10-2010 17:43:02 16.8 C 11.72 g/m*3 16.8 C 0 km/h
2489 05-10-2010 17:55:02 17 C 11.72 g/m*3 17 C 0 km/h
2490 05-10-2010 18:07:02 17.1 C 11.65 g/m*3 17.1 C 0 km/h
2491 05-10-2010 18:19:02 17.1 C 11.65 g/m*3 17.1 C 0 km/h
2492 05-10-2010 18:31:02 17.1 C 11.35 g/m*3 17.1 C 0 km/h
2493 05-10-2010 18:43:02 17 C 11.29 g/m*3 17 C 0 km/h
2494 05-10-2010 18:55:02 16.8 C 11.29 g/m*3 16.8 C 0 km/h
2495 05-10-2010 19:07:02 16.6 C 11.3 g/m*3 16.6 C 0 km/h
2496 05-10-2010 19:19:03 16.5 C 11.23 g/m*3 16.5 C 0 km/h
2497 05-10-2010 19:31:02 16.5 C 11.37 g/m*3 16.5 C 0 km/h
2498 05-10-2010 19:43:02 17.3 C 11.64 g/m*3 17.3 C 0 km/h
2499 05-10-2010 19:55:02 16.4 C 11.03 g/m*3 16.4 C 0 km/h
2500 05-10-2010 20:07:02 16.4 C 11.03 g/m*3 16.4 C 0 km/h
Sensor: Nr:Datum:Temp:Abs-Feuchte:Windchill:Wind:
Aussen-T/F 2501 05-10-2010 20:19:02 16.4 C 11.03 g/m*3 16.4 C 0 km/h
2502 05-10-2010 20:31:02 16.4 C 11.03 g/m*3 16.4 C 0 km/h
2503 05-10-2010 20:43:02 16.3 C 10.96 g/m*3 16.3 C 0 km/h
2504 05-10-2010 20:55:02 16.3 C 10.68 g/m*3 16.3 C 0 km/h
2505 05-10-2010 21:07:02 16.1 C 10.55 g/m*3 16.1 C 0 km/h
2506 05-10-2010 21:19:02 16 C 10.35 g/m*3 16 C 0 km/h
2507 05-10-2010 21:31:01 15.6 C 10.24 g/m*3 15.6 C 0 km/h
2508 05-10-2010 21:43:01 15.4 C 10.12 g/m*3 15.4 C 0 km/h
2509 05-10-2010 21:55:02 15.3 C 10.06 g/m*3 15.3 C 0 km/h
2510 05-10-2010 22:07:01 15.2 C 9.99 g/m*3 15.2 C 0 km/h
2511 05-10-2010 22:19:02 15.3 C 9.92 g/m*3 15.3 C 0 km/h
2512 05-10-2010 22:31:01 15.4 C 9.99 g/m*3 15.4 C 0 km/h
2513 05-10-2010 22:43:01 15.2 C 9.99 g/m*3 15.2 C 0 km/h
2514 05-10-2010 22:55:02 15.4 C 9.99 g/m*3 15.4 C 0 km/h
2515 05-10-2010 23:07:01 15.6 C 9.97 g/m*3 15.6 C 0 km/h
2516 05-10-2010 23:19:02 15.6 C 9.97 g/m*3 15.6 C 0 km/h
2517 05-10-2010 23:31:01 15.6 C 9.97 g/m*3 15.6 C 0 km/h
2518 05-10-2010 23:43:01 15.6 C 9.97 g/m*3 15.6 C 0 km/h
2519 05-10-2010 23:55:02 15.6 C 9.97 g/m*3 15.6 C 0 km/h
2520 06-10-2010 00:07:01 15.6 C 9.97 g/m*3 15.6 C 0 km/h
2521 06-10-2010 00:19:02 15.6 C 9.97 g/m*3 15.6 C 0 km/h
2522 06-10-2010 00:31:01 15.6 C 9.97 g/m*3 15.6 C 0 km/h
2523 06-10-2010 00:43:01 15.6 C 9.97 g/m*3 15.6 C 0 km/h
2524 06-10-2010 00:55:02 15.6 C 9.97 g/m*3 15.6 C 0 km/h
2525 06-10-2010 01:07:02 15.5 C 9.91 g/m*3 15.5 C 0 km/h
Sensor: Nr:Datum:Temp:Abs-Feuchte:Windchill:Wind:
Aussen-T/F 2526 06-10-2010 01:19:02 15.5 C 9.91 g/m*3 15.5 C 0 km/h
2527 06-10-2010 01:31:03 15.5 C 10.05 g/m*3 15.5 C 0 km/h
2528 06-10-2010 01:43:03 15.5 C 10.05 g/m*3 15.5 C 0 km/h
2529 06-10-2010 01:55:02 15.5 C 10.05 g/m*3 15.5 C 0 km/h
2530 06-10-2010 02:07:01 15.5 C 10.05 g/m*3 15.5 C 0 km/h
2531 06-10-2010 02:19:02 15.5 C 10.18 g/m*3 15.5 C 0 km/h
2532 06-10-2010 02:31:02 15.4 C 10.25 g/m*3 15.4 C 0 km/h
2533 06-10-2010 02:43:02 15.4 C 10.25 g/m*3 15.4 C 0 km/h
2534 06-10-2010 02:55:01 15.4 C 10.12 g/m*3 15.4 C 0 km/h
2535 06-10-2010 03:07:01 15.3 C 10.19 g/m*3 15.3 C 0 km/h
2536 06-10-2010 03:19:02 15.3 C 10.06 g/m*3 15.3 C 0 km/h
2537 06-10-2010 03:31:01 15.3 C 10.06 g/m*3 15.3 C 0 km/h
2538 06-10-2010 03:43:02 15.3 C 10.06 g/m*3 15.3 C 0 km/h
2539 06-10-2010 03:55:02 15.2 C 10.12 g/m*3 15.2 C 0 km/h
2540 06-10-2010 04:07:01 15.2 C 10.12 g/m*3 15.2 C 0 km/h
2541 06-10-2010 04:19:01 15.2 C 10.12 g/m*3 15.2 C 0 km/h
2542 06-10-2010 04:31:02 15.1 C 10.06 g/m*3 15.1 C 0 km/h
2543 06-10-2010 04:43:02 15 C 10 g/m*3 15 C 0 km/h
2544 06-10-2010 04:55:01 15 C 10.13 g/m*3 15 C 0 km/h
2545 06-10-2010 05:07:02 14.9 C 10.2 g/m*3 14.9 C 0 km/h
2546 06-10-2010 05:19:01 15 C 10.13 g/m*3 15 C 0 km/h
2547 06-10-2010 05:31:02 14.9 C 10.32 g/m*3 14.9 C 0 km/h
2548 06-10-2010 05:43:02 14.9 C 10.32 g/m*3 14.9 C 0 km/h
2549 06-10-2010 05:55:01 14.9 C 10.32 g/m*3 14.9 C 0 km/h
2550 06-10-2010 06:07:02 14.8 C 10.26 g/m*3 14.8 C 0 km/h
Sensor: Nr:Datum:Temp:Abs-Feuchte:Windchill:Wind:
Aussen-T/F 2551 06-10-2010 06:19:01 14.9 C 10.32 g/m*3 14.9 C 0 km/h
2552 06-10-2010 06:31:01 14.8 C 10.01 g/m*3 14.8 C 0 km/h
2553 06-10-2010 06:43:01 14.8 C 10.01 g/m*3 14.8 C 0 km/h
2554 06-10-2010 06:55:01 14.8 C 9.88 g/m*3 14.8 C 0 km/h
2555 06-10-2010 07:07:01 14.7 C 9.82 g/m*3 14.7 C 0 km/h
2556 06-10-2010 07:19:01 14.7 C 9.95 g/m*3 14.7 C 0 km/h
2557 06-10-2010 07:31:01 14.7 C 9.95 g/m*3 14.7 C 0 km/h
2558 06-10-2010 07:43:02 14.6 C 10.01 g/m*3 14.6 C 0 km/h
2559 06-10-2010 07:55:02 14.6 C 10.01 g/m*3 14.6 C 0 km/h
2560 06-10-2010 08:07:01 14.5 C 10.07 g/m*3 14.5 C 0 km/h
2561 06-10-2010 08:19:02 14.3 C 9.95 g/m*3 14.3 C 0 km/h
2562 06-10-2010 08:31:01 14.1 C 9.95 g/m*3 14.1 C 0 km/h
2563 06-10-2010 08:43:01 14.5 C 10.32 g/m*3 14.5 C 0 km/h
2564 06-10-2010 08:55:01 15.2 C 10.64 g/m*3 15.2 C 0 km/h
2565 06-10-2010 09:07:01 15.6 C 10.64 g/m*3 15.6 C 0 km/h
2566 06-10-2010 09:19:02 15.5 C 10.31 g/m*3 15.5 C 0 km/h
2567 06-10-2010 09:31:01 15.3 C 10.06 g/m*3 15.3 C 0 km/h
2568 06-10-2010 09:43:01 15.6 C 9.84 g/m*3 15.6 C 0 km/h
2569 06-10-2010 09:55:02 15.7 C 9.77 g/m*3 15.7 C 0 km/h
2570 06-10-2010 10:07:01 15.9 C 10.16 g/m*3 15.9 C 0 km/h
2571 06-10-2010 10:19:01 16.2 C 9.93 g/m*3 16.2 C 0 km/h
2572 06-10-2010 10:31:01 16.3 C 9.99 g/m*3 16.3 C 0 km/h
2573 06-10-2010 10:43:01 16.4 C 9.63 g/m*3 16.4 C 0 km/h
2574 06-10-2010 10:55:02 16.4 C 9.91 g/m*3 16.4 C 0 km/h
2575 06-10-2010 11:07:01 17.1 C 9.46 g/m*3 17.1 C 0 km/h
Sensor: Nr:Datum:Temp:Abs-Feuchte:Windchill:Wind:
Aussen-T/F 2576 06-10-2010 11:19:01 17.2 C 9.37 g/m*3 17.2 C 0 km/h
2577 06-10-2010 11:31:02 17.7 C 9.35 g/m*3 17.7 C 0 km/h
2578 06-10-2010 11:43:02 18.2 C 9.01 g/m*3 18.2 C 0 km/h
2579 06-10-2010 11:55:01 18.6 C 9.07 g/m*3 18.6 C 0 km/h
2580 06-10-2010 12:07:02 18.9 C 8.91 g/m*3 18.9 C 0 km/h
2581 06-10-2010 12:19:01 18.8 C 8.7 g/m*3 18.8 C 0 km/h
2582 06-10-2010 12:31:02 19 C 8.64 g/m*3 19 C 0 km/h
2583 06-10-2010 12:43:02 19.2 C 8.57 g/m*3 19.2 C 0 km/h
2584 06-10-2010 12:55:01 19.3 C 8.63 g/m*3 19.3 C 0 km/h
2585 06-10-2010 13:07:02 19.8 C 8.71 g/m*3 19.8 C 0 km/h
2586 06-10-2010 13:19:01 20.2 C 8.39 g/m*3 20.2 C 0 km/h
2587 06-10-2010 13:31:01 20.4 C 8.67 g/m*3 20.4 C 0 km/h
2588 06-10-2010 13:43:01 20.3 C 8.27 g/m*3 20.3 C 0 km/h
2589 06-10-2010 13:55:01 20.3 C 8.44 g/m*3 20.3 C 0 km/h
2590 06-10-2010 14:07:01 20.4 C 8.31 g/m*3 20.4 C 0 km/h
2591 06-10-2010 14:19:01 21 C 8.43 g/m*3 21 C 0 km/h
2592 06-10-2010 14:31:01 21.6 C 8.35 g/m*3 21.6 C 0 km/h
2593 06-10-2010 14:43:01 22.2 C 8.25 g/m*3 22.2 C 0 km/h
2594 06-10-2010 14:55:01 22.9 C 7.77 g/m*3 22.9 C 0 km/h
2595 06-10-2010 15:07:01 23.3 C 8.15 g/m*3 23.3 C 0 km/h
2596 06-10-2010 15:19:02 23.4 C 8.41 g/m*3 23.4 C 0 km/h
2597 06-10-2010 15:31:01 23.3 C 8.15 g/m*3 23.3 C 0 km/h
2598 06-10-2010 15:43:01 22.9 C 8.17 g/m*3 22.9 C 0 km/h
2599 06-10-2010 15:55:02 22.4 C 8.34 g/m*3 22.4 C 0 km/h
2600 06-10-2010 16:07:01 22.8 C 8.53 g/m*3 22.8 C 0 km/h
Sensor: Nr:Datum:Temp:Abs-Feuchte:Windchill:Wind:
Aussen-T/F 2601 06-10-2010 16:19:02 23.2 C 8.32 g/m*3 23.2 C 0 km/h
2602 06-10-2010 16:31:01 22.8 C 9.14 g/m*3 22.8 C 0 km/h
2603 06-10-2010 16:43:01 22.7 C 9.7 g/m*3 22.7 C 0 km/h
2604 06-10-2010 16:55:02 22.7 C 9.09 g/m*3 22.7 C 0 km/h
2605 06-10-2010 17:07:01 21.9 C 9.84 g/m*3 21.9 C 0 km/h
2606 06-10-2010 17:19:01 21.5 C 10.18 g/m*3 21.5 C 0 km/h
2607 06-10-2010 17:31:02 21.1 C 10.32 g/m*3 21.1 C 0 km/h
2608 06-10-2010 17:43:02 20.7 C 10.26 g/m*3 20.7 C 0 km/h
2609 06-10-2010 17:55:01 20.2 C 10.14 g/m*3 20.2 C 0 km/h
2610 06-10-2010 18:07:01 19.7 C 10.02 g/m*3 19.7 C 0 km/h
2611 06-10-2010 18:19:01 19.4 C 10.34 g/m*3 19.4 C 0 km/h
2612 06-10-2010 18:31:02 18.9 C 10.21 g/m*3 18.9 C 0 km/h
2613 06-10-2010 18:43:02 18.6 C 10.35 g/m*3 18.6 C 0 km/h
2614 06-10-2010 18:55:01 18.1 C 10.2 g/m*3 18.1 C 0 km/h
2615 06-10-2010 19:07:02 17.9 C 10.23 g/m*3 17.9 C 0 km/h
2616 06-10-2010 19:19:01 17.5 C 10.14 g/m*3 17.5 C 0 km/h
2617 06-10-2010 19:31:01 17.2 C 10.25 g/m*3 17.2 C 0 km/h
2618 06-10-2010 19:43:01 17 C 10.13 g/m*3 17 C 0 km/h
2619 06-10-2010 19:55:01 16.9 C 10.21 g/m*3 16.9 C 0 km/h
2620 06-10-2010 20:07:01 16.9 C 10.07 g/m*3 16.9 C 0 km/h
2621 06-10-2010 20:19:01 17 C 9.98 g/m*3 17 C 0 km/h
2622 06-10-2010 20:31:01 17 C 9.98 g/m*3 17 C 0 km/h
2623 06-10-2010 20:43:01 16.8 C 10.29 g/m*3 16.8 C 0 km/h
2624 06-10-2010 20:55:01 16.8 C 10.29 g/m*3 16.8 C 0 km/h
2625 06-10-2010 21:07:01 16.6 C 10.45 g/m*3 16.6 C 0 km/h
Sensor: Nr:Datum:Temp:Abs-Feuchte:Windchill:Wind:
Aussen-T/F 2626 06-10-2010 21:19:02 16.5 C 10.39 g/m*3 16.5 C 0 km/h
2627 06-10-2010 21:31:01 16.4 C 10.47 g/m*3 16.4 C 0 km/h
2628 06-10-2010 21:43:01 16.2 C 10.34 g/m*3 16.2 C 0 km/h
2629 06-10-2010 21:55:02 16.1 C 10.42 g/m*3 16.1 C 0 km/h
2630 06-10-2010 22:07:02 16 C 10.49 g/m*3 16 C 0 km/h
2631 06-10-2010 22:19:01 15.8 C 10.5 g/m*3 15.8 C 0 km/h
2632 06-10-2010 22:31:01 15.8 C 10.63 g/m*3 15.8 C 0 km/h
2633 06-10-2010 22:43:01 15.7 C 10.57 g/m*3 15.7 C 0 km/h
2634 06-10-2010 22:55:01 15.4 C 10.38 g/m*3 15.4 C 0 km/h
2635 06-10-2010 23:07:01 15.2 C 10.38 g/m*3 15.2 C 0 km/h
2636 06-10-2010 23:19:01 15 C 10.26 g/m*3 15 C 0 km/h
2637 06-10-2010 23:31:01 14.9 C 10.32 g/m*3 14.9 C 0 km/h
2638 06-10-2010 23:43:01 14.8 C 10.39 g/m*3 14.8 C 0 km/h
2639 06-10-2010 23:55:01 14.6 C 10.26 g/m*3 14.6 C 0 km/h
2640 07-10-2010 00:07:01 14.5 C 10.2 g/m*3 14.5 C 0 km/h
2641 07-10-2010 00:19:01 14.3 C 10.2 g/m*3 14.3 C 0 km/h
2642 07-10-2010 00:31:02 14.2 C 10.14 g/m*3 14.2 C 0 km/h
2643 07-10-2010 00:43:02 14.1 C 10.19 g/m*3 14.1 C 0 km/h
2644 07-10-2010 00:55:01 14 C 10.13 g/m*3 14 C 0 km/h
2645 07-10-2010 01:07:01 14 C 10.25 g/m*3 14 C 0 km/h
2646 07-10-2010 01:19:01 14.4 C 10.63 g/m*3 14.4 C 0 km/h
2647 07-10-2010 01:31:02 14.3 C 10.57 g/m*3 14.3 C 0 km/h
2648 07-10-2010 01:43:02 14.2 C 10.5 g/m*3 14.2 C 0 km/h
2649 07-10-2010 01:55:01 14.3 C 10.57 g/m*3 14.3 C 0 km/h
2650 07-10-2010 02:07:02 14.3 C 10.57 g/m*3 14.3 C 0 km/h
Sensor: Nr:Datum:Temp:Abs-Feuchte:Windchill:Wind:
Aussen-T/F 2651 07-10-2010 02:19:01 14.2 C 10.38 g/m*3 14.2 C 0 km/h
2652 07-10-2010 02:31:01 14.2 C 10.38 g/m*3 14.2 C 0 km/h
2653 07-10-2010 02:43:01 14.3 C 10.44 g/m*3 14.3 C 0 km/h
2654 07-10-2010 02:55:01 14.2 C 10.38 g/m*3 14.2 C 0 km/h
2655 07-10-2010 03:07:01 14.2 C 10.38 g/m*3 14.2 C 0 km/h
2656 07-10-2010 03:19:02 14.2 C 10.38 g/m*3 14.2 C 0 km/h
2657 07-10-2010 03:31:01 14 C 10.25 g/m*3 14 C 0 km/h
2658 07-10-2010 03:43:01 14 C 10.37 g/m*3 14 C 0 km/h
2659 07-10-2010 03:55:01 14 C 10.37 g/m*3 14 C 0 km/h
2660 07-10-2010 04:07:02 14.5 C 10.7 g/m*3 14.5 C 0 km/h
2661 07-10-2010 04:19:01 13.9 C 10.43 g/m*3 13.9 C 0 km/h
2662 07-10-2010 04:31:01 13.9 C 10.43 g/m*3 13.9 C 0 km/h
2663 07-10-2010 04:43:01 13.5 C 10.06 g/m*3 13.5 C 0 km/h
2664 07-10-2010 04:55:01 13.3 C 9.94 g/m*3 13.3 C 0 km/h
2665 07-10-2010 05:07:01 13.1 C 9.93 g/m*3 13.1 C 0 km/h
2666 07-10-2010 05:20:01 13 C 9.87 g/m*3 13 C 0 km/h
2667 07-10-2010 05:31:01 13.1 C 10.04 g/m*3 13.1 C 0 km/h
2668 07-10-2010 05:43:01 13.6 C 10.47 g/m*3 13.6 C 0 km/h
2669 07-10-2010 05:56:01 13.7 C 10.54 g/m*3 13.7 C 0 km/h
2670 07-10-2010 06:07:01 13.8 C 10.48 g/m*3 13.8 C 0 km/h
2671 07-10-2010 06:19:02 13.8 C 10.48 g/m*3 13.8 C 0 km/h
2672 07-10-2010 06:32:01 13.8 C 10.48 g/m*3 13.8 C 0 km/h
2673 07-10-2010 06:44:01 13.9 C 10.55 g/m*3 13.9 C 0 km/h
2674 07-10-2010 06:55:02 13.9 C 10.55 g/m*3 13.9 C 0 km/h
2675 07-10-2010 07:08:01 13.8 C 10.48 g/m*3 13.8 C 0 km/h
Sensor: Nr:Datum:Temp:Abs-Feuchte:Windchill:Wind:
Aussen-T/F 2676 07-10-2010 07:20:01 14 C 10.49 g/m*3 14 C 0 km/h
2677 07-10-2010 07:31:02 14.1 C 10.56 g/m*3 14.1 C 0 km/h
2678 07-10-2010 07:43:02 14.4 C 10.75 g/m*3 14.4 C 0 km/h
2679 07-10-2010 07:56:01 14.3 C 10.69 g/m*3 14.3 C 0 km/h
2680 07-10-2010 08:08:01 14.4 C 10.75 g/m*3 14.4 C 0 km/h
2681 07-10-2010 08:20:01 14.6 C 10.89 g/m*3 14.6 C 0 km/h
2682 07-10-2010 08:32:02 14.7 C 10.95 g/m*3 14.7 C 0 km/h
2683 07-10-2010 08:44:02 14.8 C 11.02 g/m*3 14.8 C 0 km/h
2684 07-10-2010 08:56:01 14.8 C 10.89 g/m*3 14.8 C 0 km/h
2685 07-10-2010 09:08:02 14.8 C 10.77 g/m*3 14.8 C 0 km/h
2686 07-10-2010 09:20:01 14.7 C 10.45 g/m*3 14.7 C 0 km/h
2687 07-10-2010 09:32:01 14.8 C 10.51 g/m*3 14.8 C 0 km/h
2688 07-10-2010 09:44:01 15.3 C 10.71 g/m*3 15.3 C 0 km/h
2689 07-10-2010 09:56:01 15.7 C 10.57 g/m*3 15.7 C 0 km/h
2690 07-10-2010 10:08:01 16.2 C 10.48 g/m*3 16.2 C 0 km/h
2691 07-10-2010 10:20:02 16.1 C 10.14 g/m*3 16.1 C 0 km/h
2692 07-10-2010 10:32:01 16.2 C 10.34 g/m*3 16.2 C 0 km/h
2693 07-10-2010 10:44:01 16.2 C 10.34 g/m*3 16.2 C 0 km/h
2694 07-10-2010 10:56:01 16.2 C 10.34 g/m*3 16.2 C 0 km/h
2695 07-10-2010 11:08:01 16.7 C 10.52 g/m*3 16.7 C 0 km/h
2696 07-10-2010 11:20:02 17.1 C 10.34 g/m*3 17.1 C 0 km/h
2697 07-10-2010 11:32:01 17.3 C 10.31 g/m*3 17.3 C 0 km/h
2698 07-10-2010 11:44:01 17.4 C 10.08 g/m*3 17.4 C 0 km/h
2699 07-10-2010 11:56:02 17.8 C 10.32 g/m*3 17.8 C 0 km/h
2700 07-10-2010 12:08:01 18.1 C 9.89 g/m*3 18.1 C 0 km/h
Sensor: Nr:Datum:Temp:Abs-Feuchte:Windchill:Wind:
Aussen-T/F 2701 07-10-2010 12:20:01 18.3 C 10.01 g/m*3 18.3 C 0 km/h
2702 07-10-2010 12:32:02 18.3 C 10.01 g/m*3 18.3 C 0 km/h
2703 07-10-2010 12:44:02 18.7 C 10.09 g/m*3 18.7 C 0 km/h
2704 07-10-2010 12:56:01 18.6 C 9.87 g/m*3 18.6 C 0 km/h
2705 07-10-2010 13:08:02 18.8 C 10.15 g/m*3 18.8 C 0 km/h
2706 07-10-2010 13:20:01 19.2 C 10.06 g/m*3 19.2 C 0 km/h
2707 07-10-2010 13:32:02 19.3 C 9.62 g/m*3 19.3 C 0 km/h
2708 07-10-2010 13:44:02 19.5 C 9.73 g/m*3 19.5 C 0 km/h
2709 07-10-2010 13:56:01 19.5 C 9.57 g/m*3 19.5 C 0 km/h
2710 07-10-2010 14:08:02 19.7 C 9.85 g/m*3 19.7 C 0 km/h
2711 07-10-2010 14:20:01 19.8 C 9.91 g/m*3 19.8 C 0 km/h
2712 07-10-2010 14:32:01 19.7 C 9.68 g/m*3 19.7 C 0 km/h
2713 07-10-2010 14:44:01 19.9 C 9.79 g/m*3 19.9 C 0 km/h
2714 07-10-2010 14:56:01 20.3 C 9.67 g/m*3 20.3 C 0 km/h
2715 07-10-2010 15:08:01 20.5 C 9.43 g/m*3 20.5 C 0 km/h
2716 07-10-2010 15:20:01 20.8 C 9.6 g/m*3 20.8 C 0 km/h
2717 07-10-2010 15:32:01 20.7 C 9.54 g/m*3 20.7 C 0 km/h
2718 07-10-2010 15:44:01 20.4 C 9.38 g/m*3 20.4 C 0 km/h
2719 07-10-2010 15:56:01 20.1 C 9.56 g/m*3 20.1 C 0 km/h
2720 07-10-2010 16:08:01 20 C 9.68 g/m*3 20 C 0 km/h
2721 07-10-2010 16:20:02 20.4 C 9.55 g/m*3 20.4 C 0 km/h
2722 07-10-2010 16:32:01 20.1 C 9.39 g/m*3 20.1 C 0 km/h
2723 07-10-2010 16:44:01 19.6 C 9.45 g/m*3 19.6 C 0 km/h
2724 07-10-2010 16:56:02 19.6 C 9.28 g/m*3 19.6 C 0 km/h
2725 07-10-2010 17:08:01 19.6 C 9.45 g/m*3 19.6 C 0 km/h
Sensor: Nr:Datum:Temp:Abs-Feuchte:Windchill:Wind:
Aussen-T/F 2726 07-10-2010 17:20:01 19.3 C 9.45 g/m*3 19.3 C 0 km/h
2727 07-10-2010 17:32:02 19.2 C 9.56 g/m*3 19.2 C 0 km/h
2728 07-10-2010 17:44:02 19 C 9.45 g/m*3 19 C 0 km/h
2729 07-10-2010 17:56:01 18.7 C 9.93 g/m*3 18.7 C 0 km/h
2730 07-10-2010 18:08:02 18.3 C 10.01 g/m*3 18.3 C 0 km/h
2731 07-10-2010 18:20:01 18.1 C 10.2 g/m*3 18.1 C 0 km/h
2732 07-10-2010 18:32:02 17.9 C 10.23 g/m*3 17.9 C 0 km/h
2733 07-10-2010 18:44:02 17.7 C 10.26 g/m*3 17.7 C 0 km/h
2734 07-10-2010 18:56:01 17.4 C 10.37 g/m*3 17.4 C 0 km/h
2735 07-10-2010 19:08:02 17.1 C 10.34 g/m*3 17.1 C 0 km/h
2736 07-10-2010 19:20:01 17 C 10.42 g/m*3 17 C 0 km/h
2737 07-10-2010 19:32:01 16.8 C 10.44 g/m*3 16.8 C 0 km/h
2738 07-10-2010 19:44:01 17 C 10.42 g/m*3 17 C 0 km/h
2739 07-10-2010 19:56:01 16.6 C 10.31 g/m*3 16.6 C 0 km/h
2740 07-10-2010 20:08:01 16.5 C 10.39 g/m*3 16.5 C 0 km/h
2741 07-10-2010 20:20:02 16.4 C 10.33 g/m*3 16.4 C 0 km/h
2742 07-10-2010 20:32:01 16.2 C 10.34 g/m*3 16.2 C 0 km/h
2743 07-10-2010 20:44:01 16.2 C 10.34 g/m*3 16.2 C 0 km/h
2744 07-10-2010 20:56:02 16.2 C 10.34 g/m*3 16.2 C 0 km/h
2745 07-10-2010 21:08:01 16.3 C 10.13 g/m*3 16.3 C 0 km/h
2746 07-10-2010 21:20:02 16.3 C 10.27 g/m*3 16.3 C 0 km/h
2747 07-10-2010 21:32:01 16.2 C 10.2 g/m*3 16.2 C 0 km/h
2748 07-10-2010 21:44:01 16.2 C 10.07 g/m*3 16.2 C 0 km/h
2749 07-10-2010 21:56:02 16.1 C 10.01 g/m*3 16.1 C 0 km/h
2750 07-10-2010 22:08:01 16 C 9.95 g/m*3 16 C 0 km/h
Sensor: Nr:Datum:Temp:Abs-Feuchte:Windchill:Wind:
Aussen-T/F 2751 07-10-2010 22:20:02 16 C 9.95 g/m*3 16 C 0 km/h
2752 07-10-2010 22:32:02 16 C 9.95 g/m*3 16 C 0 km/h
2753 07-10-2010 22:44:02 16 C 9.81 g/m*3 16 C 0 km/h
2754 07-10-2010 22:56:02 16 C 9.67 g/m*3 16 C 0 km/h
2755 07-10-2010 23:08:02 16.1 C 9.73 g/m*3 16.1 C 0 km/h
2756 07-10-2010 23:20:02 16 C 9.67 g/m*3 16 C 0 km/h
2757 07-10-2010 23:32:02 16 C 9.67 g/m*3 16 C 0 km/h
2758 07-10-2010 23:44:02 16 C 9.81 g/m*3 16 C 0 km/h
2759 07-10-2010 23:56:02 16 C 9.81 g/m*3 16 C 0 km/h
2760 08-10-2010 00:08:03 15.8 C 9.83 g/m*3 15.8 C 0 km/h
2761 08-10-2010 00:20:03 15.9 C 10.02 g/m*3 15.9 C 0 km/h
2762 08-10-2010 00:32:03 15.8 C 9.96 g/m*3 15.8 C 0 km/h
2763 08-10-2010 00:44:03 15.8 C 9.96 g/m*3 15.8 C 0 km/h
2764 08-10-2010 00:56:03 15.8 C 9.69 g/m*3 15.8 C 0 km/h
2765 08-10-2010 01:08:03 15.7 C 9.77 g/m*3 15.7 C 0 km/h
2766 08-10-2010 01:20:03 15.7 C 9.77 g/m*3 15.7 C 0 km/h
2767 08-10-2010 01:32:03 15.6 C 9.71 g/m*3 15.6 C 0 km/h
2768 08-10-2010 01:44:03 15.5 C 9.52 g/m*3 15.5 C 0 km/h
2769 08-10-2010 01:56:03 15.6 C 9.58 g/m*3 15.6 C 0 km/h
2770 08-10-2010 02:08:03 15.6 C 9.58 g/m*3 15.6 C 0 km/h
2771 08-10-2010 02:20:03 15.5 C 9.39 g/m*3 15.5 C 0 km/h
2772 08-10-2010 02:32:03 15.4 C 9.33 g/m*3 15.4 C 0 km/h
2773 08-10-2010 02:44:03 15.4 C 9.33 g/m*3 15.4 C 0 km/h
2774 08-10-2010 02:56:03 15.3 C 9.14 g/m*3 15.3 C 0 km/h
2775 08-10-2010 03:08:03 15.2 C 8.96 g/m*3 15.2 C 0 km/h
Sensor: Nr:Datum:Temp:Abs-Feuchte:Windchill:Wind:
Aussen-T/F 2776 08-10-2010 03:20:03 15 C 8.98 g/m*3 15 C 0 km/h
2777 08-10-2010 03:32:03 14.9 C 8.79 g/m*3 14.9 C 0 km/h
2778 08-10-2010 03:44:03 14.8 C 8.49 g/m*3 14.8 C 0 km/h
2779 08-10-2010 03:56:03 14.7 C 8.56 g/m*3 14.7 C 0 km/h
2780 08-10-2010 04:08:03 14.7 C 8.56 g/m*3 14.7 C 0 km/h
2781 08-10-2010 04:20:03 14.6 C 8.51 g/m*3 14.6 C 0 km/h
2782 08-10-2010 04:32:04 14.5 C 8.58 g/m*3 14.5 C 0 km/h
2783 08-10-2010 04:44:04 14.4 C 8.53 g/m*3 14.4 C 0 km/h
2784 08-10-2010 04:56:04 14.4 C 8.65 g/m*3 14.4 C 0 km/h
2785 08-10-2010 05:08:04 14.3 C 8.72 g/m*3 14.3 C 0 km/h
2786 08-10-2010 05:20:04 14.3 C 8.85 g/m*3 14.3 C 0 km/h
2787 08-10-2010 05:32:04 14.3 C 8.85 g/m*3 14.3 C 0 km/h
2788 08-10-2010 05:44:04 14.1 C 8.74 g/m*3 14.1 C 0 km/h
2789 08-10-2010 05:56:04 14.2 C 8.91 g/m*3 14.2 C 0 km/h
2790 08-10-2010 06:08:04 14.1 C 8.86 g/m*3 14.1 C 0 km/h
2791 08-10-2010 06:20:04 14 C 8.93 g/m*3 14 C 0 km/h
2792 08-10-2010 06:32:04 14 C 8.93 g/m*3 14 C 0 km/h
2793 08-10-2010 06:44:04 13.9 C 8.99 g/m*3 13.9 C 0 km/h
2794 08-10-2010 06:56:04 13.9 C 9.11 g/m*3 13.9 C 0 km/h
2795 08-10-2010 07:08:04 13.9 C 9.11 g/m*3 13.9 C 0 km/h
2796 08-10-2010 07:20:01 14 C 9.17 g/m*3 14 C 0 km/h
2797 08-10-2010 07:32:01 14.1 C 9.22 g/m*3 14.1 C 0 km/h
2798 08-10-2010 07:44:01 14.1 C 9.1 g/m*3 14.1 C 0 km/h
2799 08-10-2010 07:56:01 14 C 9.05 g/m*3 14 C 0 km/h
2800 08-10-2010 08:08:02 14 C 9.05 g/m*3 14 C 0 km/h
Sensor: Nr:Datum:Temp:Abs-Feuchte:Windchill:Wind:
Aussen-T/F 2801 08-10-2010 08:20:02 14.1 C 9.1 g/m*3 14.1 C 0 km/h
2802 08-10-2010 08:32:01 14.2 C 9.28 g/m*3 14.2 C 0 km/h
2803 08-10-2010 08:44:01 14.3 C 9.34 g/m*3 14.3 C 0 km/h
2804 08-10-2010 08:56:02 14.4 C 9.39 g/m*3 14.4 C 0 km/h
2805 08-10-2010 09:08:01 14.4 C 9.27 g/m*3 14.4 C 0 km/h
2806 08-10-2010 09:20:01 14.5 C 9.33 g/m*3 14.5 C 0 km/h
2807 08-10-2010 09:32:02 14.6 C 9.51 g/m*3 14.6 C 0 km/h
2808 08-10-2010 09:44:02 14.7 C 9.44 g/m*3 14.7 C 0 km/h
2809 08-10-2010 09:56:02 14.8 C 9.5 g/m*3 14.8 C 0 km/h
2810 08-10-2010 10:08:01 14.9 C 9.43 g/m*3 14.9 C 0 km/h
2811 08-10-2010 10:20:02 15.1 C 9.42 g/m*3 15.1 C 0 km/h
2812 08-10-2010 10:32:02 15.3 C 9.53 g/m*3 15.3 C 0 km/h
2813 08-10-2010 10:44:02 15.4 C 9.33 g/m*3 15.4 C 0 km/h
2814 08-10-2010 10:56:02 15.7 C 9.63 g/m*3 15.7 C 0 km/h
2815 08-10-2010 11:08:02 15.7 C 9.23 g/m*3 15.7 C 0 km/h
2816 08-10-2010 11:20:02 15.8 C 9.42 g/m*3 15.8 C 0 km/h
2817 08-10-2010 11:32:02 15.8 C 9.29 g/m*3 15.8 C 0 km/h
2818 08-10-2010 11:44:02 15.9 C 9.21 g/m*3 15.9 C 0 km/h
2819 08-10-2010 11:56:02 16.1 C 9.32 g/m*3 16.1 C 0 km/h
2820 08-10-2010 12:08:02 16.3 C 9.43 g/m*3 16.3 C 0 km/h
2821 08-10-2010 12:20:03 16.5 C 9.13 g/m*3 16.5 C 0 km/h
2822 08-10-2010 12:32:02 16.6 C 9.04 g/m*3 16.6 C 0 km/h
2823 08-10-2010 12:44:02 16.6 C 8.9 g/m*3 16.6 C 0 km/h
2824 08-10-2010 12:56:02 16.7 C 8.95 g/m*3 16.7 C 0 km/h
2825 08-10-2010 13:08:02 16.7 C 8.81 g/m*3 16.7 C 0 km/h
Sensor: Nr:Datum:Temp:Abs-Feuchte:Windchill:Wind:
Aussen-T/F 2826 08-10-2010 13:20:02 17 C 8.83 g/m*3 17 C 0 km/h
2827 08-10-2010 13:32:02 17 C 8.83 g/m*3 17 C 0 km/h
2828 08-10-2010 13:44:02 17 C 8.54 g/m*3 17 C 0 km/h
2829 08-10-2010 13:56:02 17 C 8.83 g/m*3 17 C 0 km/h
2830 08-10-2010 14:08:02 17.6 C 9 g/m*3 17.6 C 0 km/h
2831 08-10-2010 14:20:02 18.1 C 8.81 g/m*3 18.1 C 0 km/h
2832 08-10-2010 14:32:02 18.6 C 8.75 g/m*3 18.6 C 0 km/h
2833 08-10-2010 14:44:02 19.7 C 8.66 g/m*3 19.7 C 0 km/h
2834 08-10-2010 14:56:02 19.8 C 8.54 g/m*3 19.8 C 0 km/h
2835 08-10-2010 15:08:02 19.7 C 8.66 g/m*3 19.7 C 0 km/h
2836 08-10-2010 15:20:01 19.9 C 8.25 g/m*3 19.9 C 0 km/h
2837 08-10-2010 15:32:02 20.4 C 8.67 g/m*3 20.4 C 0 km/h
2838 08-10-2010 15:44:02 20.6 C 8.59 g/m*3 20.6 C 0 km/h
2839 08-10-2010 15:56:02 21 C 8.43 g/m*3 21 C 0 km/h
2840 08-10-2010 16:08:02 22 C 8.73 g/m*3 22 C 0 km/h
2841 08-10-2010 16:20:02 22.1 C 8.98 g/m*3 22.1 C 0 km/h
2842 08-10-2010 16:32:02 22.5 C 9.19 g/m*3 22.5 C 0 km/h
2843 08-10-2010 16:44:02 22.4 C 8.74 g/m*3 22.4 C 0 km/h
2844 08-10-2010 16:56:02 22 C 9.12 g/m*3 22 C 0 km/h
2845 08-10-2010 17:08:02 22.1 C 9.17 g/m*3 22.1 C 0 km/h
2846 08-10-2010 17:20:03 22.1 C 9.17 g/m*3 22.1 C 0 km/h
2847 08-10-2010 17:32:02 21.9 C 9.26 g/m*3 21.9 C 0 km/h
2848 08-10-2010 17:44:02 21.6 C 9.29 g/m*3 21.6 C 0 km/h
2849 08-10-2010 17:56:02 21.2 C 9.27 g/m*3 21.2 C 0 km/h
2850 08-10-2010 18:08:02 20.6 C 9.49 g/m*3 20.6 C 0 km/h
Sensor: Nr:Datum:Temp:Abs-Feuchte:Windchill:Wind:
Aussen-T/F 2851 08-10-2010 18:20:03 20 C 9.51 g/m*3 20 C 0 km/h
2852 08-10-2010 18:32:02 19.3 C 9.62 g/m*3 19.3 C 0 km/h
2853 08-10-2010 18:44:02 18.1 C 9.73 g/m*3 18.1 C 0 km/h
2854 08-10-2010 18:56:02 17.3 C 9.87 g/m*3 17.3 C 0 km/h
2855 08-10-2010 19:08:02 16.9 C 10.21 g/m*3 16.9 C 0 km/h
2856 08-10-2010 19:20:02 16.1 C 10.01 g/m*3 16.1 C 0 km/h
2857 08-10-2010 19:32:02 15.8 C 9.96 g/m*3 15.8 C 0 km/h
2858 08-10-2010 19:44:02 15.4 C 9.85 g/m*3 15.4 C 0 km/h
2859 08-10-2010 19:56:02 15.2 C 9.86 g/m*3 15.2 C 0 km/h
2860 08-10-2010 20:08:02 15 C 9.75 g/m*3 15 C 0 km/h
2861 08-10-2010 20:20:02 14.9 C 9.81 g/m*3 14.9 C 0 km/h
2862 08-10-2010 20:32:02 14.8 C 9.88 g/m*3 14.8 C 0 km/h
2863 08-10-2010 20:44:02 14.7 C 9.82 g/m*3 14.7 C 0 km/h
2864 08-10-2010 20:56:02 14.5 C 9.7 g/m*3 14.5 C 0 km/h
2865 08-10-2010 21:08:02 14.4 C 9.77 g/m*3 14.4 C 0 km/h
2866 08-10-2010 21:20:02 14.2 C 9.65 g/m*3 14.2 C 0 km/h
2867 08-10-2010 21:32:02 14.1 C 9.59 g/m*3 14.1 C 0 km/h
2868 08-10-2010 21:44:02 14 C 9.65 g/m*3 14 C 0 km/h
2869 08-10-2010 21:56:01 13.7 C 9.59 g/m*3 13.7 C 0 km/h
2870 08-10-2010 22:08:01 13.5 C 9.59 g/m*3 13.5 C 0 km/h
2871 08-10-2010 22:20:02 13.5 C 9.59 g/m*3 13.5 C 0 km/h
2872 08-10-2010 22:33:02 13.3 C 9.47 g/m*3 13.3 C 0 km/h
2873 08-10-2010 22:45:02 13.1 C 9.47 g/m*3 13.1 C 0 km/h
2874 08-10-2010 22:57:02 13 C 9.41 g/m*3 13 C 0 km/h
2875 08-10-2010 23:09:02 12.9 C 9.47 g/m*3 12.9 C 0 km/h
Sensor: Nr:Datum:Temp:Abs-Feuchte:Windchill:Wind:
Aussen-T/F 2876 08-10-2010 23:21:02 12.7 C 9.35 g/m*3 12.7 C 0 km/h
2877 08-10-2010 23:33:02 12.6 C 9.29 g/m*3 12.6 C 0 km/h
2878 08-10-2010 23:45:02 12.4 C 9.18 g/m*3 12.4 C 0 km/h
2879 08-10-2010 23:57:02 12.3 C 9.23 g/m*3 12.3 C 0 km/h
2880 09-10-2010 00:09:02 12.1 C 9.12 g/m*3 12.1 C 0 km/h
2881 09-10-2010 00:21:03 12 C 9.06 g/m*3 12 C 0 km/h
2882 09-10-2010 00:33:03 11.9 C 9.11 g/m*3 11.9 C 0 km/h
2883 09-10-2010 00:45:03 11.7 C 9.1 g/m*3 11.7 C 0 km/h
2884 09-10-2010 00:57:03 11.8 C 9.16 g/m*3 11.8 C 0 km/h
2885 09-10-2010 01:09:03 11.5 C 8.99 g/m*3 11.5 C 0 km/h
2886 09-10-2010 01:21:03 11.5 C 8.99 g/m*3 11.5 C 0 km/h
2887 09-10-2010 01:33:03 11.4 C 9.03 g/m*3 11.4 C 0 km/h
2888 09-10-2010 01:45:03 11.2 C 8.92 g/m*3 11.2 C 0 km/h
2889 09-10-2010 01:57:03 11.1 C 8.86 g/m*3 11.1 C 0 km/h
2890 09-10-2010 02:09:03 11 C 8.81 g/m*3 11 C 0 km/h
2891 09-10-2010 02:21:03 10.9 C 8.85 g/m*3 10.9 C 0 km/h
2892 09-10-2010 02:33:03 10.7 C 8.64 g/m*3 10.7 C 0 km/h
2893 09-10-2010 02:45:03 10.6 C 8.59 g/m*3 10.6 C 0 km/h
2894 09-10-2010 02:57:03 10.5 C 8.53 g/m*3 10.5 C 0 km/h
2895 09-10-2010 03:09:03 10.4 C 8.48 g/m*3 10.4 C 0 km/h
2896 09-10-2010 03:21:03 10.3 C 8.43 g/m*3 10.3 C 0 km/h
2897 09-10-2010 03:33:03 10.2 C 8.37 g/m*3 10.2 C 0 km/h
2898 09-10-2010 03:45:03 10.2 C 8.47 g/m*3 10.2 C 0 km/h
2899 09-10-2010 03:57:03 10.1 C 8.42 g/m*3 10.1 C 0 km/h
2900 09-10-2010 04:09:03 10 C 8.36 g/m*3 10 C 0 km/h
Sensor: Nr:Datum:Temp:Abs-Feuchte:Windchill:Wind:
Aussen-T/F 2901 09-10-2010 04:21:03 9.8 C 8.35 g/m*3 9.8 C 0 km/h
2902 09-10-2010 04:33:04 9.8 C 8.35 g/m*3 9.8 C 0 km/h
2903 09-10-2010 04:45:04 9.7 C 8.3 g/m*3 9.7 C 0 km/h
2904 09-10-2010 04:57:04 9.6 C 8.24 g/m*3 9.6 C 0 km/h
2905 09-10-2010 05:09:04 9.6 C 8.34 g/m*3 9.6 C 0 km/h
2906 09-10-2010 05:21:04 9.5 C 8.28 g/m*3 9.5 C 0 km/h
2907 09-10-2010 05:33:04 9.4 C 8.23 g/m*3 9.4 C 0 km/h
2908 09-10-2010 05:45:04 9.5 C 8.28 g/m*3 9.5 C 0 km/h
2909 09-10-2010 05:57:04 9.6 C 8.34 g/m*3 9.6 C 0 km/h
2910 09-10-2010 06:09:04 9.6 C 8.34 g/m*3 9.6 C 0 km/h
2911 09-10-2010 06:21:04 9.5 C 8.37 g/m*3 9.5 C 0 km/h
2912 09-10-2010 06:33:04 9.4 C 8.32 g/m*3 9.4 C 0 km/h
2913 09-10-2010 06:45:04 9.3 C 8.27 g/m*3 9.3 C 0 km/h
2914 09-10-2010 06:57:04 9.3 C 8.27 g/m*3 9.3 C 0 km/h
2915 09-10-2010 07:09:04 9.3 C 8.27 g/m*3 9.3 C 0 km/h
2916 09-10-2010 07:21:04 9.2 C 8.22 g/m*3 9.2 C 0 km/h
2917 09-10-2010 07:33:04 9.1 C 8.16 g/m*3 9.1 C 0 km/h
2918 09-10-2010 07:45:04 9.2 C 8.22 g/m*3 9.2 C 0 km/h
2919 09-10-2010 07:57:04 9.4 C 8.32 g/m*3 9.4 C 0 km/h
2920 09-10-2010 08:09:04 9.2 C 8.22 g/m*3 9.2 C 0 km/h
2921 09-10-2010 08:21:04 9.2 C 8.22 g/m*3 9.2 C 0 km/h
2922 09-10-2010 08:33:02 9.2 C 8.22 g/m*3 9.2 C 0 km/h
2923 09-10-2010 08:45:02 9.2 C 8.22 g/m*3 9.2 C 0 km/h
2924 09-10-2010 08:57:02 9.2 C 8.22 g/m*3 9.2 C 0 km/h
2925 09-10-2010 09:09:02 9.2 C 8.22 g/m*3 9.2 C 0 km/h
Sensor: Nr:Datum:Temp:Abs-Feuchte:Windchill:Wind:
Aussen-T/F 2926 09-10-2010 09:21:02 9.2 C 8.22 g/m*3 9.2 C 0 km/h
2927 09-10-2010 09:33:02 9.2 C 8.13 g/m*3 9.2 C 0 km/h
2928 09-10-2010 09:45:02 9.3 C 8.27 g/m*3 9.3 C 0 km/h
2929 09-10-2010 09:57:02 9.5 C 8.37 g/m*3 9.5 C 0 km/h
2930 09-10-2010 10:09:02 9.7 C 8.48 g/m*3 9.7 C 0 km/h
2931 09-10-2010 10:21:01 10 C 8.55 g/m*3 10 C 0 km/h
2932 09-10-2010 10:33:02 10.5 C 8.92 g/m*3 10.5 C 0 km/h
2933 09-10-2010 10:45:02 10.8 C 9.09 g/m*3 10.8 C 0 km/h
2934 09-10-2010 10:57:02 11.2 C 9.33 g/m*3 11.2 C 0 km/h
2935 09-10-2010 11:09:02 11.7 C 9.62 g/m*3 11.7 C 0 km/h
2936 09-10-2010 11:21:02 12.1 C 9.65 g/m*3 12.1 C 0 km/h
2937 09-10-2010 11:33:02 12.5 C 9.68 g/m*3 12.5 C 0 km/h
2938 09-10-2010 11:45:02 12.9 C 9.47 g/m*3 12.9 C 0 km/h
2939 09-10-2010 11:57:02 13.4 C 9.18 g/m*3 13.4 C 0 km/h
2940 09-10-2010 12:09:02 13.7 C 8.76 g/m*3 13.7 C 0 km/h
2941 09-10-2010 12:21:01 14.4 C 8.28 g/m*3 14.4 C 0 km/h
2942 09-10-2010 12:33:02 14.7 C 7.81 g/m*3 14.7 C 0 km/h
2943 09-10-2010 12:45:01 15.1 C 8.39 g/m*3 15.1 C 0 km/h
2944 09-10-2010 12:57:01 15.5 C 7.67 g/m*3 15.5 C 0 km/h
2945 09-10-2010 13:09:02 16.1 C 7.95 g/m*3 16.1 C 0 km/h
2946 09-10-2010 13:21:02 16.6 C 8.05 g/m*3 16.6 C 0 km/h
2947 09-10-2010 13:33:02 17 C 8.1 g/m*3 17 C 0 km/h
2948 09-10-2010 13:45:02 17.6 C 7.8 g/m*3 17.6 C 0 km/h
2949 09-10-2010 13:57:02 18.2 C 7.46 g/m*3 18.2 C 0 km/h
2950 09-10-2010 14:09:01 19 C 6.84 g/m*3 19 C 0 km/h
Sensor: Nr:Datum:Temp:Abs-Feuchte:Windchill:Wind:
Aussen-T/F 2951 09-10-2010 14:21:02 19.5 C 7.05 g/m*3 19.5 C 0 km/h
2952 09-10-2010 14:33:02 20 C 7.09 g/m*3 20 C 0 km/h
2953 09-10-2010 14:45:02 20.4 C 6.72 g/m*3 20.4 C 0 km/h
2954 09-10-2010 14:57:02 20.9 C 7.47 g/m*3 20.9 C 0 km/h
2955 09-10-2010 15:09:02 21.4 C 6.75 g/m*3 21.4 C 0 km/h
2956 09-10-2010 15:21:02 21.8 C 6.72 g/m*3 21.8 C 0 km/h
2957 09-10-2010 15:33:02 21.7 C 5.91 g/m*3 21.7 C 0 km/h
2958 09-10-2010 15:45:02 22.1 C 6.25 g/m*3 22.1 C 0 km/h
2959 09-10-2010 15:57:02 22.3 C 5.73 g/m*3 22.3 C 0 km/h
2960 09-10-2010 16:09:01 22.4 C 6.16 g/m*3 22.4 C 0 km/h
2961 09-10-2010 16:21:02 22.4 C 6.16 g/m*3 22.4 C 0 km/h
2962 09-10-2010 16:33:02 22.4 C 6.36 g/m*3 22.4 C 0 km/h
2963 09-10-2010 16:45:01 22 C 6.21 g/m*3 22 C 0 km/h
2964 09-10-2010 16:57:01 21.6 C 6.26 g/m*3 21.6 C 0 km/h
2965 09-10-2010 17:09:02 21.3 C 5.96 g/m*3 21.3 C 0 km/h
2966 09-10-2010 17:21:01 21.3 C 6.15 g/m*3 21.3 C 0 km/h
2967 09-10-2010 17:33:01 21.1 C 6.26 g/m*3 21.1 C 0 km/h
2968 09-10-2010 17:45:01 20.6 C 6.26 g/m*3 20.6 C 0 km/h
2969 09-10-2010 17:57:01 19.7 C 6.28 g/m*3 19.7 C 0 km/h
2970 09-10-2010 18:09:02 19.1 C 6.23 g/m*3 19.1 C 0 km/h
2971 09-10-2010 18:21:01 18.2 C 6.22 g/m*3 18.2 C 0 km/h
2972 09-10-2010 18:33:01 17 C 6.37 g/m*3 17 C 0 km/h
2973 09-10-2010 18:45:01 15.8 C 6.33 g/m*3 15.8 C 0 km/h
2974 09-10-2010 18:57:01 15 C 6.03 g/m*3 15 C 0 km/h
2975 09-10-2010 19:09:02 14.6 C 6.01 g/m*3 14.6 C 0 km/h
Sensor: Nr:Datum:Temp:Abs-Feuchte:Windchill:Wind:
Aussen-T/F 2976 09-10-2010 19:21:02 14 C 6.03 g/m*3 14 C 0 km/h
2977 09-10-2010 19:33:01 13.8 C 5.96 g/m*3 13.8 C 0 km/h
2978 09-10-2010 19:45:02 13.4 C 6.28 g/m*3 13.4 C 0 km/h
2979 09-10-2010 19:57:02 13.2 C 6.32 g/m*3 13.2 C 0 km/h
2980 09-10-2010 20:09:01 13 C 6.35 g/m*3 13 C 0 km/h
2981 09-10-2010 20:21:02 13.1 C 6.39 g/m*3 13.1 C 0 km/h
2982 09-10-2010 20:33:01 13 C 6.46 g/m*3 13 C 0 km/h
2983 09-10-2010 20:45:02 12.7 C 6.79 g/m*3 12.7 C 0 km/h
2984 09-10-2010 20:57:02 12.4 C 6.88 g/m*3 12.4 C 0 km/h
2985 09-10-2010 21:09:02 12 C 6.82 g/m*3 12 C 0 km/h
2986 09-10-2010 21:21:02 11.7 C 7.01 g/m*3 11.7 C 0 km/h
2987 09-10-2010 21:33:02 11.5 C 7.02 g/m*3 11.5 C 0 km/h
2988 09-10-2010 21:45:01 11.2 C 7.1 g/m*3 11.2 C 0 km/h
2989 09-10-2010 21:57:01 11 C 7.01 g/m*3 11 C 0 km/h
2990 09-10-2010 22:09:01 11 C 7.01 g/m*3 11 C 0 km/h
2991 09-10-2010 22:21:02 10.8 C 7.12 g/m*3 10.8 C 0 km/h
2992 09-10-2010 22:33:01 10.6 C 7.03 g/m*3 10.6 C 0 km/h
2993 09-10-2010 22:46:02 10.4 C 7.04 g/m*3 10.4 C 0 km/h
2994 09-10-2010 22:58:02 10.2 C 6.95 g/m*3 10.2 C 0 km/h
2995 09-10-2010 23:10:02 10 C 6.86 g/m*3 10 C 0 km/h
2996 09-10-2010 23:22:02 9.8 C 6.96 g/m*3 9.8 C 0 km/h
2997 09-10-2010 23:34:02 9.7 C 6.91 g/m*3 9.7 C 0 km/h
2998 09-10-2010 23:46:02 9.4 C 6.96 g/m*3 9.4 C 0 km/h
2999 09-10-2010 23:58:02 9.2 C 6.88 g/m*3 9.2 C 0 km/h
3000 10-10-2010 00:10:02 9.1 C 6.92 g/m*3 9.1 C 0 km/h
Sensor: Nr:Datum:Temp:Abs-Feuchte:Windchill:Wind:
Aussen-T/F 3001 10-10-2010 00:22:02 9.1 C 7.01 g/m*3 9.1 C 0 km/h
3002 10-10-2010 00:34:02 9 C 6.96 g/m*3 9 C 0 km/h
3003 10-10-2010 00:46:02 8.8 C 7.05 g/m*3 8.8 C 0 km/h
3004 10-10-2010 00:58:02 8.7 C 7.01 g/m*3 8.7 C 0 km/h
3005 10-10-2010 01:10:03 8.5 C 6.92 g/m*3 8.5 C 0 km/h
3006 10-10-2010 01:22:03 8.5 C 7 g/m*3 8.5 C 0 km/h
3007 10-10-2010 01:34:03 8.4 C 6.96 g/m*3 8.4 C 0 km/h
3008 10-10-2010 01:46:03 8.3 C 6.91 g/m*3 8.3 C 0 km/h
3009 10-10-2010 01:58:03 8.2 C 6.87 g/m*3 8.2 C 0 km/h
3010 10-10-2010 02:10:03 8 C 6.86 g/m*3 8 C 0 km/h
3011 10-10-2010 02:22:03 7.9 C 6.9 g/m*3 7.9 C 0 km/h
3012 10-10-2010 02:34:03 7.9 C 6.9 g/m*3 7.9 C 0 km/h
3013 10-10-2010 02:46:03 7.6 C 6.77 g/m*3 7.6 C 0 km/h
3014 10-10-2010 02:58:03 7.4 C 6.68 g/m*3 7.4 C 0 km/h
3015 10-10-2010 03:10:03 7.5 C 6.8 g/m*3 7.5 C 0 km/h
3016 10-10-2010 03:22:03 7.2 C 6.67 g/m*3 7.2 C 0 km/h
3017 10-10-2010 03:34:03 7.1 C 6.63 g/m*3 7.1 C 0 km/h
3018 10-10-2010 03:46:03 7 C 6.59 g/m*3 7 C 0 km/h
3019 10-10-2010 03:58:03 6.9 C 6.62 g/m*3 6.9 C 0 km/h
3020 10-10-2010 04:10:03 7 C 6.59 g/m*3 7 C 0 km/h
3021 10-10-2010 04:22:03 6.8 C 6.65 g/m*3 6.8 C 0 km/h
3022 10-10-2010 04:34:03 6.7 C 6.61 g/m*3 6.7 C 0 km/h
3023 10-10-2010 04:46:03 6.7 C 6.61 g/m*3 6.7 C 0 km/h
3024 10-10-2010 04:58:03 6.6 C 6.57 g/m*3 6.6 C 0 km/h
3025 10-10-2010 05:10:03 6.5 C 6.52 g/m*3 6.5 C 0 km/h
Sensor: Nr:Datum:Temp:Abs-Feuchte:Windchill:Wind:
Aussen-T/F 3026 10-10-2010 05:22:03 6.4 C 6.48 g/m*3 6.4 C 0 km/h
3027 10-10-2010 05:34:03 6.2 C 6.4 g/m*3 6.2 C 0 km/h
3028 10-10-2010 05:46:04 6.2 C 6.4 g/m*3 6.2 C 0 km/h
3029 10-10-2010 05:58:04 6.1 C 6.43 g/m*3 6.1 C 0 km/h
3030 10-10-2010 06:10:04 5.9 C 6.35 g/m*3 5.9 C 0 km/h
3031 10-10-2010 06:22:04 6 C 6.39 g/m*3 6 C 0 km/h
3032 10-10-2010 06:34:04 6 C 6.39 g/m*3 6 C 0 km/h
3033 10-10-2010 06:46:04 5.8 C 6.38 g/m*3 5.8 C 0 km/h
3034 10-10-2010 06:58:04 5.6 C 6.29 g/m*3 5.6 C 0 km/h
3035 10-10-2010 07:10:02 5.5 C 6.25 g/m*3 5.5 C 0 km/h
3036 10-10-2010 07:22:03 5.6 C 6.29 g/m*3 5.6 C 0 km/h
3037 10-10-2010 07:34:02 5.4 C 6.28 g/m*3 5.4 C 0 km/h
3038 10-10-2010 07:46:02 5.4 C 6.28 g/m*3 5.4 C 0 km/h
3039 10-10-2010 07:58:02 5.6 C 6.43 g/m*3 5.6 C 0 km/h
3040 10-10-2010 08:10:01 6 C 6.53 g/m*3 6 C 0 km/h
3041 10-10-2010 08:22:01 6.2 C 6.62 g/m*3 6.2 C 0 km/h
3042 10-10-2010 08:34:01 6.4 C 6.71 g/m*3 6.4 C 0 km/h
3043 10-10-2010 08:46:01 6.5 C 6.75 g/m*3 6.5 C 0 km/h
3044 10-10-2010 08:58:01 6.7 C 6.84 g/m*3 6.7 C 0 km/h
3045 10-10-2010 09:10:02 7 C 6.82 g/m*3 7 C 0 km/h
3046 10-10-2010 09:22:01 6.9 C 6.85 g/m*3 6.9 C 0 km/h
3047 10-10-2010 09:34:01 7.1 C 6.79 g/m*3 7.1 C 0 km/h
3048 10-10-2010 09:46:01 7.5 C 6.8 g/m*3 7.5 C 0 km/h
3049 10-10-2010 09:58:01 7.8 C 6.69 g/m*3 7.8 C 0 km/h
3050 10-10-2010 10:10:01 8.1 C 6.49 g/m*3 8.1 C 0 km/h
Sensor: Nr:Datum:Temp:Abs-Feuchte:Windchill:Wind:
Aussen-T/F 3051 10-10-2010 10:22:02 8.4 C 6.45 g/m*3 8.4 C 0 km/h
3052 10-10-2010 10:34:01 8.8 C 6.7 g/m*3 8.8 C 0 km/h
3053 10-10-2010 10:46:03 9.5 C 6.74 g/m*3 9.5 C 0 km/h
3054 10-10-2010 10:58:03 9.8 C 6.59 g/m*3 9.8 C 0 km/h
3055 10-10-2010 11:10:02 10.2 C 6.47 g/m*3 10.2 C 0 km/h
3056 10-10-2010 11:22:02 10.3 C 6.7 g/m*3 10.3 C 0 km/h
3057 10-10-2010 11:34:02 10.8 C 6.72 g/m*3 10.8 C 0 km/h
3058 10-10-2010 11:46:02 11.5 C 6.51 g/m*3 11.5 C 0 km/h
3059 10-10-2010 11:58:03 11.8 C 6.42 g/m*3 11.8 C 0 km/h
3060 10-10-2010 12:10:01 12 C 6.61 g/m*3 12 C 0 km/h
3061 10-10-2010 12:22:02 12.3 C 6.73 g/m*3 12.3 C 0 km/h
3062 10-10-2010 12:34:02 12.7 C 6.68 g/m*3 12.7 C 0 km/h
3063 10-10-2010 12:46:02 13.2 C 6.2 g/m*3 13.2 C 0 km/h
3064 10-10-2010 12:58:02 13.8 C 6.08 g/m*3 13.8 C 0 km/h
3065 10-10-2010 13:10:03 14.4 C 5.69 g/m*3 14.4 C 0 km/h
3066 10-10-2010 13:22:02 15.2 C 5.58 g/m*3 15.2 C 0 km/h
3067 10-10-2010 13:34:02 16 C 5.86 g/m*3 16 C 0 km/h
3068 10-10-2010 13:46:01 16.5 C 5.76 g/m*3 16.5 C 0 km/h
3069 10-10-2010 13:58:01 17.2 C 5.42 g/m*3 17.2 C 0 km/h
3070 10-10-2010 14:10:02 17.8 C 5.01 g/m*3 17.8 C 0 km/h
3071 10-10-2010 14:22:01 18.3 C 5.16 g/m*3 18.3 C 0 km/h
3072 10-10-2010 14:34:01 18.7 C 5.76 g/m*3 18.7 C 0 km/h
3073 10-10-2010 14:46:01 19 C 5.7 g/m*3 19 C 0 km/h
3074 10-10-2010 14:58:01 19.3 C 5.64 g/m*3 19.3 C 0 km/h
3075 10-10-2010 15:10:01 19.6 C 5.91 g/m*3 19.6 C 0 km/h
Sensor: Nr:Datum:Temp:Abs-Feuchte:Windchill:Wind:
Aussen-T/F 3076 10-10-2010 15:22:02 20 C 6.05 g/m*3 20 C 0 km/h
3077 10-10-2010 15:34:01 20.4 C 6.01 g/m*3 20.4 C 0 km/h
3078 10-10-2010 15:46:02 20.9 C 6.37 g/m*3 20.9 C 0 km/h
3079 10-10-2010 15:58:02 21.1 C 5.16 g/m*3 21.1 C 0 km/h
3080 10-10-2010 16:10:01 21.1 C 5.71 g/m*3 21.1 C 0 km/h
3081 10-10-2010 16:22:02 21.4 C 5.81 g/m*3 21.4 C 0 km/h
3082 10-10-2010 16:34:01 21.3 C 5.78 g/m*3 21.3 C 0 km/h
3083 10-10-2010 16:46:02 21.3 C 5.59 g/m*3 21.3 C 0 km/h
3084 10-10-2010 16:58:02 21.3 C 5.59 g/m*3 21.3 C 0 km/h
3085 10-10-2010 17:10:02 21.2 C 5.56 g/m*3 21.2 C 0 km/h
3086 10-10-2010 17:22:02 21 C 5.86 g/m*3 21 C 0 km/h
3087 10-10-2010 17:34:02 20.8 C 5.79 g/m*3 20.8 C 0 km/h
3088 10-10-2010 17:46:01 20.4 C 5.48 g/m*3 20.4 C 0 km/h
3089 10-10-2010 17:58:01 19.8 C 5.3 g/m*3 19.8 C 0 km/h
3090 10-10-2010 18:10:02 19.1 C 5.41 g/m*3 19.1 C 0 km/h
3091 10-10-2010 18:22:01 18.3 C 5.32 g/m*3 18.3 C 0 km/h
3092 10-10-2010 18:34:02 17.1 C 5.24 g/m*3 17.1 C 0 km/h
3093 10-10-2010 18:46:01 16.2 C 5.65 g/m*3 16.2 C 0 km/h
3094 10-10-2010 18:58:01 15.3 C 5.48 g/m*3 15.3 C 0 km/h
3095 10-10-2010 19:10:02 14.8 C 5.57 g/m*3 14.8 C 0 km/h
3096 10-10-2010 19:22:01 14.5 C 5.35 g/m*3 14.5 C 0 km/h
3097 10-10-2010 19:34:02 14.2 C 5.62 g/m*3 14.2 C 0 km/h
3098 10-10-2010 19:46:01 13.7 C 5.68 g/m*3 13.7 C 0 km/h
3099 10-10-2010 19:58:01 13.7 C 5.21 g/m*3 13.7 C 0 km/h
3100 10-10-2010 20:10:02 13.4 C 5.23 g/m*3 13.4 C 0 km/h
Sensor: Nr:Datum:Temp:Abs-Feuchte:Windchill:Wind:
Aussen-T/F 3101 10-10-2010 20:22:02 13 C 5.22 g/m*3 13 C 0 km/h
3102 10-10-2010 20:34:01 13 C 4.99 g/m*3 13 C 0 km/h
3103 10-10-2010 20:46:02 12.8 C 4.7 g/m*3 12.8 C 0 km/h
3104 10-10-2010 20:58:02 12.9 C 4.4 g/m*3 12.9 C 0 km/h
3105 10-10-2010 21:10:01 12.7 C 4.23 g/m*3 12.7 C 0 km/h
3106 10-10-2010 21:22:02 12.6 C 4.09 g/m*3 12.6 C 0 km/h
3107 10-10-2010 21:34:01 12.5 C 3.85 g/m*3 12.5 C 0 km/h
3108 10-10-2010 21:46:02 12.4 C 3.93 g/m*3 12.4 C 0 km/h
3109 10-10-2010 21:58:03 12 C 3.94 g/m*3 12 C 0 km/h
3110 10-10-2010 22:11:02 11.8 C 3.89 g/m*3 11.8 C 0 km/h
3111 10-10-2010 22:23:03 11.6 C 4.16 g/m*3 11.6 C 0 km/h
3112 10-10-2010 22:35:03 11.4 C 4.11 g/m*3 11.4 C 0 km/h
3113 10-10-2010 22:47:03 11.3 C 4.18 g/m*3 11.3 C 0 km/h
3114 10-10-2010 22:59:03 11.2 C 4.26 g/m*3 11.2 C 0 km/h
3115 10-10-2010 23:11:03 11.1 C 4.33 g/m*3 11.1 C 0 km/h
3116 10-10-2010 23:23:03 10.9 C 4.48 g/m*3 10.9 C 0 km/h
3117 10-10-2010 23:35:03 10.7 C 4.52 g/m*3 10.7 C 0 km/h
3118 10-10-2010 23:47:03 10.6 C 4.59 g/m*3 10.6 C 0 km/h
3119 10-10-2010 23:59:03 10.3 C 4.69 g/m*3 10.3 C 0 km/h
3120 11-10-2010 00:11:03 10.2 C 4.85 g/m*3 10.2 C 0 km/h
3121 11-10-2010 00:23:03 10 C 4.89 g/m*3 10 C 0 km/h
3122 11-10-2010 00:35:03 9.9 C 4.95 g/m*3 9.9 C 0 km/h
3123 11-10-2010 00:47:03 10 C 4.79 g/m*3 10 C 0 km/h
3124 11-10-2010 00:59:03 9.8 C 4.92 g/m*3 9.8 C 0 km/h
3125 11-10-2010 01:11:03 9.6 C 4.95 g/m*3 9.6 C 0 km/h
Sensor: Nr:Datum:Temp:Abs-Feuchte:Windchill:Wind:
Aussen-T/F 3126 11-10-2010 01:23:03 9.5 C 4.92 g/m*3 9.5 C 0 km/h
3127 11-10-2010 01:35:03 9.4 C 4.88 g/m*3 9.4 C 0 km/h
3128 11-10-2010 01:47:03 9.3 C 4.94 g/m*3 9.3 C 0 km/h
3129 11-10-2010 01:59:03 9.4 C 4.88 g/m*3 9.4 C 0 km/h
3130 11-10-2010 02:11:03 9.4 C 4.79 g/m*3 9.4 C 0 km/h
3131 11-10-2010 02:23:03 9.4 C 4.88 g/m*3 9.4 C 0 km/h
3132 11-10-2010 02:35:03 9 C 4.85 g/m*3 9 C 0 km/h
3133 11-10-2010 02:47:04 8.9 C 4.91 g/m*3 8.9 C 0 km/h
3134 11-10-2010 02:59:04 8.7 C 4.93 g/m*3 8.7 C 0 km/h
3135 11-10-2010 03:11:04 8.5 C 4.95 g/m*3 8.5 C 0 km/h
3136 11-10-2010 03:23:04 8.3 C 4.97 g/m*3 8.3 C 0 km/h
3137 11-10-2010 03:35:04 8.2 C 5.02 g/m*3 8.2 C 0 km/h
3138 11-10-2010 03:47:04 8.1 C 4.99 g/m*3 8.1 C 0 km/h
3139 11-10-2010 03:59:04 8.1 C 4.99 g/m*3 8.1 C 0 km/h
3140 11-10-2010 04:11:04 7.7 C 5.03 g/m*3 7.7 C 0 km/h
3141 11-10-2010 04:23:04 7.5 C 5.12 g/m*3 7.5 C 0 km/h
3142 11-10-2010 04:35:04 7.5 C 5.12 g/m*3 7.5 C 0 km/h
3143 11-10-2010 04:47:04 7.6 C 5.16 g/m*3 7.6 C 0 km/h
3144 11-10-2010 04:59:04 7.6 C 5.08 g/m*3 7.6 C 0 km/h
3145 11-10-2010 05:11:04 7.1 C 5.07 g/m*3 7.1 C 0 km/h
3146 11-10-2010 05:23:04 7 C 5.27 g/m*3 7 C 0 km/h
3147 11-10-2010 05:35:04 6.6 C 5.28 g/m*3 6.6 C 0 km/h
3148 11-10-2010 05:47:04 6.3 C 5.26 g/m*3 6.3 C 0 km/h
3149 11-10-2010 05:59:04 6.2 C 5.29 g/m*3 6.2 C 0 km/h
3150 11-10-2010 06:11:04 6 C 5.23 g/m*3 6 C 0 km/h
Sensor: Nr:Datum:Temp:Abs-Feuchte:Windchill:Wind:
Aussen-T/F 3151 11-10-2010 06:23:04 5.8 C 5.23 g/m*3 5.8 C 0 km/h
3152 11-10-2010 06:35:04 5.7 C 5.34 g/m*3 5.7 C 0 km/h
3153 11-10-2010 06:47:04 5.6 C 5.37 g/m*3 5.6 C 0 km/h
3154 11-10-2010 06:59:05 5.5 C 5.41 g/m*3 5.5 C 0 km/h
3155 11-10-2010 07:11:02 5.4 C 5.37 g/m*3 5.4 C 0 km/h
3156 11-10-2010 07:23:02 5.3 C 5.41 g/m*3 5.3 C 0 km/h
3157 11-10-2010 07:35:03 5.3 C 5.41 g/m*3 5.3 C 0 km/h
3158 11-10-2010 07:47:02 5.1 C 5.34 g/m*3 5.1 C 0 km/h
3159 11-10-2010 07:59:02 5 C 5.3 g/m*3 5 C 0 km/h
3160 11-10-2010 08:11:02 4.9 C 5.33 g/m*3 4.9 C 0 km/h
3161 11-10-2010 08:23:02 4.9 C 5.4 g/m*3 4.9 C 0 km/h
3162 11-10-2010 08:35:02 5 C 5.37 g/m*3 5 C 0 km/h
3163 11-10-2010 08:47:02 5 C 5.44 g/m*3 5 C 0 km/h
3164 11-10-2010 08:59:02 5 C 5.44 g/m*3 5 C 0 km/h
3165 11-10-2010 09:11:02 5.3 C 5.61 g/m*3 5.3 C 0 km/h
3166 11-10-2010 09:23:02 5.4 C 5.65 g/m*3 5.4 C 0 km/h
3167 11-10-2010 09:35:02 5.6 C 5.73 g/m*3 5.6 C 0 km/h
3168 11-10-2010 09:47:01 5.8 C 5.73 g/m*3 5.8 C 0 km/h
3169 11-10-2010 09:59:01 5.9 C 5.77 g/m*3 5.9 C 0 km/h
3170 11-10-2010 10:11:01 6.1 C 5.77 g/m*3 6.1 C 0 km/h
3171 11-10-2010 10:23:01 6.5 C 6 g/m*3 6.5 C 0 km/h
3172 11-10-2010 10:35:01 7.1 C 6.16 g/m*3 7.1 C 0 km/h
3173 11-10-2010 10:47:02 7.7 C 6.32 g/m*3 7.7 C 0 km/h
3174 11-10-2010 10:59:02 8.2 C 6.28 g/m*3 8.2 C 0 km/h
3175 11-10-2010 11:11:02 8.7 C 6.31 g/m*3 8.7 C 0 km/h
Sensor: Nr:Datum:Temp:Abs-Feuchte:Windchill:Wind:
Aussen-T/F 3176 11-10-2010 11:23:03 9 C 6.26 g/m*3 9 C 0 km/h
3177 11-10-2010 11:35:02 9.4 C 6.33 g/m*3 9.4 C 0 km/h
3178 11-10-2010 11:47:01 9.9 C 6.44 g/m*3 9.9 C 0 km/h
3179 11-10-2010 11:59:01 10.3 C 6.42 g/m*3 10.3 C 0 km/h
3180 11-10-2010 12:11:02 10.7 C 6.38 g/m*3 10.7 C 0 km/h
3181 11-10-2010 12:23:01 11.3 C 6.43 g/m*3 11.3 C 0 km/h
3182 11-10-2010 12:35:01 11.6 C 6.44 g/m*3 11.6 C 0 km/h
3183 11-10-2010 12:47:01 12 C 6.39 g/m*3 12 C 0 km/h
3184 11-10-2010 12:59:01 12.5 C 6.6 g/m*3 12.5 C 0 km/h
3185 11-10-2010 13:11:01 13.8 C 6.2 g/m*3 13.8 C 0 km/h
3186 11-10-2010 13:23:02 14.5 C 6.09 g/m*3 14.5 C 0 km/h
3187 11-10-2010 13:35:01 14.9 C 5.99 g/m*3 14.9 C 0 km/h
3188 11-10-2010 13:47:02 15.4 C 5.65 g/m*3 15.4 C 0 km/h
3189 11-10-2010 13:59:02 16 C 5.45 g/m*3 16 C 0 km/h
3190 11-10-2010 14:11:02 16.7 C 4.97 g/m*3 16.7 C 0 km/h
3191 11-10-2010 14:23:02 17.1 C 5.82 g/m*3 17.1 C 0 km/h
3192 11-10-2010 14:35:01 17.4 C 5.48 g/m*3 17.4 C 0 km/h
3193 11-10-2010 14:47:01 17.9 C 5.5 g/m*3 17.9 C 0 km/h
3194 11-10-2010 14:59:02 18.3 C 5.47 g/m*3 18.3 C 0 km/h
3195 11-10-2010 15:11:01 18.8 C 5.31 g/m*3 18.8 C 0 km/h
3196 11-10-2010 15:23:01 19.4 C 5.51 g/m*3 19.4 C 0 km/h
3197 11-10-2010 15:35:01 19.8 C 5.12 g/m*3 19.8 C 0 km/h
3198 11-10-2010 15:47:01 20.3 C 4.57 g/m*3 20.3 C 0 km/h
3199 11-10-2010 15:59:01 20.6 C 4.65 g/m*3 20.6 C 0 km/h
3200 11-10-2010 16:11:02 20.8 C 4.71 g/m*3 20.8 C 0 km/h
Sensor: Nr:Datum:Temp:Abs-Feuchte:Windchill:Wind:
Aussen-T/F 3201 11-10-2010 16:23:01 21.1 C 4.97 g/m*3 21.1 C 0 km/h
3202 11-10-2010 16:35:01 21.2 C 4.63 g/m*3 21.2 C 0 km/h
3203 11-10-2010 16:47:01 21 C 4.58 g/m*3 21 C 0 km/h
3204 11-10-2010 16:59:01 20.7 C 4.14 g/m*3 20.7 C 0 km/h
3205 11-10-2010 17:11:02 20.5 C 3.74 g/m*3 20.5 C 0 km/h
3206 11-10-2010 17:23:01 20 C 3.63 g/m*3 20 C 0 km/h
3207 11-10-2010 17:35:01 19.5 C 3.36 g/m*3 19.5 C 0 km/h
3208 11-10-2010 17:47:01 19.1 C 3.44 g/m*3 19.1 C 0 km/h
3209 11-10-2010 17:59:01 18.7 C 3.84 g/m*3 18.7 C 0 km/h
3210 11-10-2010 18:11:01 18 C 4.45 g/m*3 18 C 0 km/h
3211 11-10-2010 18:23:02 16.9 C 4.31 g/m*3 16.9 C 0 km/h
3212 11-10-2010 18:35:01 15.7 C 3.88 g/m*3 15.7 C 0 km/h
3213 11-10-2010 18:47:03 15.1 C 3.61 g/m*3 15.1 C 0 km/h
3214 11-10-2010 18:59:03 14.9 C 3.7 g/m*3 14.9 C 0 km/h
3215 11-10-2010 19:11:02 14.4 C 3.71 g/m*3 14.4 C 0 km/h
3216 11-10-2010 19:23:02 13.7 C 4.14 g/m*3 13.7 C 0 km/h
3217 11-10-2010 19:35:02 13.2 C 4.48 g/m*3 13.2 C 0 km/h
3218 11-10-2010 19:47:02 12.5 C 4.51 g/m*3 12.5 C 0 km/h
3219 11-10-2010 19:59:03 12.1 C 4.72 g/m*3 12.1 C 0 km/h
3220 11-10-2010 20:11:02 11.9 C 4.77 g/m*3 11.9 C 0 km/h
3221 11-10-2010 20:23:02 11.8 C 4.84 g/m*3 11.8 C 0 km/h
3222 11-10-2010 20:35:02 11.3 C 4.79 g/m*3 11.3 C 0 km/h
3223 11-10-2010 20:47:01 11 C 4.7 g/m*3 11 C 0 km/h
3224 11-10-2010 20:59:01 10.6 C 4.98 g/m*3 10.6 C 0 km/h
3225 11-10-2010 21:11:02 10.3 C 5.08 g/m*3 10.3 C 0 km/h
Sensor: Nr:Datum:Temp:Abs-Feuchte:Windchill:Wind:
Aussen-T/F 3226 11-10-2010 21:23:01 10.1 C 4.82 g/m*3 10.1 C 0 km/h
3227 11-10-2010 21:35:02 9.9 C